<?xml version="1.0" encoding="UTF-8" standalone="no" ?>
<gpx xmlns="http://www.topografix.com/GPX/1/1" xmlns:xsi="http://www.w3.org/2001/XMLSchema-instance" xsi:schemaLocation="http://www.topografix.com/GPX/1/1 http://www.topografix.com/GPX/1/1/gpx.xsd" version="1.1" creator="VisuGPX - https://www.visugpx.com">
  <metadata>
    <name>83-D-la Croix Valmer-cap Taillat</name>
    <desc><![CDATA[83-D-la Croix Valmer-long : plage de Gigaro, Cap Lardier, Cap Taillat
2025-10-12-SH]]></desc>
  </metadata>
  <trk>
    <name><![CDATA[12 oct. 2025 à 09:25:24]]></name>
    <cmt><![CDATA[12 oct. 2025 à 09:25:24]]></cmt>
    <trkseg>
      <trkpt lat="43.18522" lon="6.5991">
        <ele>7</ele>
        <time>2025-10-12T07:25:24Z</time>
      </trkpt>
      <trkpt lat="43.18527" lon="6.59904">
        <ele>7</ele>
        <time>2025-10-12T07:28:54Z</time>
      </trkpt>
      <trkpt lat="43.18523" lon="6.59899">
        <ele>6</ele>
        <time>2025-10-12T07:29:31Z</time>
      </trkpt>
      <trkpt lat="43.18523" lon="6.59891">
        <ele>7</ele>
        <time>2025-10-12T07:29:55Z</time>
      </trkpt>
      <trkpt lat="43.18531" lon="6.59889">
        <ele>7</ele>
        <time>2025-10-12T07:30:24Z</time>
      </trkpt>
      <trkpt lat="43.18528" lon="6.59891">
        <ele>7</ele>
        <time>2025-10-12T07:30:58Z</time>
      </trkpt>
      <trkpt lat="43.18524" lon="6.59891">
        <ele>7</ele>
        <time>2025-10-12T07:31:10Z</time>
      </trkpt>
      <trkpt lat="43.18529" lon="6.59881">
        <ele>8</ele>
        <time>2025-10-12T07:33:21Z</time>
      </trkpt>
      <trkpt lat="43.18533" lon="6.59874">
        <ele>8</ele>
        <time>2025-10-12T07:33:30Z</time>
      </trkpt>
      <trkpt lat="43.1852" lon="6.59866">
        <ele>10</ele>
        <time>2025-10-12T07:33:56Z</time>
      </trkpt>
      <trkpt lat="43.18515" lon="6.5986">
        <ele>11</ele>
        <time>2025-10-12T07:34:01Z</time>
      </trkpt>
      <trkpt lat="43.18509" lon="6.59856">
        <ele>12</ele>
        <time>2025-10-12T07:34:09Z</time>
      </trkpt>
      <trkpt lat="43.18498" lon="6.59849">
        <ele>12</ele>
        <time>2025-10-12T07:34:22Z</time>
      </trkpt>
      <trkpt lat="43.18492" lon="6.59846">
        <ele>12</ele>
        <time>2025-10-12T07:34:30Z</time>
      </trkpt>
      <trkpt lat="43.18461" lon="6.59848">
        <ele>10</ele>
        <time>2025-10-12T07:35:07Z</time>
      </trkpt>
      <trkpt lat="43.18449" lon="6.59852">
        <ele>9</ele>
        <time>2025-10-12T07:35:16Z</time>
      </trkpt>
      <trkpt lat="43.18443" lon="6.59851">
        <ele>9</ele>
        <time>2025-10-12T07:35:20Z</time>
      </trkpt>
      <trkpt lat="43.18437" lon="6.59848">
        <ele>8</ele>
        <time>2025-10-12T07:35:24Z</time>
      </trkpt>
      <trkpt lat="43.18432" lon="6.59848">
        <ele>8</ele>
        <time>2025-10-12T07:35:28Z</time>
      </trkpt>
      <trkpt lat="43.18425" lon="6.59851">
        <ele>7</ele>
        <time>2025-10-12T07:35:36Z</time>
      </trkpt>
      <trkpt lat="43.18425" lon="6.59859">
        <ele>7</ele>
        <time>2025-10-12T07:35:41Z</time>
      </trkpt>
      <trkpt lat="43.18425" lon="6.59868">
        <ele>6</ele>
        <time>2025-10-12T07:35:47Z</time>
      </trkpt>
      <trkpt lat="43.18423" lon="6.59875">
        <ele>6</ele>
        <time>2025-10-12T07:35:51Z</time>
      </trkpt>
      <trkpt lat="43.18424" lon="6.5989">
        <ele>6</ele>
        <time>2025-10-12T07:36:01Z</time>
      </trkpt>
      <trkpt lat="43.18421" lon="6.59909">
        <ele>5</ele>
        <time>2025-10-12T07:36:14Z</time>
      </trkpt>
      <trkpt lat="43.18409" lon="6.59955">
        <ele>5</ele>
        <time>2025-10-12T07:36:49Z</time>
      </trkpt>
      <trkpt lat="43.18396" lon="6.59991">
        <ele>5</ele>
        <time>2025-10-12T07:37:15Z</time>
      </trkpt>
      <trkpt lat="43.18391" lon="6.60018">
        <ele>5</ele>
        <time>2025-10-12T07:37:33Z</time>
      </trkpt>
      <trkpt lat="43.18386" lon="6.60025">
        <ele>5</ele>
        <time>2025-10-12T07:37:38Z</time>
      </trkpt>
      <trkpt lat="43.18382" lon="6.60039">
        <ele>5</ele>
        <time>2025-10-12T07:37:51Z</time>
      </trkpt>
      <trkpt lat="43.18381" lon="6.60048">
        <ele>5</ele>
        <time>2025-10-12T07:37:57Z</time>
      </trkpt>
      <trkpt lat="43.18363" lon="6.60087">
        <ele>4</ele>
        <time>2025-10-12T07:48:14Z</time>
      </trkpt>
      <trkpt lat="43.18361" lon="6.60099">
        <ele>4</ele>
        <time>2025-10-12T07:48:26Z</time>
      </trkpt>
      <trkpt lat="43.18351" lon="6.60133">
        <ele>4</ele>
        <time>2025-10-12T07:48:51Z</time>
      </trkpt>
      <trkpt lat="43.18347" lon="6.60138">
        <ele>4</ele>
        <time>2025-10-12T07:48:56Z</time>
      </trkpt>
      <trkpt lat="43.1834" lon="6.60141">
        <ele>3</ele>
        <time>2025-10-12T07:49:01Z</time>
      </trkpt>
      <trkpt lat="43.18334" lon="6.60141">
        <ele>4</ele>
        <time>2025-10-12T07:49:07Z</time>
      </trkpt>
      <trkpt lat="43.18323" lon="6.60143">
        <ele>3</ele>
        <time>2025-10-12T07:49:16Z</time>
      </trkpt>
      <trkpt lat="43.18317" lon="6.60142">
        <ele>4</ele>
        <time>2025-10-12T07:49:26Z</time>
      </trkpt>
      <trkpt lat="43.1831" lon="6.60146">
        <ele>3</ele>
        <time>2025-10-12T07:49:43Z</time>
      </trkpt>
      <trkpt lat="43.18305" lon="6.60151">
        <ele>3</ele>
        <time>2025-10-12T07:49:51Z</time>
      </trkpt>
      <trkpt lat="43.18292" lon="6.60181">
        <ele>4</ele>
        <time>2025-10-12T07:50:24Z</time>
      </trkpt>
      <trkpt lat="43.18295" lon="6.60193">
        <ele>5</ele>
        <time>2025-10-12T07:50:38Z</time>
      </trkpt>
      <trkpt lat="43.18291" lon="6.60202">
        <ele>6</ele>
        <time>2025-10-12T07:50:50Z</time>
      </trkpt>
      <trkpt lat="43.1829" lon="6.60212">
        <ele>7</ele>
        <time>2025-10-12T07:50:57Z</time>
      </trkpt>
      <trkpt lat="43.18283" lon="6.60217">
        <ele>7</ele>
        <time>2025-10-12T07:51:02Z</time>
      </trkpt>
      <trkpt lat="43.18271" lon="6.60217">
        <ele>7</ele>
        <time>2025-10-12T07:51:13Z</time>
      </trkpt>
      <trkpt lat="43.18252" lon="6.60214">
        <ele>6</ele>
        <time>2025-10-12T07:51:33Z</time>
      </trkpt>
      <trkpt lat="43.18247" lon="6.60218">
        <ele>6</ele>
        <time>2025-10-12T07:51:38Z</time>
      </trkpt>
      <trkpt lat="43.18224" lon="6.60233">
        <ele>11</ele>
        <time>2025-10-12T07:52:32Z</time>
      </trkpt>
      <trkpt lat="43.18212" lon="6.60241">
        <ele>12</ele>
        <time>2025-10-12T07:52:48Z</time>
      </trkpt>
      <trkpt lat="43.18206" lon="6.6024">
        <ele>11</ele>
        <time>2025-10-12T07:53:01Z</time>
      </trkpt>
      <trkpt lat="43.18198" lon="6.60221">
        <ele>5</ele>
        <time>2025-10-12T07:53:35Z</time>
      </trkpt>
      <trkpt lat="43.18193" lon="6.60225">
        <ele>4</ele>
        <time>2025-10-12T07:53:47Z</time>
      </trkpt>
      <trkpt lat="43.18188" lon="6.60231">
        <ele>5</ele>
        <time>2025-10-12T07:53:59Z</time>
      </trkpt>
      <trkpt lat="43.18185" lon="6.60238">
        <ele>4</ele>
        <time>2025-10-12T07:54:06Z</time>
      </trkpt>
      <trkpt lat="43.1818" lon="6.60247">
        <ele>5</ele>
        <time>2025-10-12T07:54:18Z</time>
      </trkpt>
      <trkpt lat="43.18174" lon="6.60248">
        <ele>5</ele>
        <time>2025-10-12T07:54:24Z</time>
      </trkpt>
      <trkpt lat="43.18169" lon="6.60248">
        <ele>5</ele>
        <time>2025-10-12T07:54:32Z</time>
      </trkpt>
      <trkpt lat="43.18165" lon="6.60243">
        <ele>6</ele>
        <time>2025-10-12T07:54:38Z</time>
      </trkpt>
      <trkpt lat="43.18156" lon="6.6024">
        <ele>6</ele>
        <time>2025-10-12T07:54:53Z</time>
      </trkpt>
      <trkpt lat="43.18151" lon="6.60236">
        <ele>5</ele>
        <time>2025-10-12T07:55:00Z</time>
      </trkpt>
      <trkpt lat="43.18147" lon="6.60245">
        <ele>6</ele>
        <time>2025-10-12T07:55:20Z</time>
      </trkpt>
      <trkpt lat="43.18132" lon="6.60259">
        <ele>5</ele>
        <time>2025-10-12T07:55:50Z</time>
      </trkpt>
      <trkpt lat="43.18123" lon="6.60261">
        <ele>6</ele>
        <time>2025-10-12T07:56:04Z</time>
      </trkpt>
      <trkpt lat="43.18114" lon="6.60268">
        <ele>5</ele>
        <time>2025-10-12T07:56:19Z</time>
      </trkpt>
      <trkpt lat="43.18108" lon="6.60273">
        <ele>5</ele>
        <time>2025-10-12T07:56:28Z</time>
      </trkpt>
      <trkpt lat="43.18101" lon="6.60276">
        <ele>5</ele>
        <time>2025-10-12T07:56:38Z</time>
      </trkpt>
      <trkpt lat="43.18096" lon="6.60276">
        <ele>4</ele>
        <time>2025-10-12T07:56:44Z</time>
      </trkpt>
      <trkpt lat="43.1809" lon="6.60278">
        <ele>4</ele>
        <time>2025-10-12T07:56:49Z</time>
      </trkpt>
      <trkpt lat="43.1808" lon="6.60288">
        <ele>5</ele>
        <time>2025-10-12T07:57:09Z</time>
      </trkpt>
      <trkpt lat="43.18072" lon="6.60292">
        <ele>3</ele>
        <time>2025-10-12T07:57:21Z</time>
      </trkpt>
      <trkpt lat="43.18067" lon="6.60293">
        <ele>2</ele>
        <time>2025-10-12T07:57:32Z</time>
      </trkpt>
      <trkpt lat="43.18062" lon="6.60292">
        <ele>1</ele>
        <time>2025-10-12T07:57:43Z</time>
      </trkpt>
      <trkpt lat="43.18058" lon="6.60296">
        <ele>2.7</ele>
        <time>2025-10-12T07:57:55Z</time>
      </trkpt>
      <trkpt lat="43.18055" lon="6.60301">
        <ele>1</ele>
        <time>2025-10-12T07:58:07Z</time>
      </trkpt>
      <trkpt lat="43.18055" lon="6.60309">
        <ele>2</ele>
        <time>2025-10-12T07:58:19Z</time>
      </trkpt>
      <trkpt lat="43.1804" lon="6.60306">
        <ele>6</ele>
        <time>2025-10-12T07:59:22Z</time>
      </trkpt>
      <trkpt lat="43.18036" lon="6.60303">
        <ele>7</ele>
        <time>2025-10-12T07:59:28Z</time>
      </trkpt>
      <trkpt lat="43.18032" lon="6.60302">
        <ele>7</ele>
        <time>2025-10-12T07:59:34Z</time>
      </trkpt>
      <trkpt lat="43.18027" lon="6.60304">
        <ele>7</ele>
        <time>2025-10-12T07:59:39Z</time>
      </trkpt>
      <trkpt lat="43.18022" lon="6.60303">
        <ele>7</ele>
        <time>2025-10-12T07:59:47Z</time>
      </trkpt>
      <trkpt lat="43.18017" lon="6.60304">
        <ele>9</ele>
        <time>2025-10-12T07:59:53Z</time>
      </trkpt>
      <trkpt lat="43.18012" lon="6.60294">
        <ele>11</ele>
        <time>2025-10-12T08:00:05Z</time>
      </trkpt>
      <trkpt lat="43.18009" lon="6.60289">
        <ele>11</ele>
        <time>2025-10-12T08:00:13Z</time>
      </trkpt>
      <trkpt lat="43.17999" lon="6.60285">
        <ele>11</ele>
        <time>2025-10-12T08:00:24Z</time>
      </trkpt>
      <trkpt lat="43.17992" lon="6.60286">
        <ele>12</ele>
        <time>2025-10-12T08:00:34Z</time>
      </trkpt>
      <trkpt lat="43.17984" lon="6.60284">
        <ele>12</ele>
        <time>2025-10-12T08:00:46Z</time>
      </trkpt>
      <trkpt lat="43.17979" lon="6.60284">
        <ele>12</ele>
        <time>2025-10-12T08:00:52Z</time>
      </trkpt>
      <trkpt lat="43.1797" lon="6.6029">
        <ele>14</ele>
        <time>2025-10-12T08:01:25Z</time>
      </trkpt>
      <trkpt lat="43.17963" lon="6.60293">
        <ele>14</ele>
        <time>2025-10-12T08:01:33Z</time>
      </trkpt>
      <trkpt lat="43.17948" lon="6.60294">
        <ele>14</ele>
        <time>2025-10-12T08:01:47Z</time>
      </trkpt>
      <trkpt lat="43.17929" lon="6.60293">
        <ele>15</ele>
        <time>2025-10-12T08:02:07Z</time>
      </trkpt>
      <trkpt lat="43.17922" lon="6.60298">
        <ele>15</ele>
        <time>2025-10-12T08:02:17Z</time>
      </trkpt>
      <trkpt lat="43.17914" lon="6.60296">
        <ele>14</ele>
        <time>2025-10-12T08:02:31Z</time>
      </trkpt>
      <trkpt lat="43.17898" lon="6.6031">
        <ele>13</ele>
        <time>2025-10-12T08:05:25Z</time>
      </trkpt>
      <trkpt lat="43.1789" lon="6.60318">
        <ele>13</ele>
        <time>2025-10-12T08:05:38Z</time>
      </trkpt>
      <trkpt lat="43.17888" lon="6.60327">
        <ele>14</ele>
        <time>2025-10-12T08:05:51Z</time>
      </trkpt>
      <trkpt lat="43.17871" lon="6.60338">
        <ele>16</ele>
        <time>2025-10-12T08:06:21Z</time>
      </trkpt>
      <trkpt lat="43.17863" lon="6.60343">
        <ele>16</ele>
        <time>2025-10-12T08:06:33Z</time>
      </trkpt>
      <trkpt lat="43.17857" lon="6.60346">
        <ele>17</ele>
        <time>2025-10-12T08:06:39Z</time>
      </trkpt>
      <trkpt lat="43.17853" lon="6.60351">
        <ele>16</ele>
        <time>2025-10-12T08:06:47Z</time>
      </trkpt>
      <trkpt lat="43.17854" lon="6.60358">
        <ele>16</ele>
        <time>2025-10-12T08:07:29Z</time>
      </trkpt>
      <trkpt lat="43.17846" lon="6.60364">
        <ele>15</ele>
        <time>2025-10-12T08:07:41Z</time>
      </trkpt>
      <trkpt lat="43.17841" lon="6.60373">
        <ele>14</ele>
        <time>2025-10-12T08:07:54Z</time>
      </trkpt>
      <trkpt lat="43.17834" lon="6.60378">
        <ele>13</ele>
        <time>2025-10-12T08:08:05Z</time>
      </trkpt>
      <trkpt lat="43.17822" lon="6.60377">
        <ele>13</ele>
        <time>2025-10-12T08:08:20Z</time>
      </trkpt>
      <trkpt lat="43.17817" lon="6.60377">
        <ele>12</ele>
        <time>2025-10-12T08:08:32Z</time>
      </trkpt>
      <trkpt lat="43.17807" lon="6.60379">
        <ele>11</ele>
        <time>2025-10-12T08:08:43Z</time>
      </trkpt>
      <trkpt lat="43.17793" lon="6.60382">
        <ele>10</ele>
        <time>2025-10-12T08:09:15Z</time>
      </trkpt>
      <trkpt lat="43.17784" lon="6.60387">
        <ele>9</ele>
        <time>2025-10-12T08:09:28Z</time>
      </trkpt>
      <trkpt lat="43.17779" lon="6.60392">
        <ele>9</ele>
        <time>2025-10-12T08:09:34Z</time>
      </trkpt>
      <trkpt lat="43.17763" lon="6.60402">
        <ele>8</ele>
        <time>2025-10-12T08:09:54Z</time>
      </trkpt>
      <trkpt lat="43.17757" lon="6.60407">
        <ele>7</ele>
        <time>2025-10-12T08:10:00Z</time>
      </trkpt>
      <trkpt lat="43.1775" lon="6.6042">
        <ele>8</ele>
        <time>2025-10-12T08:10:12Z</time>
      </trkpt>
      <trkpt lat="43.17742" lon="6.60427">
        <ele>8</ele>
        <time>2025-10-12T08:10:22Z</time>
      </trkpt>
      <trkpt lat="43.17735" lon="6.60427">
        <ele>9</ele>
        <time>2025-10-12T08:10:27Z</time>
      </trkpt>
      <trkpt lat="43.17726" lon="6.60416">
        <ele>9</ele>
        <time>2025-10-12T08:10:37Z</time>
      </trkpt>
      <trkpt lat="43.17718" lon="6.60411">
        <ele>8</ele>
        <time>2025-10-12T08:10:46Z</time>
      </trkpt>
      <trkpt lat="43.17711" lon="6.60409">
        <ele>8</ele>
        <time>2025-10-12T08:10:54Z</time>
      </trkpt>
      <trkpt lat="43.17703" lon="6.60413">
        <ele>7</ele>
        <time>2025-10-12T08:11:04Z</time>
      </trkpt>
      <trkpt lat="43.17696" lon="6.60415">
        <ele>6</ele>
        <time>2025-10-12T08:11:12Z</time>
      </trkpt>
      <trkpt lat="43.17689" lon="6.60425">
        <ele>5</ele>
        <time>2025-10-12T08:11:26Z</time>
      </trkpt>
      <trkpt lat="43.17686" lon="6.60431">
        <ele>5</ele>
        <time>2025-10-12T08:11:32Z</time>
      </trkpt>
      <trkpt lat="43.17682" lon="6.60438">
        <ele>4</ele>
        <time>2025-10-12T08:11:40Z</time>
      </trkpt>
      <trkpt lat="43.17674" lon="6.60442">
        <ele>3</ele>
        <time>2025-10-12T08:11:52Z</time>
      </trkpt>
      <trkpt lat="43.1767" lon="6.60444">
        <ele>1</ele>
        <time>2025-10-12T08:12:04Z</time>
      </trkpt>
      <trkpt lat="43.17661" lon="6.60453">
        <ele>5.1</ele>
        <time>2025-10-12T08:12:18Z</time>
      </trkpt>
      <trkpt lat="43.17656" lon="6.60457">
        <ele>6.4</ele>
        <time>2025-10-12T08:12:26Z</time>
      </trkpt>
      <trkpt lat="43.17652" lon="6.60452">
        <ele>1</ele>
        <time>2025-10-12T08:12:33Z</time>
      </trkpt>
      <trkpt lat="43.17644" lon="6.60452">
        <ele>5.7</ele>
        <time>2025-10-12T08:12:45Z</time>
      </trkpt>
      <trkpt lat="43.17629" lon="6.60447">
        <ele>2</ele>
        <time>2025-10-12T08:13:09Z</time>
      </trkpt>
      <trkpt lat="43.17625" lon="6.60449">
        <ele>2</ele>
        <time>2025-10-12T08:13:15Z</time>
      </trkpt>
      <trkpt lat="43.17621" lon="6.60449">
        <ele>2</ele>
        <time>2025-10-12T08:13:20Z</time>
      </trkpt>
      <trkpt lat="43.17609" lon="6.60452">
        <ele>2</ele>
        <time>2025-10-12T08:13:33Z</time>
      </trkpt>
      <trkpt lat="43.17593" lon="6.60455">
        <ele>6</ele>
        <time>2025-10-12T08:14:00Z</time>
      </trkpt>
      <trkpt lat="43.17577" lon="6.60457">
        <ele>2</ele>
        <time>2025-10-12T08:14:29Z</time>
      </trkpt>
      <trkpt lat="43.1757" lon="6.60459">
        <ele>3</ele>
        <time>2025-10-12T08:14:41Z</time>
      </trkpt>
      <trkpt lat="43.17563" lon="6.60467">
        <ele>3</ele>
        <time>2025-10-12T08:14:55Z</time>
      </trkpt>
      <trkpt lat="43.17554" lon="6.60473">
        <ele>3</ele>
        <time>2025-10-12T08:15:07Z</time>
      </trkpt>
      <trkpt lat="43.17548" lon="6.60467">
        <ele>3</ele>
        <time>2025-10-12T08:15:21Z</time>
      </trkpt>
      <trkpt lat="43.17543" lon="6.60465">
        <ele>2</ele>
        <time>2025-10-12T08:15:39Z</time>
      </trkpt>
      <trkpt lat="43.17537" lon="6.60464">
        <ele>2</ele>
        <time>2025-10-12T08:15:45Z</time>
      </trkpt>
      <trkpt lat="43.17534" lon="6.60461">
        <ele>2</ele>
        <time>2025-10-12T08:15:53Z</time>
      </trkpt>
      <trkpt lat="43.17532" lon="6.60454">
        <ele>2</ele>
        <time>2025-10-12T08:15:59Z</time>
      </trkpt>
      <trkpt lat="43.17532" lon="6.60447">
        <ele>1</ele>
        <time>2025-10-12T08:16:06Z</time>
      </trkpt>
      <trkpt lat="43.17529" lon="6.60441">
        <ele>2.8</ele>
        <time>2025-10-12T08:16:18Z</time>
      </trkpt>
      <trkpt lat="43.17526" lon="6.60438">
        <ele>3.1</ele>
        <time>2025-10-12T08:16:21Z</time>
      </trkpt>
      <trkpt lat="43.17518" lon="6.60437">
        <ele>1</ele>
        <time>2025-10-12T08:16:44Z</time>
      </trkpt>
      <trkpt lat="43.17515" lon="6.60427">
        <ele>2</ele>
        <time>2025-10-12T08:16:56Z</time>
      </trkpt>
      <trkpt lat="43.17507" lon="6.60427">
        <ele>5</ele>
        <time>2025-10-12T08:17:14Z</time>
      </trkpt>
      <trkpt lat="43.175" lon="6.60432">
        <ele>8</ele>
        <time>2025-10-12T08:17:32Z</time>
      </trkpt>
      <trkpt lat="43.17493" lon="6.60426">
        <ele>9</ele>
        <time>2025-10-12T08:17:44Z</time>
      </trkpt>
      <trkpt lat="43.1749" lon="6.60407">
        <ele>7</ele>
        <time>2025-10-12T08:18:02Z</time>
      </trkpt>
      <trkpt lat="43.17491" lon="6.60394">
        <ele>6</ele>
        <time>2025-10-12T08:18:12Z</time>
      </trkpt>
      <trkpt lat="43.17495" lon="6.60391">
        <ele>4</ele>
        <time>2025-10-12T08:18:26Z</time>
      </trkpt>
      <trkpt lat="43.17494" lon="6.6038">
        <ele>2</ele>
        <time>2025-10-12T08:18:36Z</time>
      </trkpt>
      <trkpt lat="43.17492" lon="6.60373">
        <ele>2</ele>
        <time>2025-10-12T08:18:42Z</time>
      </trkpt>
      <trkpt lat="43.17488" lon="6.60362">
        <ele>3</ele>
        <time>2025-10-12T08:18:59Z</time>
      </trkpt>
      <trkpt lat="43.17487" lon="6.60354">
        <ele>2</ele>
        <time>2025-10-12T08:19:04Z</time>
      </trkpt>
      <trkpt lat="43.17484" lon="6.60348">
        <ele>3</ele>
        <time>2025-10-12T08:19:11Z</time>
      </trkpt>
      <trkpt lat="43.17482" lon="6.60331">
        <ele>3</ele>
        <time>2025-10-12T08:19:28Z</time>
      </trkpt>
      <trkpt lat="43.17482" lon="6.60324">
        <ele>5</ele>
        <time>2025-10-12T08:19:46Z</time>
      </trkpt>
      <trkpt lat="43.17481" lon="6.60319">
        <ele>5</ele>
        <time>2025-10-12T08:19:50Z</time>
      </trkpt>
      <trkpt lat="43.17479" lon="6.60314">
        <ele>4</ele>
        <time>2025-10-12T08:19:54Z</time>
      </trkpt>
      <trkpt lat="43.17474" lon="6.60309">
        <ele>5</ele>
        <time>2025-10-12T08:20:01Z</time>
      </trkpt>
      <trkpt lat="43.17467" lon="6.60308">
        <ele>6</ele>
        <time>2025-10-12T08:20:10Z</time>
      </trkpt>
      <trkpt lat="43.17456" lon="6.60303">
        <ele>8</ele>
        <time>2025-10-12T08:20:29Z</time>
      </trkpt>
      <trkpt lat="43.17451" lon="6.60305">
        <ele>8</ele>
        <time>2025-10-12T08:20:37Z</time>
      </trkpt>
      <trkpt lat="43.17441" lon="6.60315">
        <ele>11</ele>
        <time>2025-10-12T08:21:06Z</time>
      </trkpt>
      <trkpt lat="43.17433" lon="6.60317">
        <ele>13</ele>
        <time>2025-10-12T08:21:18Z</time>
      </trkpt>
      <trkpt lat="43.17426" lon="6.60323">
        <ele>13</ele>
        <time>2025-10-12T08:21:30Z</time>
      </trkpt>
      <trkpt lat="43.1742" lon="6.60328">
        <ele>12</ele>
        <time>2025-10-12T08:21:42Z</time>
      </trkpt>
      <trkpt lat="43.17415" lon="6.60337">
        <ele>13</ele>
        <time>2025-10-12T08:21:54Z</time>
      </trkpt>
      <trkpt lat="43.1741" lon="6.60343">
        <ele>13</ele>
        <time>2025-10-12T08:22:06Z</time>
      </trkpt>
      <trkpt lat="43.1741" lon="6.60355">
        <ele>11</ele>
        <time>2025-10-12T08:22:24Z</time>
      </trkpt>
      <trkpt lat="43.17409" lon="6.60364">
        <ele>11</ele>
        <time>2025-10-12T08:22:30Z</time>
      </trkpt>
      <trkpt lat="43.17405" lon="6.60372">
        <ele>11</ele>
        <time>2025-10-12T08:22:39Z</time>
      </trkpt>
      <trkpt lat="43.17404" lon="6.60386">
        <ele>11</ele>
        <time>2025-10-12T08:22:57Z</time>
      </trkpt>
      <trkpt lat="43.17402" lon="6.60394">
        <ele>10</ele>
        <time>2025-10-12T08:23:03Z</time>
      </trkpt>
      <trkpt lat="43.174" lon="6.60402">
        <ele>11</ele>
        <time>2025-10-12T08:23:11Z</time>
      </trkpt>
      <trkpt lat="43.17399" lon="6.6041">
        <ele>12</ele>
        <time>2025-10-12T08:23:23Z</time>
      </trkpt>
      <trkpt lat="43.17394" lon="6.60418">
        <ele>14</ele>
        <time>2025-10-12T08:23:35Z</time>
      </trkpt>
      <trkpt lat="43.17396" lon="6.60427">
        <ele>13</ele>
        <time>2025-10-12T08:23:53Z</time>
      </trkpt>
      <trkpt lat="43.1739" lon="6.60447">
        <ele>8</ele>
        <time>2025-10-12T08:24:34Z</time>
      </trkpt>
      <trkpt lat="43.17389" lon="6.60465">
        <ele>5</ele>
        <time>2025-10-12T08:24:51Z</time>
      </trkpt>
      <trkpt lat="43.17388" lon="6.60475">
        <ele>5</ele>
        <time>2025-10-12T08:24:59Z</time>
      </trkpt>
      <trkpt lat="43.17389" lon="6.60483">
        <ele>5</ele>
        <time>2025-10-12T08:25:07Z</time>
      </trkpt>
      <trkpt lat="43.17392" lon="6.60491">
        <ele>5</ele>
        <time>2025-10-12T08:25:14Z</time>
      </trkpt>
      <trkpt lat="43.17395" lon="6.60502">
        <ele>7</ele>
        <time>2025-10-12T08:25:25Z</time>
      </trkpt>
      <trkpt lat="43.17391" lon="6.60508">
        <ele>6</ele>
        <time>2025-10-12T08:25:31Z</time>
      </trkpt>
      <trkpt lat="43.17387" lon="6.60519">
        <ele>6</ele>
        <time>2025-10-12T08:25:44Z</time>
      </trkpt>
      <trkpt lat="43.1738" lon="6.60547">
        <ele>7</ele>
        <time>2025-10-12T08:26:10Z</time>
      </trkpt>
      <trkpt lat="43.17377" lon="6.60561">
        <ele>6</ele>
        <time>2025-10-12T08:26:25Z</time>
      </trkpt>
      <trkpt lat="43.17374" lon="6.60575">
        <ele>5</ele>
        <time>2025-10-12T08:26:37Z</time>
      </trkpt>
      <trkpt lat="43.17375" lon="6.60588">
        <ele>5</ele>
        <time>2025-10-12T08:26:47Z</time>
      </trkpt>
      <trkpt lat="43.17375" lon="6.60596">
        <ele>5</ele>
        <time>2025-10-12T08:27:02Z</time>
      </trkpt>
      <trkpt lat="43.17378" lon="6.60606">
        <ele>8</ele>
        <time>2025-10-12T08:27:20Z</time>
      </trkpt>
      <trkpt lat="43.17384" lon="6.60609">
        <ele>11</ele>
        <time>2025-10-12T08:27:32Z</time>
      </trkpt>
      <trkpt lat="43.17381" lon="6.60617">
        <ele>13</ele>
        <time>2025-10-12T08:27:43Z</time>
      </trkpt>
      <trkpt lat="43.17378" lon="6.60624">
        <ele>13</ele>
        <time>2025-10-12T08:28:07Z</time>
      </trkpt>
      <trkpt lat="43.17371" lon="6.60635">
        <ele>7</ele>
        <time>2025-10-12T08:29:41Z</time>
      </trkpt>
      <trkpt lat="43.17365" lon="6.60645">
        <ele>6</ele>
        <time>2025-10-12T08:29:47Z</time>
      </trkpt>
      <trkpt lat="43.17363" lon="6.60656">
        <ele>5</ele>
        <time>2025-10-12T08:30:03Z</time>
      </trkpt>
      <trkpt lat="43.17368" lon="6.60665">
        <ele>6</ele>
        <time>2025-10-12T08:30:15Z</time>
      </trkpt>
      <trkpt lat="43.17362" lon="6.60673">
        <ele>5</ele>
        <time>2025-10-12T08:30:26Z</time>
      </trkpt>
      <trkpt lat="43.17362" lon="6.60681">
        <ele>4</ele>
        <time>2025-10-12T08:30:34Z</time>
      </trkpt>
      <trkpt lat="43.17361" lon="6.60688">
        <ele>4</ele>
        <time>2025-10-12T08:30:40Z</time>
      </trkpt>
      <trkpt lat="43.17362" lon="6.60698">
        <ele>3</ele>
        <time>2025-10-12T08:30:52Z</time>
      </trkpt>
      <trkpt lat="43.17357" lon="6.60709">
        <ele>4</ele>
        <time>2025-10-12T08:31:05Z</time>
      </trkpt>
      <trkpt lat="43.17355" lon="6.60719">
        <ele>4</ele>
        <time>2025-10-12T08:31:14Z</time>
      </trkpt>
      <trkpt lat="43.17352" lon="6.60726">
        <ele>4</ele>
        <time>2025-10-12T08:31:23Z</time>
      </trkpt>
      <trkpt lat="43.17352" lon="6.60734">
        <ele>5</ele>
        <time>2025-10-12T08:31:35Z</time>
      </trkpt>
      <trkpt lat="43.17346" lon="6.60746">
        <ele>4</ele>
        <time>2025-10-12T08:31:47Z</time>
      </trkpt>
      <trkpt lat="43.17344" lon="6.60752">
        <ele>3</ele>
        <time>2025-10-12T08:31:53Z</time>
      </trkpt>
      <trkpt lat="43.17337" lon="6.60758">
        <ele>2</ele>
        <time>2025-10-12T08:32:06Z</time>
      </trkpt>
      <trkpt lat="43.1733" lon="6.60759">
        <ele>2</ele>
        <time>2025-10-12T08:32:12Z</time>
      </trkpt>
      <trkpt lat="43.17319" lon="6.60763">
        <ele>1</ele>
        <time>2025-10-12T08:32:26Z</time>
      </trkpt>
      <trkpt lat="43.17314" lon="6.60767">
        <ele>1</ele>
        <time>2025-10-12T08:32:44Z</time>
      </trkpt>
      <trkpt lat="43.17311" lon="6.60773">
        <ele>1</ele>
        <time>2025-10-12T08:32:56Z</time>
      </trkpt>
      <trkpt lat="43.17308" lon="6.60781">
        <ele>1</ele>
        <time>2025-10-12T08:33:08Z</time>
      </trkpt>
      <trkpt lat="43.17302" lon="6.60795">
        <ele>2</ele>
        <time>2025-10-12T08:33:33Z</time>
      </trkpt>
      <trkpt lat="43.17297" lon="6.608">
        <ele>2</ele>
        <time>2025-10-12T08:33:45Z</time>
      </trkpt>
      <trkpt lat="43.1729" lon="6.60804">
        <ele>1</ele>
        <time>2025-10-12T08:34:14Z</time>
      </trkpt>
      <trkpt lat="43.17289" lon="6.60808">
        <ele>2</ele>
        <time>2025-10-12T08:35:08Z</time>
      </trkpt>
      <trkpt lat="43.1728" lon="6.60815">
        <ele>3</ele>
        <time>2025-10-12T08:44:52Z</time>
      </trkpt>
      <trkpt lat="43.1726" lon="6.60834">
        <ele>3</ele>
        <time>2025-10-12T08:45:22Z</time>
      </trkpt>
      <trkpt lat="43.17256" lon="6.60838">
        <ele>3</ele>
        <time>2025-10-12T08:45:41Z</time>
      </trkpt>
      <trkpt lat="43.17248" lon="6.60846">
        <ele>3</ele>
        <time>2025-10-12T08:45:53Z</time>
      </trkpt>
      <trkpt lat="43.17239" lon="6.60858">
        <ele>3</ele>
        <time>2025-10-12T08:46:09Z</time>
      </trkpt>
      <trkpt lat="43.17236" lon="6.60862">
        <ele>3</ele>
        <time>2025-10-12T08:46:13Z</time>
      </trkpt>
      <trkpt lat="43.17229" lon="6.60871">
        <ele>4</ele>
        <time>2025-10-12T08:46:26Z</time>
      </trkpt>
      <trkpt lat="43.17224" lon="6.60879">
        <ele>5</ele>
        <time>2025-10-12T08:46:37Z</time>
      </trkpt>
      <trkpt lat="43.1722" lon="6.60882">
        <ele>6</ele>
        <time>2025-10-12T08:46:43Z</time>
      </trkpt>
      <trkpt lat="43.17215" lon="6.60885">
        <ele>6</ele>
        <time>2025-10-12T08:46:48Z</time>
      </trkpt>
      <trkpt lat="43.17201" lon="6.60881">
        <ele>6</ele>
        <time>2025-10-12T08:47:05Z</time>
      </trkpt>
      <trkpt lat="43.17196" lon="6.60885">
        <ele>6</ele>
        <time>2025-10-12T08:47:13Z</time>
      </trkpt>
      <trkpt lat="43.17191" lon="6.60882">
        <ele>6</ele>
        <time>2025-10-12T08:47:17Z</time>
      </trkpt>
      <trkpt lat="43.17188" lon="6.60879">
        <ele>6</ele>
        <time>2025-10-12T08:47:21Z</time>
      </trkpt>
      <trkpt lat="43.17183" lon="6.60879">
        <ele>6</ele>
        <time>2025-10-12T08:47:26Z</time>
      </trkpt>
      <trkpt lat="43.17179" lon="6.60875">
        <ele>6</ele>
        <time>2025-10-12T08:47:30Z</time>
      </trkpt>
      <trkpt lat="43.17173" lon="6.60874">
        <ele>7</ele>
        <time>2025-10-12T08:47:37Z</time>
      </trkpt>
      <trkpt lat="43.17152" lon="6.6086">
        <ele>8</ele>
        <time>2025-10-12T08:47:57Z</time>
      </trkpt>
      <trkpt lat="43.17146" lon="6.60851">
        <ele>8</ele>
        <time>2025-10-12T08:48:06Z</time>
      </trkpt>
      <trkpt lat="43.17136" lon="6.60843">
        <ele>10</ele>
        <time>2025-10-12T08:48:22Z</time>
      </trkpt>
      <trkpt lat="43.17129" lon="6.60842">
        <ele>13</ele>
        <time>2025-10-12T08:48:39Z</time>
      </trkpt>
      <trkpt lat="43.1712" lon="6.60856">
        <ele>19</ele>
        <time>2025-10-12T08:49:21Z</time>
      </trkpt>
      <trkpt lat="43.17115" lon="6.6086">
        <ele>21</ele>
        <time>2025-10-12T08:49:39Z</time>
      </trkpt>
      <trkpt lat="43.17108" lon="6.60862">
        <ele>24</ele>
        <time>2025-10-12T08:49:57Z</time>
      </trkpt>
      <trkpt lat="43.17103" lon="6.60866">
        <ele>26</ele>
        <time>2025-10-12T08:50:14Z</time>
      </trkpt>
      <trkpt lat="43.17097" lon="6.60871">
        <ele>29</ele>
        <time>2025-10-12T08:50:32Z</time>
      </trkpt>
      <trkpt lat="43.17081" lon="6.60871">
        <ele>33</ele>
        <time>2025-10-12T08:51:02Z</time>
      </trkpt>
      <trkpt lat="43.17075" lon="6.60874">
        <ele>34</ele>
        <time>2025-10-12T08:51:16Z</time>
      </trkpt>
      <trkpt lat="43.17069" lon="6.60883">
        <ele>38</ele>
        <time>2025-10-12T08:51:40Z</time>
      </trkpt>
      <trkpt lat="43.17066" lon="6.60889">
        <ele>39</ele>
        <time>2025-10-12T08:51:52Z</time>
      </trkpt>
      <trkpt lat="43.17052" lon="6.60907">
        <ele>44</ele>
        <time>2025-10-12T08:52:29Z</time>
      </trkpt>
      <trkpt lat="43.17046" lon="6.60913">
        <ele>44</ele>
        <time>2025-10-12T08:52:36Z</time>
      </trkpt>
      <trkpt lat="43.17041" lon="6.60918">
        <ele>44</ele>
        <time>2025-10-12T08:52:44Z</time>
      </trkpt>
      <trkpt lat="43.17035" lon="6.60931">
        <ele>46</ele>
        <time>2025-10-12T08:53:08Z</time>
      </trkpt>
      <trkpt lat="43.17035" lon="6.6094">
        <ele>47</ele>
        <time>2025-10-12T08:53:16Z</time>
      </trkpt>
      <trkpt lat="43.17026" lon="6.60954">
        <ele>48</ele>
        <time>2025-10-12T08:53:47Z</time>
      </trkpt>
      <trkpt lat="43.17015" lon="6.60968">
        <ele>51</ele>
        <time>2025-10-12T08:54:06Z</time>
      </trkpt>
      <trkpt lat="43.17008" lon="6.60972">
        <ele>53</ele>
        <time>2025-10-12T08:54:19Z</time>
      </trkpt>
      <trkpt lat="43.16987" lon="6.60979">
        <ele>53</ele>
        <time>2025-10-12T08:54:48Z</time>
      </trkpt>
      <trkpt lat="43.16983" lon="6.60981">
        <ele>53</ele>
        <time>2025-10-12T08:55:01Z</time>
      </trkpt>
      <trkpt lat="43.16974" lon="6.60985">
        <ele>54</ele>
        <time>2025-10-12T08:59:51Z</time>
      </trkpt>
      <trkpt lat="43.16967" lon="6.60992">
        <ele>54</ele>
        <time>2025-10-12T09:00:10Z</time>
      </trkpt>
      <trkpt lat="43.16953" lon="6.61014">
        <ele>58</ele>
        <time>2025-10-12T09:00:46Z</time>
      </trkpt>
      <trkpt lat="43.16951" lon="6.61022">
        <ele>60</ele>
        <time>2025-10-12T09:01:09Z</time>
      </trkpt>
      <trkpt lat="43.16949" lon="6.61031">
        <ele>62</ele>
        <time>2025-10-12T09:01:27Z</time>
      </trkpt>
      <trkpt lat="43.16937" lon="6.61045">
        <ele>66</ele>
        <time>2025-10-12T09:01:58Z</time>
      </trkpt>
      <trkpt lat="43.16936" lon="6.61053">
        <ele>67</ele>
        <time>2025-10-12T09:02:16Z</time>
      </trkpt>
      <trkpt lat="43.16936" lon="6.61061">
        <ele>70</ele>
        <time>2025-10-12T09:02:45Z</time>
      </trkpt>
      <trkpt lat="43.16935" lon="6.6107">
        <ele>73</ele>
        <time>2025-10-12T09:03:04Z</time>
      </trkpt>
      <trkpt lat="43.16928" lon="6.61086">
        <ele>77</ele>
        <time>2025-10-12T09:03:39Z</time>
      </trkpt>
      <trkpt lat="43.16925" lon="6.61093">
        <ele>78</ele>
        <time>2025-10-12T09:03:51Z</time>
      </trkpt>
      <trkpt lat="43.16931" lon="6.611">
        <ele>82</ele>
        <time>2025-10-12T09:04:15Z</time>
      </trkpt>
      <trkpt lat="43.16936" lon="6.61114">
        <ele>85</ele>
        <time>2025-10-12T09:04:46Z</time>
      </trkpt>
      <trkpt lat="43.16936" lon="6.61122">
        <ele>88</ele>
        <time>2025-10-12T09:05:04Z</time>
      </trkpt>
      <trkpt lat="43.16941" lon="6.61133">
        <ele>90</ele>
        <time>2025-10-12T09:05:27Z</time>
      </trkpt>
      <trkpt lat="43.16941" lon="6.61141">
        <ele>91</ele>
        <time>2025-10-12T09:05:39Z</time>
      </trkpt>
      <trkpt lat="43.16938" lon="6.61147">
        <ele>92</ele>
        <time>2025-10-12T09:05:51Z</time>
      </trkpt>
      <trkpt lat="43.16938" lon="6.61164">
        <ele>91</ele>
        <time>2025-10-12T09:10:47Z</time>
      </trkpt>
      <trkpt lat="43.16934" lon="6.61178">
        <ele>90</ele>
        <time>2025-10-12T09:11:02Z</time>
      </trkpt>
      <trkpt lat="43.16931" lon="6.61189">
        <ele>90</ele>
        <time>2025-10-12T09:11:13Z</time>
      </trkpt>
      <trkpt lat="43.16929" lon="6.61198">
        <ele>90</ele>
        <time>2025-10-12T09:11:20Z</time>
      </trkpt>
      <trkpt lat="43.16921" lon="6.61211">
        <ele>90</ele>
        <time>2025-10-12T09:11:31Z</time>
      </trkpt>
      <trkpt lat="43.16918" lon="6.61218">
        <ele>90</ele>
        <time>2025-10-12T09:11:36Z</time>
      </trkpt>
      <trkpt lat="43.16916" lon="6.61225">
        <ele>91</ele>
        <time>2025-10-12T09:11:41Z</time>
      </trkpt>
      <trkpt lat="43.1691" lon="6.6126">
        <ele>90</ele>
        <time>2025-10-12T09:12:07Z</time>
      </trkpt>
      <trkpt lat="43.16906" lon="6.61269">
        <ele>90</ele>
        <time>2025-10-12T09:12:16Z</time>
      </trkpt>
      <trkpt lat="43.16888" lon="6.61283">
        <ele>89</ele>
        <time>2025-10-12T09:12:41Z</time>
      </trkpt>
      <trkpt lat="43.16859" lon="6.61308">
        <ele>90</ele>
        <time>2025-10-12T09:13:17Z</time>
      </trkpt>
      <trkpt lat="43.16852" lon="6.6132">
        <ele>90</ele>
        <time>2025-10-12T09:13:29Z</time>
      </trkpt>
      <trkpt lat="43.16846" lon="6.61326">
        <ele>91</ele>
        <time>2025-10-12T09:13:37Z</time>
      </trkpt>
      <trkpt lat="43.1682" lon="6.61355">
        <ele>91</ele>
        <time>2025-10-12T09:14:12Z</time>
      </trkpt>
      <trkpt lat="43.16801" lon="6.61377">
        <ele>91</ele>
        <time>2025-10-12T09:14:34Z</time>
      </trkpt>
      <trkpt lat="43.16799" lon="6.61384">
        <ele>91</ele>
        <time>2025-10-12T09:14:40Z</time>
      </trkpt>
      <trkpt lat="43.16783" lon="6.61416">
        <ele>92</ele>
        <time>2025-10-12T09:15:09Z</time>
      </trkpt>
      <trkpt lat="43.16782" lon="6.61423">
        <ele>92</ele>
        <time>2025-10-12T09:15:17Z</time>
      </trkpt>
      <trkpt lat="43.16779" lon="6.61429">
        <ele>92</ele>
        <time>2025-10-12T09:15:23Z</time>
      </trkpt>
      <trkpt lat="43.16774" lon="6.61441">
        <ele>91</ele>
        <time>2025-10-12T09:15:37Z</time>
      </trkpt>
      <trkpt lat="43.16772" lon="6.61451">
        <ele>91</ele>
        <time>2025-10-12T09:15:45Z</time>
      </trkpt>
      <trkpt lat="43.16769" lon="6.61461">
        <ele>91</ele>
        <time>2025-10-12T09:15:54Z</time>
      </trkpt>
      <trkpt lat="43.16769" lon="6.61468">
        <ele>92</ele>
        <time>2025-10-12T09:16:24Z</time>
      </trkpt>
      <trkpt lat="43.16768" lon="6.61475">
        <ele>92</ele>
        <time>2025-10-12T09:16:30Z</time>
      </trkpt>
      <trkpt lat="43.16761" lon="6.61489">
        <ele>93</ele>
        <time>2025-10-12T09:16:46Z</time>
      </trkpt>
      <trkpt lat="43.1676" lon="6.61495">
        <ele>94</ele>
        <time>2025-10-12T09:16:52Z</time>
      </trkpt>
      <trkpt lat="43.16761" lon="6.61501">
        <ele>94</ele>
        <time>2025-10-12T09:16:57Z</time>
      </trkpt>
      <trkpt lat="43.16758" lon="6.61507">
        <ele>95</ele>
        <time>2025-10-12T09:17:02Z</time>
      </trkpt>
      <trkpt lat="43.16755" lon="6.61515">
        <ele>95</ele>
        <time>2025-10-12T09:17:16Z</time>
      </trkpt>
      <trkpt lat="43.16754" lon="6.61524">
        <ele>96</ele>
        <time>2025-10-12T09:17:27Z</time>
      </trkpt>
      <trkpt lat="43.1675" lon="6.6153">
        <ele>95</ele>
        <time>2025-10-12T09:17:32Z</time>
      </trkpt>
      <trkpt lat="43.16749" lon="6.61537">
        <ele>95</ele>
        <time>2025-10-12T09:17:40Z</time>
      </trkpt>
      <trkpt lat="43.16746" lon="6.61543">
        <ele>96</ele>
        <time>2025-10-12T09:17:45Z</time>
      </trkpt>
      <trkpt lat="43.16741" lon="6.6156">
        <ele>96</ele>
        <time>2025-10-12T09:17:59Z</time>
      </trkpt>
      <trkpt lat="43.16742" lon="6.61566">
        <ele>97</ele>
        <time>2025-10-12T09:18:06Z</time>
      </trkpt>
      <trkpt lat="43.16741" lon="6.61572">
        <ele>98</ele>
        <time>2025-10-12T09:18:12Z</time>
      </trkpt>
      <trkpt lat="43.16739" lon="6.61579">
        <ele>98</ele>
        <time>2025-10-12T09:18:17Z</time>
      </trkpt>
      <trkpt lat="43.16733" lon="6.61594">
        <ele>98</ele>
        <time>2025-10-12T09:18:30Z</time>
      </trkpt>
      <trkpt lat="43.16728" lon="6.616">
        <ele>98</ele>
        <time>2025-10-12T09:18:38Z</time>
      </trkpt>
      <trkpt lat="43.16724" lon="6.61602">
        <ele>98</ele>
        <time>2025-10-12T09:18:43Z</time>
      </trkpt>
      <trkpt lat="43.1672" lon="6.61608">
        <ele>98</ele>
        <time>2025-10-12T09:18:49Z</time>
      </trkpt>
      <trkpt lat="43.16717" lon="6.61611">
        <ele>98</ele>
        <time>2025-10-12T09:18:53Z</time>
      </trkpt>
      <trkpt lat="43.16701" lon="6.61626">
        <ele>96</ele>
        <time>2025-10-12T09:19:15Z</time>
      </trkpt>
      <trkpt lat="43.16698" lon="6.61631">
        <ele>96</ele>
        <time>2025-10-12T09:19:21Z</time>
      </trkpt>
      <trkpt lat="43.16694" lon="6.61634">
        <ele>96</ele>
        <time>2025-10-12T09:19:26Z</time>
      </trkpt>
      <trkpt lat="43.1669" lon="6.61638">
        <ele>96</ele>
        <time>2025-10-12T09:19:30Z</time>
      </trkpt>
      <trkpt lat="43.16683" lon="6.61644">
        <ele>96</ele>
        <time>2025-10-12T09:19:39Z</time>
      </trkpt>
      <trkpt lat="43.16672" lon="6.6165">
        <ele>96</ele>
        <time>2025-10-12T09:19:53Z</time>
      </trkpt>
      <trkpt lat="43.16668" lon="6.61652">
        <ele>95</ele>
        <time>2025-10-12T09:19:57Z</time>
      </trkpt>
      <trkpt lat="43.16664" lon="6.61653">
        <ele>95</ele>
        <time>2025-10-12T09:20:01Z</time>
      </trkpt>
      <trkpt lat="43.16651" lon="6.6166">
        <ele>95</ele>
        <time>2025-10-12T09:20:17Z</time>
      </trkpt>
      <trkpt lat="43.16632" lon="6.61683">
        <ele>97</ele>
        <time>2025-10-12T09:20:47Z</time>
      </trkpt>
      <trkpt lat="43.16627" lon="6.61689">
        <ele>97</ele>
        <time>2025-10-12T09:20:54Z</time>
      </trkpt>
      <trkpt lat="43.16619" lon="6.61701">
        <ele>96</ele>
        <time>2025-10-12T09:21:14Z</time>
      </trkpt>
      <trkpt lat="43.16615" lon="6.61705">
        <ele>94</ele>
        <time>2025-10-12T09:21:27Z</time>
      </trkpt>
      <trkpt lat="43.16611" lon="6.6171">
        <ele>94</ele>
        <time>2025-10-12T09:21:39Z</time>
      </trkpt>
      <trkpt lat="43.16604" lon="6.61725">
        <ele>91</ele>
        <time>2025-10-12T09:22:09Z</time>
      </trkpt>
      <trkpt lat="43.166" lon="6.61734">
        <ele>90</ele>
        <time>2025-10-12T09:22:20Z</time>
      </trkpt>
      <trkpt lat="43.16585" lon="6.6175">
        <ele>88</ele>
        <time>2025-10-12T09:22:43Z</time>
      </trkpt>
      <trkpt lat="43.16577" lon="6.61756">
        <ele>87</ele>
        <time>2025-10-12T09:22:54Z</time>
      </trkpt>
      <trkpt lat="43.16563" lon="6.61767">
        <ele>85</ele>
        <time>2025-10-12T09:23:16Z</time>
      </trkpt>
      <trkpt lat="43.1656" lon="6.61768">
        <ele>85</ele>
        <time>2025-10-12T09:23:20Z</time>
      </trkpt>
      <trkpt lat="43.16556" lon="6.61773">
        <ele>85</ele>
        <time>2025-10-12T09:23:28Z</time>
      </trkpt>
      <trkpt lat="43.16551" lon="6.61776">
        <ele>84</ele>
        <time>2025-10-12T09:23:34Z</time>
      </trkpt>
      <trkpt lat="43.16541" lon="6.61776">
        <ele>83</ele>
        <time>2025-10-12T09:23:44Z</time>
      </trkpt>
      <trkpt lat="43.16535" lon="6.6178">
        <ele>83</ele>
        <time>2025-10-12T09:23:54Z</time>
      </trkpt>
      <trkpt lat="43.16527" lon="6.61791">
        <ele>81</ele>
        <time>2025-10-12T09:24:15Z</time>
      </trkpt>
      <trkpt lat="43.16526" lon="6.61798">
        <ele>81</ele>
        <time>2025-10-12T09:24:21Z</time>
      </trkpt>
      <trkpt lat="43.1652" lon="6.61802">
        <ele>80</ele>
        <time>2025-10-12T09:24:28Z</time>
      </trkpt>
      <trkpt lat="43.16515" lon="6.61802">
        <ele>80</ele>
        <time>2025-10-12T09:24:49Z</time>
      </trkpt>
      <trkpt lat="43.16508" lon="6.61806">
        <ele>80</ele>
        <time>2025-10-12T09:25:01Z</time>
      </trkpt>
      <trkpt lat="43.16503" lon="6.61806">
        <ele>80</ele>
        <time>2025-10-12T09:25:19Z</time>
      </trkpt>
      <trkpt lat="43.16499" lon="6.61808">
        <ele>80</ele>
        <time>2025-10-12T09:25:24Z</time>
      </trkpt>
      <trkpt lat="43.16496" lon="6.61813">
        <ele>80</ele>
        <time>2025-10-12T09:25:29Z</time>
      </trkpt>
      <trkpt lat="43.16492" lon="6.61816">
        <ele>80</ele>
        <time>2025-10-12T09:25:33Z</time>
      </trkpt>
      <trkpt lat="43.16487" lon="6.61817">
        <ele>80</ele>
        <time>2025-10-12T09:25:37Z</time>
      </trkpt>
      <trkpt lat="43.16482" lon="6.61819">
        <ele>80</ele>
        <time>2025-10-12T09:25:43Z</time>
      </trkpt>
      <trkpt lat="43.16453" lon="6.61825">
        <ele>80</ele>
        <time>2025-10-12T09:26:09Z</time>
      </trkpt>
      <trkpt lat="43.16449" lon="6.61829">
        <ele>80</ele>
        <time>2025-10-12T09:26:14Z</time>
      </trkpt>
      <trkpt lat="43.16421" lon="6.6185">
        <ele>78</ele>
        <time>2025-10-12T09:26:40Z</time>
      </trkpt>
      <trkpt lat="43.16397" lon="6.61857">
        <ele>77</ele>
        <time>2025-10-12T09:27:03Z</time>
      </trkpt>
      <trkpt lat="43.1639" lon="6.61858">
        <ele>77</ele>
        <time>2025-10-12T09:27:10Z</time>
      </trkpt>
      <trkpt lat="43.16385" lon="6.61861">
        <ele>76</ele>
        <time>2025-10-12T09:27:14Z</time>
      </trkpt>
      <trkpt lat="43.16381" lon="6.61861">
        <ele>76</ele>
        <time>2025-10-12T09:27:18Z</time>
      </trkpt>
      <trkpt lat="43.16366" lon="6.61872">
        <ele>74</ele>
        <time>2025-10-12T09:27:35Z</time>
      </trkpt>
      <trkpt lat="43.16361" lon="6.61872">
        <ele>73</ele>
        <time>2025-10-12T09:27:39Z</time>
      </trkpt>
      <trkpt lat="43.16354" lon="6.61876">
        <ele>73</ele>
        <time>2025-10-12T09:27:48Z</time>
      </trkpt>
      <trkpt lat="43.16332" lon="6.61892">
        <ele>72</ele>
        <time>2025-10-12T09:28:09Z</time>
      </trkpt>
      <trkpt lat="43.16319" lon="6.61896">
        <ele>71</ele>
        <time>2025-10-12T09:28:20Z</time>
      </trkpt>
      <trkpt lat="43.1631" lon="6.61897">
        <ele>71</ele>
        <time>2025-10-12T09:28:27Z</time>
      </trkpt>
      <trkpt lat="43.16297" lon="6.61894">
        <ele>72</ele>
        <time>2025-10-12T09:28:39Z</time>
      </trkpt>
      <trkpt lat="43.16286" lon="6.6189">
        <ele>73</ele>
        <time>2025-10-12T09:28:51Z</time>
      </trkpt>
      <trkpt lat="43.1628" lon="6.61893">
        <ele>72</ele>
        <time>2025-10-12T09:28:58Z</time>
      </trkpt>
      <trkpt lat="43.16274" lon="6.61903">
        <ele>70</ele>
        <time>2025-10-12T09:29:10Z</time>
      </trkpt>
      <trkpt lat="43.16267" lon="6.61907">
        <ele>68</ele>
        <time>2025-10-12T09:29:21Z</time>
      </trkpt>
      <trkpt lat="43.16256" lon="6.6192">
        <ele>66</ele>
        <time>2025-10-12T09:29:34Z</time>
      </trkpt>
      <trkpt lat="43.16247" lon="6.61929">
        <ele>66</ele>
        <time>2025-10-12T09:29:42Z</time>
      </trkpt>
      <trkpt lat="43.16238" lon="6.61936">
        <ele>66</ele>
        <time>2025-10-12T09:29:53Z</time>
      </trkpt>
      <trkpt lat="43.16232" lon="6.6194">
        <ele>67</ele>
        <time>2025-10-12T09:30:00Z</time>
      </trkpt>
      <trkpt lat="43.16221" lon="6.61943">
        <ele>69</ele>
        <time>2025-10-12T09:30:16Z</time>
      </trkpt>
      <trkpt lat="43.1621" lon="6.61942">
        <ele>71</ele>
        <time>2025-10-12T09:30:29Z</time>
      </trkpt>
      <trkpt lat="43.16205" lon="6.61943">
        <ele>71</ele>
        <time>2025-10-12T09:30:34Z</time>
      </trkpt>
      <trkpt lat="43.162" lon="6.61946">
        <ele>72</ele>
        <time>2025-10-12T09:30:38Z</time>
      </trkpt>
      <trkpt lat="43.16196" lon="6.61947">
        <ele>72</ele>
        <time>2025-10-12T09:30:42Z</time>
      </trkpt>
      <trkpt lat="43.16185" lon="6.61945">
        <ele>73</ele>
        <time>2025-10-12T09:30:54Z</time>
      </trkpt>
      <trkpt lat="43.16174" lon="6.6194">
        <ele>73</ele>
        <time>2025-10-12T09:31:07Z</time>
      </trkpt>
      <trkpt lat="43.16166" lon="6.61939">
        <ele>73</ele>
        <time>2025-10-12T09:31:15Z</time>
      </trkpt>
      <trkpt lat="43.1616" lon="6.61935">
        <ele>74</ele>
        <time>2025-10-12T09:31:22Z</time>
      </trkpt>
      <trkpt lat="43.16154" lon="6.61934">
        <ele>74</ele>
        <time>2025-10-12T09:31:29Z</time>
      </trkpt>
      <trkpt lat="43.16149" lon="6.61935">
        <ele>74</ele>
        <time>2025-10-12T09:31:34Z</time>
      </trkpt>
      <trkpt lat="43.16143" lon="6.61938">
        <ele>74</ele>
        <time>2025-10-12T09:31:39Z</time>
      </trkpt>
      <trkpt lat="43.16129" lon="6.6195">
        <ele>74</ele>
        <time>2025-10-12T09:31:57Z</time>
      </trkpt>
      <trkpt lat="43.16126" lon="6.61955">
        <ele>74</ele>
        <time>2025-10-12T09:32:02Z</time>
      </trkpt>
      <trkpt lat="43.16124" lon="6.61977">
        <ele>75</ele>
        <time>2025-10-12T09:32:20Z</time>
      </trkpt>
      <trkpt lat="43.1612" lon="6.6198">
        <ele>74</ele>
        <time>2025-10-12T09:32:26Z</time>
      </trkpt>
      <trkpt lat="43.1611" lon="6.61979">
        <ele>74</ele>
        <time>2025-10-12T09:32:35Z</time>
      </trkpt>
      <trkpt lat="43.16101" lon="6.61974">
        <ele>74</ele>
        <time>2025-10-12T09:32:44Z</time>
      </trkpt>
      <trkpt lat="43.16091" lon="6.61972">
        <ele>73</ele>
        <time>2025-10-12T09:32:52Z</time>
      </trkpt>
      <trkpt lat="43.1606" lon="6.61971">
        <ele>70</ele>
        <time>2025-10-12T09:33:24Z</time>
      </trkpt>
      <trkpt lat="43.16055" lon="6.6197">
        <ele>70</ele>
        <time>2025-10-12T09:33:29Z</time>
      </trkpt>
      <trkpt lat="43.16037" lon="6.61988">
        <ele>68</ele>
        <time>2025-10-12T09:35:07Z</time>
      </trkpt>
      <trkpt lat="43.16032" lon="6.6199">
        <ele>67</ele>
        <time>2025-10-12T09:35:31Z</time>
      </trkpt>
      <trkpt lat="43.16027" lon="6.61991">
        <ele>67</ele>
        <time>2025-10-12T09:35:49Z</time>
      </trkpt>
      <trkpt lat="43.16019" lon="6.61989">
        <ele>67</ele>
        <time>2025-10-12T09:37:25Z</time>
      </trkpt>
      <trkpt lat="43.16013" lon="6.61993">
        <ele>63</ele>
        <time>2025-10-12T09:40:01Z</time>
      </trkpt>
      <trkpt lat="43.16008" lon="6.61998">
        <ele>61</ele>
        <time>2025-10-12T09:40:25Z</time>
      </trkpt>
      <trkpt lat="43.16011" lon="6.62005">
        <ele>59</ele>
        <time>2025-10-12T09:40:43Z</time>
      </trkpt>
      <trkpt lat="43.16017" lon="6.6201">
        <ele>60</ele>
        <time>2025-10-12T09:40:55Z</time>
      </trkpt>
      <trkpt lat="43.16021" lon="6.6202">
        <ele>60</ele>
        <time>2025-10-12T09:41:06Z</time>
      </trkpt>
      <trkpt lat="43.16028" lon="6.62024">
        <ele>60</ele>
        <time>2025-10-12T09:41:18Z</time>
      </trkpt>
      <trkpt lat="43.16034" lon="6.6203">
        <ele>59</ele>
        <time>2025-10-12T09:41:33Z</time>
      </trkpt>
      <trkpt lat="43.16038" lon="6.62036">
        <ele>57</ele>
        <time>2025-10-12T09:41:45Z</time>
      </trkpt>
      <trkpt lat="43.16042" lon="6.62043">
        <ele>54</ele>
        <time>2025-10-12T09:42:03Z</time>
      </trkpt>
      <trkpt lat="43.16042" lon="6.62051">
        <ele>51</ele>
        <time>2025-10-12T09:42:21Z</time>
      </trkpt>
      <trkpt lat="43.1605" lon="6.62067">
        <ele>47</ele>
        <time>2025-10-12T09:42:46Z</time>
      </trkpt>
      <trkpt lat="43.16058" lon="6.6208">
        <ele>46</ele>
        <time>2025-10-12T09:43:03Z</time>
      </trkpt>
      <trkpt lat="43.16062" lon="6.62087">
        <ele>45</ele>
        <time>2025-10-12T09:43:14Z</time>
      </trkpt>
      <trkpt lat="43.16069" lon="6.62097">
        <ele>43</ele>
        <time>2025-10-12T09:43:28Z</time>
      </trkpt>
      <trkpt lat="43.16071" lon="6.62104">
        <ele>40</ele>
        <time>2025-10-12T09:43:48Z</time>
      </trkpt>
      <trkpt lat="43.16074" lon="6.6211">
        <ele>38</ele>
        <time>2025-10-12T09:44:00Z</time>
      </trkpt>
      <trkpt lat="43.16078" lon="6.62127">
        <ele>35</ele>
        <time>2025-10-12T09:44:24Z</time>
      </trkpt>
      <trkpt lat="43.16075" lon="6.62142">
        <ele>30</ele>
        <time>2025-10-12T09:44:48Z</time>
      </trkpt>
      <trkpt lat="43.16076" lon="6.62148">
        <ele>30</ele>
        <time>2025-10-12T09:44:54Z</time>
      </trkpt>
      <trkpt lat="43.16082" lon="6.62157">
        <ele>29</ele>
        <time>2025-10-12T09:45:05Z</time>
      </trkpt>
      <trkpt lat="43.16086" lon="6.62165">
        <ele>29</ele>
        <time>2025-10-12T09:45:14Z</time>
      </trkpt>
      <trkpt lat="43.16088" lon="6.62173">
        <ele>27</ele>
        <time>2025-10-12T09:45:26Z</time>
      </trkpt>
      <trkpt lat="43.16094" lon="6.62178">
        <ele>27</ele>
        <time>2025-10-12T09:45:38Z</time>
      </trkpt>
      <trkpt lat="43.16099" lon="6.6218">
        <ele>28</ele>
        <time>2025-10-12T09:45:43Z</time>
      </trkpt>
      <trkpt lat="43.16103" lon="6.62188">
        <ele>28</ele>
        <time>2025-10-12T09:46:02Z</time>
      </trkpt>
      <trkpt lat="43.16107" lon="6.62192">
        <ele>27</ele>
        <time>2025-10-12T09:46:14Z</time>
      </trkpt>
      <trkpt lat="43.16112" lon="6.62197">
        <ele>25</ele>
        <time>2025-10-12T09:46:56Z</time>
      </trkpt>
      <trkpt lat="43.16118" lon="6.62202">
        <ele>24</ele>
        <time>2025-10-12T09:47:08Z</time>
      </trkpt>
      <trkpt lat="43.16124" lon="6.62206">
        <ele>23</ele>
        <time>2025-10-12T09:47:20Z</time>
      </trkpt>
      <trkpt lat="43.16129" lon="6.62207">
        <ele>23</ele>
        <time>2025-10-12T09:47:25Z</time>
      </trkpt>
      <trkpt lat="43.16136" lon="6.62209">
        <ele>22</ele>
        <time>2025-10-12T09:47:33Z</time>
      </trkpt>
      <trkpt lat="43.16145" lon="6.62211">
        <ele>21</ele>
        <time>2025-10-12T09:47:45Z</time>
      </trkpt>
      <trkpt lat="43.16149" lon="6.62207">
        <ele>21</ele>
        <time>2025-10-12T09:47:59Z</time>
      </trkpt>
      <trkpt lat="43.1615" lon="6.62202">
        <ele>20</ele>
        <time>2025-10-12T09:48:11Z</time>
      </trkpt>
      <trkpt lat="43.16158" lon="6.62198">
        <ele>21</ele>
        <time>2025-10-12T09:48:40Z</time>
      </trkpt>
      <trkpt lat="43.16163" lon="6.622">
        <ele>20</ele>
        <time>2025-10-12T09:48:46Z</time>
      </trkpt>
      <trkpt lat="43.16178" lon="6.62204">
        <ele>19</ele>
        <time>2025-10-12T09:49:06Z</time>
      </trkpt>
      <trkpt lat="43.16179" lon="6.62195">
        <ele>18</ele>
        <time>2025-10-12T09:49:14Z</time>
      </trkpt>
      <trkpt lat="43.16181" lon="6.6219">
        <ele>18</ele>
        <time>2025-10-12T09:49:19Z</time>
      </trkpt>
      <trkpt lat="43.16185" lon="6.62186">
        <ele>17</ele>
        <time>2025-10-12T09:49:27Z</time>
      </trkpt>
      <trkpt lat="43.16189" lon="6.62183">
        <ele>16</ele>
        <time>2025-10-12T09:49:33Z</time>
      </trkpt>
      <trkpt lat="43.16196" lon="6.62173">
        <ele>15</ele>
        <time>2025-10-12T09:49:50Z</time>
      </trkpt>
      <trkpt lat="43.16195" lon="6.62167">
        <ele>15</ele>
        <time>2025-10-12T09:50:26Z</time>
      </trkpt>
      <trkpt lat="43.16198" lon="6.62162">
        <ele>14</ele>
        <time>2025-10-12T09:50:38Z</time>
      </trkpt>
      <trkpt lat="43.16205" lon="6.6216">
        <ele>13</ele>
        <time>2025-10-12T09:50:56Z</time>
      </trkpt>
      <trkpt lat="43.16216" lon="6.62162">
        <ele>11</ele>
        <time>2025-10-12T09:51:12Z</time>
      </trkpt>
      <trkpt lat="43.16222" lon="6.62165">
        <ele>10</ele>
        <time>2025-10-12T09:51:21Z</time>
      </trkpt>
      <trkpt lat="43.1623" lon="6.62159">
        <ele>10</ele>
        <time>2025-10-12T09:51:33Z</time>
      </trkpt>
      <trkpt lat="43.16233" lon="6.62153">
        <ele>11</ele>
        <time>2025-10-12T09:51:45Z</time>
      </trkpt>
      <trkpt lat="43.16239" lon="6.62144">
        <ele>12</ele>
        <time>2025-10-12T09:52:03Z</time>
      </trkpt>
      <trkpt lat="43.16244" lon="6.62138">
        <ele>12</ele>
        <time>2025-10-12T09:52:15Z</time>
      </trkpt>
      <trkpt lat="43.16254" lon="6.62133">
        <ele>10</ele>
        <time>2025-10-12T09:52:27Z</time>
      </trkpt>
      <trkpt lat="43.16259" lon="6.62135">
        <ele>11</ele>
        <time>2025-10-12T09:52:34Z</time>
      </trkpt>
      <trkpt lat="43.16266" lon="6.62131">
        <ele>8</ele>
        <time>2025-10-12T09:52:48Z</time>
      </trkpt>
      <trkpt lat="43.16277" lon="6.62131">
        <ele>7</ele>
        <time>2025-10-12T09:52:59Z</time>
      </trkpt>
      <trkpt lat="43.16282" lon="6.62128">
        <ele>7</ele>
        <time>2025-10-12T09:53:03Z</time>
      </trkpt>
      <trkpt lat="43.16293" lon="6.62129">
        <ele>7</ele>
        <time>2025-10-12T09:53:13Z</time>
      </trkpt>
      <trkpt lat="43.16299" lon="6.62129">
        <ele>9</ele>
        <time>2025-10-12T09:53:27Z</time>
      </trkpt>
      <trkpt lat="43.16303" lon="6.62131">
        <ele>8</ele>
        <time>2025-10-12T09:53:33Z</time>
      </trkpt>
      <trkpt lat="43.16307" lon="6.62134">
        <ele>7</ele>
        <time>2025-10-12T09:53:39Z</time>
      </trkpt>
      <trkpt lat="43.16312" lon="6.62134">
        <ele>6</ele>
        <time>2025-10-12T09:53:57Z</time>
      </trkpt>
      <trkpt lat="43.16316" lon="6.62136">
        <ele>6</ele>
        <time>2025-10-12T09:54:15Z</time>
      </trkpt>
      <trkpt lat="43.16325" lon="6.62138">
        <ele>6</ele>
        <time>2025-10-12T09:54:26Z</time>
      </trkpt>
      <trkpt lat="43.1633" lon="6.62144">
        <ele>6</ele>
        <time>2025-10-12T09:54:35Z</time>
      </trkpt>
      <trkpt lat="43.16335" lon="6.62146">
        <ele>8</ele>
        <time>2025-10-12T09:54:47Z</time>
      </trkpt>
      <trkpt lat="43.16345" lon="6.62154">
        <ele>9</ele>
        <time>2025-10-12T09:55:05Z</time>
      </trkpt>
      <trkpt lat="43.16349" lon="6.62151">
        <ele>9</ele>
        <time>2025-10-12T09:55:11Z</time>
      </trkpt>
      <trkpt lat="43.16353" lon="6.62148">
        <ele>10</ele>
        <time>2025-10-12T09:55:17Z</time>
      </trkpt>
      <trkpt lat="43.16369" lon="6.62151">
        <ele>11</ele>
        <time>2025-10-12T09:55:35Z</time>
      </trkpt>
      <trkpt lat="43.16375" lon="6.62155">
        <ele>11</ele>
        <time>2025-10-12T09:55:42Z</time>
      </trkpt>
      <trkpt lat="43.16379" lon="6.62157">
        <ele>11</ele>
        <time>2025-10-12T09:55:47Z</time>
      </trkpt>
      <trkpt lat="43.16385" lon="6.62164">
        <ele>10</ele>
        <time>2025-10-12T09:56:00Z</time>
      </trkpt>
      <trkpt lat="43.1639" lon="6.62167">
        <ele>9</ele>
        <time>2025-10-12T09:56:05Z</time>
      </trkpt>
      <trkpt lat="43.1639" lon="6.62175">
        <ele>9</ele>
        <time>2025-10-12T09:56:13Z</time>
      </trkpt>
      <trkpt lat="43.16393" lon="6.62179">
        <ele>8</ele>
        <time>2025-10-12T09:56:19Z</time>
      </trkpt>
      <trkpt lat="43.16397" lon="6.62181">
        <ele>9</ele>
        <time>2025-10-12T09:56:25Z</time>
      </trkpt>
      <trkpt lat="43.16405" lon="6.62182">
        <ele>9</ele>
        <time>2025-10-12T09:56:38Z</time>
      </trkpt>
      <trkpt lat="43.1641" lon="6.62182">
        <ele>9</ele>
        <time>2025-10-12T09:56:42Z</time>
      </trkpt>
      <trkpt lat="43.16418" lon="6.62187">
        <ele>9</ele>
        <time>2025-10-12T09:56:52Z</time>
      </trkpt>
      <trkpt lat="43.16425" lon="6.62183">
        <ele>10</ele>
        <time>2025-10-12T09:57:06Z</time>
      </trkpt>
      <trkpt lat="43.16429" lon="6.62183">
        <ele>9</ele>
        <time>2025-10-12T09:57:12Z</time>
      </trkpt>
      <trkpt lat="43.16435" lon="6.62185">
        <ele>10</ele>
        <time>2025-10-12T09:57:31Z</time>
      </trkpt>
      <trkpt lat="43.1644" lon="6.6219">
        <ele>10</ele>
        <time>2025-10-12T09:57:35Z</time>
      </trkpt>
      <trkpt lat="43.16445" lon="6.62193">
        <ele>10</ele>
        <time>2025-10-12T09:57:39Z</time>
      </trkpt>
      <trkpt lat="43.16451" lon="6.62198">
        <ele>9</ele>
        <time>2025-10-12T09:57:48Z</time>
      </trkpt>
      <trkpt lat="43.16462" lon="6.62202">
        <ele>9</ele>
        <time>2025-10-12T09:57:59Z</time>
      </trkpt>
      <trkpt lat="43.16471" lon="6.6221">
        <ele>9</ele>
        <time>2025-10-12T09:58:17Z</time>
      </trkpt>
      <trkpt lat="43.16481" lon="6.62221">
        <ele>10</ele>
        <time>2025-10-12T09:58:29Z</time>
      </trkpt>
      <trkpt lat="43.16484" lon="6.62225">
        <ele>10</ele>
        <time>2025-10-12T09:58:33Z</time>
      </trkpt>
      <trkpt lat="43.16489" lon="6.62232">
        <ele>10</ele>
        <time>2025-10-12T09:58:44Z</time>
      </trkpt>
      <trkpt lat="43.16491" lon="6.62238">
        <ele>11</ele>
        <time>2025-10-12T09:58:49Z</time>
      </trkpt>
      <trkpt lat="43.16495" lon="6.6224">
        <ele>10</ele>
        <time>2025-10-12T09:58:53Z</time>
      </trkpt>
      <trkpt lat="43.165" lon="6.62241">
        <ele>11</ele>
        <time>2025-10-12T09:58:58Z</time>
      </trkpt>
      <trkpt lat="43.16504" lon="6.62244">
        <ele>11</ele>
        <time>2025-10-12T09:59:02Z</time>
      </trkpt>
      <trkpt lat="43.16506" lon="6.62249">
        <ele>11</ele>
        <time>2025-10-12T09:59:07Z</time>
      </trkpt>
      <trkpt lat="43.16517" lon="6.62259">
        <ele>11</ele>
        <time>2025-10-12T09:59:22Z</time>
      </trkpt>
      <trkpt lat="43.16523" lon="6.62265">
        <ele>12</ele>
        <time>2025-10-12T09:59:31Z</time>
      </trkpt>
      <trkpt lat="43.16525" lon="6.62271">
        <ele>12</ele>
        <time>2025-10-12T09:59:37Z</time>
      </trkpt>
      <trkpt lat="43.16528" lon="6.62275">
        <ele>12</ele>
        <time>2025-10-12T09:59:42Z</time>
      </trkpt>
      <trkpt lat="43.16537" lon="6.62279">
        <ele>13</ele>
        <time>2025-10-12T09:59:54Z</time>
      </trkpt>
      <trkpt lat="43.16543" lon="6.62288">
        <ele>11</ele>
        <time>2025-10-12T10:00:12Z</time>
      </trkpt>
      <trkpt lat="43.16548" lon="6.62291">
        <ele>10</ele>
        <time>2025-10-12T10:00:20Z</time>
      </trkpt>
      <trkpt lat="43.16554" lon="6.62299">
        <ele>10</ele>
        <time>2025-10-12T10:00:27Z</time>
      </trkpt>
      <trkpt lat="43.16561" lon="6.62305">
        <ele>10</ele>
        <time>2025-10-12T10:00:36Z</time>
      </trkpt>
      <trkpt lat="43.16565" lon="6.6231">
        <ele>11</ele>
        <time>2025-10-12T10:00:44Z</time>
      </trkpt>
      <trkpt lat="43.16567" lon="6.62314">
        <ele>11</ele>
        <time>2025-10-12T10:00:48Z</time>
      </trkpt>
      <trkpt lat="43.16575" lon="6.62332">
        <ele>9</ele>
        <time>2025-10-12T10:01:10Z</time>
      </trkpt>
      <trkpt lat="43.16582" lon="6.62344">
        <ele>8</ele>
        <time>2025-10-12T10:01:24Z</time>
      </trkpt>
      <trkpt lat="43.16585" lon="6.62348">
        <ele>8</ele>
        <time>2025-10-12T10:01:30Z</time>
      </trkpt>
      <trkpt lat="43.16599" lon="6.62365">
        <ele>7</ele>
        <time>2025-10-12T10:01:58Z</time>
      </trkpt>
      <trkpt lat="43.16606" lon="6.62372">
        <ele>7</ele>
        <time>2025-10-12T10:02:08Z</time>
      </trkpt>
      <trkpt lat="43.16607" lon="6.6239">
        <ele>5</ele>
        <time>2025-10-12T10:02:26Z</time>
      </trkpt>
      <trkpt lat="43.1661" lon="6.62396">
        <ele>7</ele>
        <time>2025-10-12T10:09:31Z</time>
      </trkpt>
      <trkpt lat="43.1661" lon="6.62405">
        <ele>9</ele>
        <time>2025-10-12T10:09:48Z</time>
      </trkpt>
      <trkpt lat="43.16617" lon="6.62416">
        <ele>11</ele>
        <time>2025-10-12T10:10:17Z</time>
      </trkpt>
      <trkpt lat="43.1662" lon="6.62425">
        <ele>13</ele>
        <time>2025-10-12T10:10:35Z</time>
      </trkpt>
      <trkpt lat="43.16632" lon="6.62448">
        <ele>18</ele>
        <time>2025-10-12T10:11:17Z</time>
      </trkpt>
      <trkpt lat="43.16637" lon="6.62455">
        <ele>20</ele>
        <time>2025-10-12T10:11:35Z</time>
      </trkpt>
      <trkpt lat="43.1664" lon="6.62465">
        <ele>20</ele>
        <time>2025-10-12T10:11:48Z</time>
      </trkpt>
      <trkpt lat="43.16645" lon="6.62473">
        <ele>21</ele>
        <time>2025-10-12T10:11:59Z</time>
      </trkpt>
      <trkpt lat="43.16647" lon="6.6248">
        <ele>21</ele>
        <time>2025-10-12T10:12:10Z</time>
      </trkpt>
      <trkpt lat="43.16649" lon="6.62507">
        <ele>19</ele>
        <time>2025-10-12T10:13:08Z</time>
      </trkpt>
      <trkpt lat="43.16649" lon="6.62514">
        <ele>19</ele>
        <time>2025-10-12T10:13:13Z</time>
      </trkpt>
      <trkpt lat="43.16646" lon="6.6252">
        <ele>20</ele>
        <time>2025-10-12T10:13:19Z</time>
      </trkpt>
      <trkpt lat="43.16644" lon="6.62527">
        <ele>19</ele>
        <time>2025-10-12T10:13:25Z</time>
      </trkpt>
      <trkpt lat="43.16643" lon="6.62536">
        <ele>19</ele>
        <time>2025-10-12T10:13:33Z</time>
      </trkpt>
      <trkpt lat="43.16644" lon="6.62543">
        <ele>20</ele>
        <time>2025-10-12T10:13:39Z</time>
      </trkpt>
      <trkpt lat="43.16646" lon="6.62556">
        <ele>21</ele>
        <time>2025-10-12T10:13:51Z</time>
      </trkpt>
      <trkpt lat="43.1665" lon="6.62565">
        <ele>21</ele>
        <time>2025-10-12T10:14:02Z</time>
      </trkpt>
      <trkpt lat="43.16654" lon="6.62571">
        <ele>23</ele>
        <time>2025-10-12T10:14:13Z</time>
      </trkpt>
      <trkpt lat="43.16669" lon="6.62586">
        <ele>26</ele>
        <time>2025-10-12T10:14:37Z</time>
      </trkpt>
      <trkpt lat="43.16672" lon="6.62593">
        <ele>26</ele>
        <time>2025-10-12T10:14:45Z</time>
      </trkpt>
      <trkpt lat="43.16675" lon="6.62597">
        <ele>27</ele>
        <time>2025-10-12T10:14:51Z</time>
      </trkpt>
      <trkpt lat="43.16682" lon="6.62601">
        <ele>28</ele>
        <time>2025-10-12T10:15:03Z</time>
      </trkpt>
      <trkpt lat="43.16684" lon="6.62616">
        <ele>26</ele>
        <time>2025-10-12T10:15:20Z</time>
      </trkpt>
      <trkpt lat="43.16693" lon="6.62621">
        <ele>27</ele>
        <time>2025-10-12T10:15:34Z</time>
      </trkpt>
      <trkpt lat="43.16698" lon="6.62624">
        <ele>27</ele>
        <time>2025-10-12T10:15:39Z</time>
      </trkpt>
      <trkpt lat="43.16702" lon="6.62626">
        <ele>28</ele>
        <time>2025-10-12T10:15:47Z</time>
      </trkpt>
      <trkpt lat="43.16709" lon="6.62623">
        <ele>29</ele>
        <time>2025-10-12T10:15:58Z</time>
      </trkpt>
      <trkpt lat="43.16714" lon="6.62628">
        <ele>30</ele>
        <time>2025-10-12T10:16:05Z</time>
      </trkpt>
      <trkpt lat="43.16718" lon="6.6263">
        <ele>31</ele>
        <time>2025-10-12T10:16:13Z</time>
      </trkpt>
      <trkpt lat="43.16724" lon="6.62633">
        <ele>32</ele>
        <time>2025-10-12T10:16:24Z</time>
      </trkpt>
      <trkpt lat="43.16729" lon="6.62633">
        <ele>32</ele>
        <time>2025-10-12T10:16:30Z</time>
      </trkpt>
      <trkpt lat="43.16734" lon="6.62634">
        <ele>32</ele>
        <time>2025-10-12T10:16:37Z</time>
      </trkpt>
      <trkpt lat="43.16754" lon="6.6263">
        <ele>33</ele>
        <time>2025-10-12T10:17:03Z</time>
      </trkpt>
      <trkpt lat="43.16763" lon="6.62631">
        <ele>33</ele>
        <time>2025-10-12T10:17:13Z</time>
      </trkpt>
      <trkpt lat="43.1677" lon="6.62629">
        <ele>34</ele>
        <time>2025-10-12T10:17:21Z</time>
      </trkpt>
      <trkpt lat="43.16775" lon="6.62632">
        <ele>34</ele>
        <time>2025-10-12T10:17:25Z</time>
      </trkpt>
      <trkpt lat="43.16779" lon="6.62635">
        <ele>33</ele>
        <time>2025-10-12T10:17:33Z</time>
      </trkpt>
      <trkpt lat="43.16791" lon="6.62655">
        <ele>29</ele>
        <time>2025-10-12T10:18:20Z</time>
      </trkpt>
      <trkpt lat="43.16793" lon="6.62664">
        <ele>26</ele>
        <time>2025-10-12T10:18:38Z</time>
      </trkpt>
      <trkpt lat="43.16799" lon="6.62669">
        <ele>25</ele>
        <time>2025-10-12T10:18:50Z</time>
      </trkpt>
      <trkpt lat="43.16802" lon="6.62675">
        <ele>24</ele>
        <time>2025-10-12T10:18:58Z</time>
      </trkpt>
      <trkpt lat="43.16806" lon="6.62679">
        <ele>23</ele>
        <time>2025-10-12T10:19:04Z</time>
      </trkpt>
      <trkpt lat="43.16818" lon="6.62696">
        <ele>19</ele>
        <time>2025-10-12T10:19:29Z</time>
      </trkpt>
      <trkpt lat="43.16824" lon="6.62708">
        <ele>14</ele>
        <time>2025-10-12T10:20:04Z</time>
      </trkpt>
      <trkpt lat="43.16829" lon="6.62713">
        <ele>13</ele>
        <time>2025-10-12T10:20:16Z</time>
      </trkpt>
      <trkpt lat="43.16837" lon="6.62717">
        <ele>12</ele>
        <time>2025-10-12T10:20:50Z</time>
      </trkpt>
      <trkpt lat="43.16842" lon="6.6272">
        <ele>12</ele>
        <time>2025-10-12T10:20:58Z</time>
      </trkpt>
      <trkpt lat="43.16847" lon="6.62723">
        <ele>11</ele>
        <time>2025-10-12T10:21:10Z</time>
      </trkpt>
      <trkpt lat="43.16852" lon="6.62727">
        <ele>10</ele>
        <time>2025-10-12T10:21:22Z</time>
      </trkpt>
      <trkpt lat="43.16857" lon="6.62731">
        <ele>9</ele>
        <time>2025-10-12T10:21:33Z</time>
      </trkpt>
      <trkpt lat="43.16866" lon="6.6273">
        <ele>7</ele>
        <time>2025-10-12T10:21:46Z</time>
      </trkpt>
      <trkpt lat="43.16872" lon="6.62731">
        <ele>7</ele>
        <time>2025-10-12T10:21:51Z</time>
      </trkpt>
      <trkpt lat="43.16877" lon="6.62736">
        <ele>8</ele>
        <time>2025-10-12T10:22:05Z</time>
      </trkpt>
      <trkpt lat="43.1688" lon="6.62744">
        <ele>8</ele>
        <time>2025-10-12T10:22:17Z</time>
      </trkpt>
      <trkpt lat="43.16888" lon="6.62749">
        <ele>7</ele>
        <time>2025-10-12T10:22:28Z</time>
      </trkpt>
      <trkpt lat="43.16898" lon="6.62757">
        <ele>7</ele>
        <time>2025-10-12T10:22:42Z</time>
      </trkpt>
      <trkpt lat="43.16903" lon="6.62765">
        <ele>8</ele>
        <time>2025-10-12T10:22:52Z</time>
      </trkpt>
      <trkpt lat="43.16911" lon="6.6277">
        <ele>9</ele>
        <time>2025-10-12T10:23:04Z</time>
      </trkpt>
      <trkpt lat="43.16914" lon="6.62774">
        <ele>10</ele>
        <time>2025-10-12T10:23:10Z</time>
      </trkpt>
      <trkpt lat="43.16919" lon="6.62776">
        <ele>12</ele>
        <time>2025-10-12T10:23:24Z</time>
      </trkpt>
      <trkpt lat="43.16924" lon="6.62771">
        <ele>15</ele>
        <time>2025-10-12T10:23:43Z</time>
      </trkpt>
      <trkpt lat="43.16927" lon="6.62784">
        <ele>13</ele>
        <time>2025-10-12T10:24:00Z</time>
      </trkpt>
      <trkpt lat="43.16929" lon="6.62792">
        <ele>13</ele>
        <time>2025-10-12T10:24:06Z</time>
      </trkpt>
      <trkpt lat="43.16932" lon="6.62799">
        <ele>13</ele>
        <time>2025-10-12T10:24:12Z</time>
      </trkpt>
      <trkpt lat="43.16937" lon="6.62807">
        <ele>17</ele>
        <time>2025-10-12T10:24:32Z</time>
      </trkpt>
      <trkpt lat="43.16943" lon="6.62809">
        <ele>20</ele>
        <time>2025-10-12T10:25:02Z</time>
      </trkpt>
      <trkpt lat="43.16944" lon="6.628">
        <ele>24</ele>
        <time>2025-10-12T10:25:32Z</time>
      </trkpt>
      <trkpt lat="43.1695" lon="6.62803">
        <ele>26</ele>
        <time>2025-10-12T10:25:50Z</time>
      </trkpt>
      <trkpt lat="43.16956" lon="6.628">
        <ele>28</ele>
        <time>2025-10-12T10:26:07Z</time>
      </trkpt>
      <trkpt lat="43.16961" lon="6.62795">
        <ele>30</ele>
        <time>2025-10-12T10:26:19Z</time>
      </trkpt>
      <trkpt lat="43.16965" lon="6.62796">
        <ele>35</ele>
        <time>2025-10-12T10:26:48Z</time>
      </trkpt>
      <trkpt lat="43.16977" lon="6.62819">
        <ele>41</ele>
        <time>2025-10-12T10:27:36Z</time>
      </trkpt>
      <trkpt lat="43.16979" lon="6.62826">
        <ele>42</ele>
        <time>2025-10-12T10:27:47Z</time>
      </trkpt>
      <trkpt lat="43.16986" lon="6.62841">
        <ele>45</ele>
        <time>2025-10-12T10:28:06Z</time>
      </trkpt>
      <trkpt lat="43.16987" lon="6.62856">
        <ele>44</ele>
        <time>2025-10-12T10:28:19Z</time>
      </trkpt>
      <trkpt lat="43.16993" lon="6.62884">
        <ele>38</ele>
        <time>2025-10-12T10:28:56Z</time>
      </trkpt>
      <trkpt lat="43.16995" lon="6.62892">
        <ele>36</ele>
        <time>2025-10-12T10:29:08Z</time>
      </trkpt>
      <trkpt lat="43.17005" lon="6.62907">
        <ele>35</ele>
        <time>2025-10-12T10:29:27Z</time>
      </trkpt>
      <trkpt lat="43.17009" lon="6.6291">
        <ele>35</ele>
        <time>2025-10-12T10:29:35Z</time>
      </trkpt>
      <trkpt lat="43.17014" lon="6.6291">
        <ele>37</ele>
        <time>2025-10-12T10:29:47Z</time>
      </trkpt>
      <trkpt lat="43.17018" lon="6.6292">
        <ele>37</ele>
        <time>2025-10-12T10:30:00Z</time>
      </trkpt>
      <trkpt lat="43.17022" lon="6.62924">
        <ele>37</ele>
        <time>2025-10-12T10:30:12Z</time>
      </trkpt>
      <trkpt lat="43.17016" lon="6.62928">
        <ele>31</ele>
        <time>2025-10-12T10:31:01Z</time>
      </trkpt>
      <trkpt lat="43.17018" lon="6.6294">
        <ele>29</ele>
        <time>2025-10-12T10:31:14Z</time>
      </trkpt>
      <trkpt lat="43.17011" lon="6.62945">
        <ele>24</ele>
        <time>2025-10-12T10:31:46Z</time>
      </trkpt>
      <trkpt lat="43.17003" lon="6.62942">
        <ele>23</ele>
        <time>2025-10-12T10:32:03Z</time>
      </trkpt>
      <trkpt lat="43.16999" lon="6.62951">
        <ele>18</ele>
        <time>2025-10-12T10:32:33Z</time>
      </trkpt>
      <trkpt lat="43.17001" lon="6.62967">
        <ele>16</ele>
        <time>2025-10-12T10:32:49Z</time>
      </trkpt>
      <trkpt lat="43.17004" lon="6.62973">
        <ele>15</ele>
        <time>2025-10-12T10:32:56Z</time>
      </trkpt>
      <trkpt lat="43.17011" lon="6.62983">
        <ele>12</ele>
        <time>2025-10-12T10:33:11Z</time>
      </trkpt>
      <trkpt lat="43.17019" lon="6.62987">
        <ele>11</ele>
        <time>2025-10-12T10:33:23Z</time>
      </trkpt>
      <trkpt lat="43.17028" lon="6.62982">
        <ele>11</ele>
        <time>2025-10-12T10:33:35Z</time>
      </trkpt>
      <trkpt lat="43.17034" lon="6.62985">
        <ele>11</ele>
        <time>2025-10-12T10:33:39Z</time>
      </trkpt>
      <trkpt lat="43.17044" lon="6.62993">
        <ele>9</ele>
        <time>2025-10-12T10:33:51Z</time>
      </trkpt>
      <trkpt lat="43.17054" lon="6.62987">
        <ele>8</ele>
        <time>2025-10-12T10:34:04Z</time>
      </trkpt>
      <trkpt lat="43.17058" lon="6.6299">
        <ele>8</ele>
        <time>2025-10-12T10:34:08Z</time>
      </trkpt>
      <trkpt lat="43.17066" lon="6.62994">
        <ele>9</ele>
        <time>2025-10-12T10:34:18Z</time>
      </trkpt>
      <trkpt lat="43.17083" lon="6.63024">
        <ele>17</ele>
        <time>2025-10-12T10:44:13Z</time>
      </trkpt>
      <trkpt lat="43.17089" lon="6.63029">
        <ele>16</ele>
        <time>2025-10-12T10:44:25Z</time>
      </trkpt>
      <trkpt lat="43.17098" lon="6.63035">
        <ele>16</ele>
        <time>2025-10-12T10:44:39Z</time>
      </trkpt>
      <trkpt lat="43.17104" lon="6.63037">
        <ele>16</ele>
        <time>2025-10-12T10:44:57Z</time>
      </trkpt>
      <trkpt lat="43.1711" lon="6.63046">
        <ele>18</ele>
        <time>2025-10-12T10:45:15Z</time>
      </trkpt>
      <trkpt lat="43.17114" lon="6.63052">
        <ele>17</ele>
        <time>2025-10-12T10:45:22Z</time>
      </trkpt>
      <trkpt lat="43.17119" lon="6.63055">
        <ele>19</ele>
        <time>2025-10-12T10:45:36Z</time>
      </trkpt>
      <trkpt lat="43.17127" lon="6.6307">
        <ele>21</ele>
        <time>2025-10-12T10:45:55Z</time>
      </trkpt>
      <trkpt lat="43.17131" lon="6.63077">
        <ele>21</ele>
        <time>2025-10-12T10:46:04Z</time>
      </trkpt>
      <trkpt lat="43.17133" lon="6.63084">
        <ele>20</ele>
        <time>2025-10-12T10:46:09Z</time>
      </trkpt>
      <trkpt lat="43.17135" lon="6.63092">
        <ele>20</ele>
        <time>2025-10-12T10:46:15Z</time>
      </trkpt>
      <trkpt lat="43.17135" lon="6.63101">
        <ele>17</ele>
        <time>2025-10-12T10:46:36Z</time>
      </trkpt>
      <trkpt lat="43.17134" lon="6.63115">
        <ele>17</ele>
        <time>2025-10-12T10:46:48Z</time>
      </trkpt>
      <trkpt lat="43.17132" lon="6.63139">
        <ele>17</ele>
        <time>2025-10-12T10:47:10Z</time>
      </trkpt>
      <trkpt lat="43.1713" lon="6.6315">
        <ele>17</ele>
        <time>2025-10-12T10:47:22Z</time>
      </trkpt>
      <trkpt lat="43.17124" lon="6.6316">
        <ele>16</ele>
        <time>2025-10-12T10:47:39Z</time>
      </trkpt>
      <trkpt lat="43.17117" lon="6.63169">
        <ele>14</ele>
        <time>2025-10-12T10:47:51Z</time>
      </trkpt>
      <trkpt lat="43.17117" lon="6.63179">
        <ele>13</ele>
        <time>2025-10-12T10:47:58Z</time>
      </trkpt>
      <trkpt lat="43.17121" lon="6.63196">
        <ele>14</ele>
        <time>2025-10-12T10:48:13Z</time>
      </trkpt>
      <trkpt lat="43.17125" lon="6.63204">
        <ele>14</ele>
        <time>2025-10-12T10:48:25Z</time>
      </trkpt>
      <trkpt lat="43.17132" lon="6.63205">
        <ele>13</ele>
        <time>2025-10-12T10:48:37Z</time>
      </trkpt>
      <trkpt lat="43.17139" lon="6.63204">
        <ele>13</ele>
        <time>2025-10-12T10:48:49Z</time>
      </trkpt>
      <trkpt lat="43.17144" lon="6.632">
        <ele>13</ele>
        <time>2025-10-12T10:48:57Z</time>
      </trkpt>
      <trkpt lat="43.17153" lon="6.63203">
        <ele>13</ele>
        <time>2025-10-12T10:49:09Z</time>
      </trkpt>
      <trkpt lat="43.17159" lon="6.63201">
        <ele>13</ele>
        <time>2025-10-12T10:49:21Z</time>
      </trkpt>
      <trkpt lat="43.17163" lon="6.63203">
        <ele>12</ele>
        <time>2025-10-12T10:49:33Z</time>
      </trkpt>
      <trkpt lat="43.17168" lon="6.63203">
        <ele>11</ele>
        <time>2025-10-12T10:49:38Z</time>
      </trkpt>
      <trkpt lat="43.17173" lon="6.63206">
        <ele>10</ele>
        <time>2025-10-12T10:49:44Z</time>
      </trkpt>
      <trkpt lat="43.17176" lon="6.6321">
        <ele>11</ele>
        <time>2025-10-12T10:49:49Z</time>
      </trkpt>
      <trkpt lat="43.17181" lon="6.6321">
        <ele>11</ele>
        <time>2025-10-12T10:49:54Z</time>
      </trkpt>
      <trkpt lat="43.17186" lon="6.63213">
        <ele>11</ele>
        <time>2025-10-12T10:50:00Z</time>
      </trkpt>
      <trkpt lat="43.17192" lon="6.63215">
        <ele>11</ele>
        <time>2025-10-12T10:50:10Z</time>
      </trkpt>
      <trkpt lat="43.17196" lon="6.6322">
        <ele>11</ele>
        <time>2025-10-12T10:50:16Z</time>
      </trkpt>
      <trkpt lat="43.172" lon="6.63221">
        <ele>11</ele>
        <time>2025-10-12T10:50:29Z</time>
      </trkpt>
      <trkpt lat="43.17204" lon="6.63228">
        <ele>10</ele>
        <time>2025-10-12T10:50:39Z</time>
      </trkpt>
      <trkpt lat="43.1721" lon="6.63235">
        <ele>9</ele>
        <time>2025-10-12T10:50:53Z</time>
      </trkpt>
      <trkpt lat="43.17216" lon="6.63239">
        <ele>8</ele>
        <time>2025-10-12T10:51:05Z</time>
      </trkpt>
      <trkpt lat="43.17217" lon="6.63244">
        <ele>7</ele>
        <time>2025-10-12T10:51:11Z</time>
      </trkpt>
      <trkpt lat="43.1722" lon="6.63249">
        <ele>6</ele>
        <time>2025-10-12T10:51:17Z</time>
      </trkpt>
      <trkpt lat="43.17224" lon="6.63254">
        <ele>7</ele>
        <time>2025-10-12T10:51:25Z</time>
      </trkpt>
      <trkpt lat="43.17226" lon="6.63258">
        <ele>7</ele>
        <time>2025-10-12T10:51:29Z</time>
      </trkpt>
      <trkpt lat="43.1723" lon="6.63262">
        <ele>7</ele>
        <time>2025-10-12T10:51:37Z</time>
      </trkpt>
      <trkpt lat="43.17235" lon="6.63255">
        <ele>7</ele>
        <time>2025-10-12T10:52:05Z</time>
      </trkpt>
      <trkpt lat="43.17237" lon="6.63265">
        <ele>8</ele>
        <time>2025-10-12T10:54:10Z</time>
      </trkpt>
      <trkpt lat="43.17243" lon="6.63294">
        <ele>8</ele>
        <time>2025-10-12T10:54:32Z</time>
      </trkpt>
      <trkpt lat="43.17249" lon="6.63308">
        <ele>7</ele>
        <time>2025-10-12T10:54:46Z</time>
      </trkpt>
      <trkpt lat="43.17249" lon="6.63314">
        <ele>7</ele>
        <time>2025-10-12T10:54:52Z</time>
      </trkpt>
      <trkpt lat="43.17253" lon="6.63321">
        <ele>7</ele>
        <time>2025-10-12T10:54:59Z</time>
      </trkpt>
      <trkpt lat="43.17254" lon="6.63326">
        <ele>7</ele>
        <time>2025-10-12T10:55:03Z</time>
      </trkpt>
      <trkpt lat="43.17261" lon="6.63354">
        <ele>8</ele>
        <time>2025-10-12T10:55:23Z</time>
      </trkpt>
      <trkpt lat="43.17266" lon="6.6336">
        <ele>7</ele>
        <time>2025-10-12T10:55:31Z</time>
      </trkpt>
      <trkpt lat="43.17268" lon="6.63366">
        <ele>8</ele>
        <time>2025-10-12T10:55:36Z</time>
      </trkpt>
      <trkpt lat="43.17266" lon="6.63374">
        <ele>7</ele>
        <time>2025-10-12T10:55:43Z</time>
      </trkpt>
      <trkpt lat="43.17267" lon="6.63382">
        <ele>7</ele>
        <time>2025-10-12T10:55:48Z</time>
      </trkpt>
      <trkpt lat="43.17272" lon="6.63413">
        <ele>7</ele>
        <time>2025-10-12T10:56:12Z</time>
      </trkpt>
      <trkpt lat="43.17273" lon="6.63418">
        <ele>7</ele>
        <time>2025-10-12T10:56:16Z</time>
      </trkpt>
      <trkpt lat="43.17274" lon="6.63427">
        <ele>7</ele>
        <time>2025-10-12T10:56:23Z</time>
      </trkpt>
      <trkpt lat="43.17282" lon="6.63476">
        <ele>6</ele>
        <time>2025-10-12T10:57:00Z</time>
      </trkpt>
      <trkpt lat="43.17283" lon="6.63496">
        <ele>6</ele>
        <time>2025-10-12T10:57:15Z</time>
      </trkpt>
      <trkpt lat="43.17282" lon="6.63504">
        <ele>6</ele>
        <time>2025-10-12T10:57:23Z</time>
      </trkpt>
      <trkpt lat="43.17284" lon="6.6351">
        <ele>6</ele>
        <time>2025-10-12T10:57:41Z</time>
      </trkpt>
      <trkpt lat="43.17283" lon="6.63517">
        <ele>6</ele>
        <time>2025-10-12T10:57:48Z</time>
      </trkpt>
      <trkpt lat="43.17285" lon="6.63525">
        <ele>5</ele>
        <time>2025-10-12T10:57:56Z</time>
      </trkpt>
      <trkpt lat="43.17282" lon="6.63571">
        <ele>5</ele>
        <time>2025-10-12T10:58:28Z</time>
      </trkpt>
      <trkpt lat="43.1728" lon="6.63596">
        <ele>5</ele>
        <time>2025-10-12T10:58:46Z</time>
      </trkpt>
      <trkpt lat="43.17278" lon="6.63612">
        <ele>5</ele>
        <time>2025-10-12T10:58:58Z</time>
      </trkpt>
      <trkpt lat="43.17277" lon="6.63624">
        <ele>5</ele>
        <time>2025-10-12T10:59:06Z</time>
      </trkpt>
      <trkpt lat="43.17275" lon="6.63635">
        <ele>5</ele>
        <time>2025-10-12T10:59:14Z</time>
      </trkpt>
      <trkpt lat="43.17272" lon="6.63651">
        <ele>5</ele>
        <time>2025-10-12T10:59:26Z</time>
      </trkpt>
      <trkpt lat="43.17275" lon="6.6369">
        <ele>5</ele>
        <time>2025-10-12T10:59:59Z</time>
      </trkpt>
      <trkpt lat="43.17274" lon="6.63696">
        <ele>5</ele>
        <time>2025-10-12T11:00:04Z</time>
      </trkpt>
      <trkpt lat="43.17273" lon="6.63701">
        <ele>5</ele>
        <time>2025-10-12T11:00:09Z</time>
      </trkpt>
      <trkpt lat="43.17273" lon="6.63706">
        <ele>5</ele>
        <time>2025-10-12T11:00:20Z</time>
      </trkpt>
      <trkpt lat="43.17271" lon="6.63714">
        <ele>7</ele>
        <time>2025-10-12T11:00:31Z</time>
      </trkpt>
      <trkpt lat="43.17269" lon="6.63717">
        <ele>7</ele>
        <time>2025-10-12T11:00:35Z</time>
      </trkpt>
      <trkpt lat="43.17264" lon="6.63726">
        <ele>7</ele>
        <time>2025-10-12T11:00:45Z</time>
      </trkpt>
      <trkpt lat="43.1726" lon="6.63736">
        <ele>8</ele>
        <time>2025-10-12T11:00:59Z</time>
      </trkpt>
      <trkpt lat="43.17259" lon="6.63741">
        <ele>8</ele>
        <time>2025-10-12T11:01:04Z</time>
      </trkpt>
      <trkpt lat="43.17256" lon="6.63743">
        <ele>8</ele>
        <time>2025-10-12T11:01:09Z</time>
      </trkpt>
      <trkpt lat="43.17254" lon="6.63747">
        <ele>8</ele>
        <time>2025-10-12T11:01:13Z</time>
      </trkpt>
      <trkpt lat="43.17252" lon="6.63752">
        <ele>8</ele>
        <time>2025-10-12T11:01:17Z</time>
      </trkpt>
      <trkpt lat="43.17254" lon="6.63759">
        <ele>9</ele>
        <time>2025-10-12T11:01:23Z</time>
      </trkpt>
      <trkpt lat="43.17255" lon="6.63764">
        <ele>9</ele>
        <time>2025-10-12T11:01:28Z</time>
      </trkpt>
      <trkpt lat="43.17257" lon="6.6377">
        <ele>10</ele>
        <time>2025-10-12T11:01:52Z</time>
      </trkpt>
      <trkpt lat="43.17255" lon="6.63775">
        <ele>10</ele>
        <time>2025-10-12T11:01:57Z</time>
      </trkpt>
      <trkpt lat="43.17253" lon="6.6378">
        <ele>11</ele>
        <time>2025-10-12T11:02:06Z</time>
      </trkpt>
      <trkpt lat="43.17255" lon="6.63786">
        <ele>12</ele>
        <time>2025-10-12T11:02:12Z</time>
      </trkpt>
      <trkpt lat="43.17253" lon="6.63791">
        <ele>11</ele>
        <time>2025-10-12T11:02:24Z</time>
      </trkpt>
      <trkpt lat="43.17253" lon="6.63797">
        <ele>11</ele>
        <time>2025-10-12T11:02:35Z</time>
      </trkpt>
      <trkpt lat="43.17259" lon="6.638">
        <ele>10</ele>
        <time>2025-10-12T11:02:47Z</time>
      </trkpt>
      <trkpt lat="43.17258" lon="6.63809">
        <ele>9</ele>
        <time>2025-10-12T11:02:59Z</time>
      </trkpt>
      <trkpt lat="43.17259" lon="6.63823">
        <ele>12</ele>
        <time>2025-10-12T11:03:17Z</time>
      </trkpt>
      <trkpt lat="43.17257" lon="6.63829">
        <ele>12</ele>
        <time>2025-10-12T11:03:23Z</time>
      </trkpt>
      <trkpt lat="43.17257" lon="6.63835">
        <ele>11</ele>
        <time>2025-10-12T11:03:29Z</time>
      </trkpt>
      <trkpt lat="43.17261" lon="6.63839">
        <ele>12</ele>
        <time>2025-10-12T11:03:41Z</time>
      </trkpt>
      <trkpt lat="43.17267" lon="6.63847">
        <ele>10</ele>
        <time>2025-10-12T11:04:23Z</time>
      </trkpt>
      <trkpt lat="43.17272" lon="6.63857">
        <ele>9</ele>
        <time>2025-10-12T11:04:34Z</time>
      </trkpt>
      <trkpt lat="43.17273" lon="6.63863">
        <ele>9</ele>
        <time>2025-10-12T11:04:40Z</time>
      </trkpt>
      <trkpt lat="43.17277" lon="6.63874">
        <ele>8</ele>
        <time>2025-10-12T11:04:52Z</time>
      </trkpt>
      <trkpt lat="43.17283" lon="6.63886">
        <ele>8</ele>
        <time>2025-10-12T11:05:04Z</time>
      </trkpt>
      <trkpt lat="43.17283" lon="6.63897">
        <ele>7</ele>
        <time>2025-10-12T11:05:16Z</time>
      </trkpt>
      <trkpt lat="43.17285" lon="6.63905">
        <ele>6</ele>
        <time>2025-10-12T11:05:22Z</time>
      </trkpt>
      <trkpt lat="43.17286" lon="6.63914">
        <ele>6</ele>
        <time>2025-10-12T11:05:28Z</time>
      </trkpt>
      <trkpt lat="43.17289" lon="6.63922">
        <ele>6</ele>
        <time>2025-10-12T11:05:34Z</time>
      </trkpt>
      <trkpt lat="43.17293" lon="6.63928">
        <ele>6</ele>
        <time>2025-10-12T11:05:40Z</time>
      </trkpt>
      <trkpt lat="43.17298" lon="6.63931">
        <ele>6</ele>
        <time>2025-10-12T11:05:45Z</time>
      </trkpt>
      <trkpt lat="43.17307" lon="6.63931">
        <ele>6</ele>
        <time>2025-10-12T11:05:55Z</time>
      </trkpt>
      <trkpt lat="43.17304" lon="6.63939">
        <ele>5</ele>
        <time>2025-10-12T11:06:07Z</time>
      </trkpt>
      <trkpt lat="43.17299" lon="6.63943">
        <ele>4</ele>
        <time>2025-10-12T11:06:12Z</time>
      </trkpt>
      <trkpt lat="43.17285" lon="6.6395">
        <ele>4</ele>
        <time>2025-10-12T11:06:24Z</time>
      </trkpt>
      <trkpt lat="43.17282" lon="6.63955">
        <ele>4</ele>
        <time>2025-10-12T11:06:28Z</time>
      </trkpt>
      <trkpt lat="43.17275" lon="6.63961">
        <ele>4</ele>
        <time>2025-10-12T11:06:36Z</time>
      </trkpt>
      <trkpt lat="43.17269" lon="6.63969">
        <ele>4</ele>
        <time>2025-10-12T11:06:44Z</time>
      </trkpt>
      <trkpt lat="43.17265" lon="6.63972">
        <ele>4</ele>
        <time>2025-10-12T11:06:48Z</time>
      </trkpt>
      <trkpt lat="43.17261" lon="6.63976">
        <ele>4</ele>
        <time>2025-10-12T11:06:54Z</time>
      </trkpt>
      <trkpt lat="43.17261" lon="6.63982">
        <ele>4</ele>
        <time>2025-10-12T11:06:59Z</time>
      </trkpt>
      <trkpt lat="43.17257" lon="6.63987">
        <ele>4</ele>
        <time>2025-10-12T11:07:04Z</time>
      </trkpt>
      <trkpt lat="43.17253" lon="6.6399">
        <ele>4</ele>
        <time>2025-10-12T11:07:08Z</time>
      </trkpt>
      <trkpt lat="43.17249" lon="6.63992">
        <ele>3</ele>
        <time>2025-10-12T11:07:13Z</time>
      </trkpt>
      <trkpt lat="43.17245" lon="6.63996">
        <ele>3</ele>
        <time>2025-10-12T11:07:20Z</time>
      </trkpt>
      <trkpt lat="43.17245" lon="6.64002">
        <ele>3</ele>
        <time>2025-10-12T11:07:32Z</time>
      </trkpt>
      <trkpt lat="43.17241" lon="6.64002">
        <ele>3</ele>
        <time>2025-10-12T11:07:44Z</time>
      </trkpt>
      <trkpt lat="43.17236" lon="6.64006">
        <ele>3</ele>
        <time>2025-10-12T11:08:02Z</time>
      </trkpt>
      <trkpt lat="43.17237" lon="6.64004">
        <ele>3</ele>
        <time>2025-10-12T11:08:28Z</time>
      </trkpt>
      <trkpt lat="43.17235" lon="6.63998">
        <ele>3</ele>
        <time>2025-10-12T11:08:45Z</time>
      </trkpt>
      <trkpt lat="43.17235" lon="6.63989">
        <ele>2</ele>
        <time>2025-10-12T11:09:59Z</time>
      </trkpt>
      <trkpt lat="43.17231" lon="6.63981">
        <ele>2</ele>
        <time>2025-10-12T11:10:09Z</time>
      </trkpt>
      <trkpt lat="43.17227" lon="6.63981">
        <ele>2</ele>
        <time>2025-10-12T11:10:50Z</time>
      </trkpt>
      <trkpt lat="43.17231" lon="6.63991">
        <ele>2</ele>
        <time>2025-10-12T11:44:45Z</time>
      </trkpt>
      <trkpt lat="43.17232" lon="6.64001">
        <ele>2</ele>
        <time>2025-10-12T11:44:57Z</time>
      </trkpt>
      <trkpt lat="43.17235" lon="6.64009">
        <ele>2</ele>
        <time>2025-10-12T11:45:09Z</time>
      </trkpt>
      <trkpt lat="43.17235" lon="6.64015">
        <ele>2</ele>
        <time>2025-10-12T11:45:33Z</time>
      </trkpt>
      <trkpt lat="43.17233" lon="6.64023">
        <ele>2</ele>
        <time>2025-10-12T11:45:57Z</time>
      </trkpt>
      <trkpt lat="43.17237" lon="6.64009">
        <ele>2</ele>
        <time>2025-10-12T11:47:08Z</time>
      </trkpt>
      <trkpt lat="43.17232" lon="6.64005">
        <ele>2</ele>
        <time>2025-10-12T11:47:32Z</time>
      </trkpt>
      <trkpt lat="43.1723" lon="6.64013">
        <ele>3</ele>
        <time>2025-10-12T11:47:50Z</time>
      </trkpt>
      <trkpt lat="43.17227" lon="6.64019">
        <ele>4</ele>
        <time>2025-10-12T11:48:02Z</time>
      </trkpt>
      <trkpt lat="43.17223" lon="6.64025">
        <ele>4</ele>
        <time>2025-10-12T11:48:08Z</time>
      </trkpt>
      <trkpt lat="43.17219" lon="6.64032">
        <ele>3</ele>
        <time>2025-10-12T11:48:22Z</time>
      </trkpt>
      <trkpt lat="43.17205" lon="6.64026">
        <ele>1</ele>
        <time>2025-10-12T11:48:38Z</time>
      </trkpt>
      <trkpt lat="43.17215" lon="6.64028">
        <ele>2</ele>
        <time>2025-10-12T11:49:38Z</time>
      </trkpt>
      <trkpt lat="43.17223" lon="6.64025">
        <ele>4</ele>
        <time>2025-10-12T11:49:50Z</time>
      </trkpt>
      <trkpt lat="43.17227" lon="6.64019">
        <ele>4</ele>
        <time>2025-10-12T11:49:57Z</time>
      </trkpt>
      <trkpt lat="43.17232" lon="6.64012">
        <ele>4</ele>
        <time>2025-10-12T11:50:03Z</time>
      </trkpt>
      <trkpt lat="43.17236" lon="6.64011">
        <ele>2</ele>
        <time>2025-10-12T11:51:51Z</time>
      </trkpt>
      <trkpt lat="43.17225" lon="6.64021">
        <ele>3</ele>
        <time>2025-10-12T11:56:34Z</time>
      </trkpt>
      <trkpt lat="43.17219" lon="6.64028">
        <ele>3</ele>
        <time>2025-10-12T11:56:43Z</time>
      </trkpt>
      <trkpt lat="43.17212" lon="6.6404">
        <ele>1</ele>
        <time>2025-10-12T11:56:58Z</time>
      </trkpt>
      <trkpt lat="43.17208" lon="6.64047">
        <ele>1</ele>
        <time>2025-10-12T11:57:04Z</time>
      </trkpt>
      <trkpt lat="43.17202" lon="6.64061">
        <ele>2</ele>
        <time>2025-10-12T11:57:23Z</time>
      </trkpt>
      <trkpt lat="43.17199" lon="6.64066">
        <ele>2</ele>
        <time>2025-10-12T11:57:28Z</time>
      </trkpt>
      <trkpt lat="43.17196" lon="6.64072">
        <ele>2</ele>
        <time>2025-10-12T11:57:33Z</time>
      </trkpt>
      <trkpt lat="43.17196" lon="6.64082">
        <ele>3</ele>
        <time>2025-10-12T11:57:47Z</time>
      </trkpt>
      <trkpt lat="43.17199" lon="6.64094">
        <ele>4</ele>
        <time>2025-10-12T11:57:58Z</time>
      </trkpt>
      <trkpt lat="43.17193" lon="6.641">
        <ele>4</ele>
        <time>2025-10-12T11:58:06Z</time>
      </trkpt>
      <trkpt lat="43.17183" lon="6.6412">
        <ele>5</ele>
        <time>2025-10-12T11:58:22Z</time>
      </trkpt>
      <trkpt lat="43.17179" lon="6.64126">
        <ele>6</ele>
        <time>2025-10-12T11:58:31Z</time>
      </trkpt>
      <trkpt lat="43.17176" lon="6.64132">
        <ele>6</ele>
        <time>2025-10-12T11:58:37Z</time>
      </trkpt>
      <trkpt lat="43.17169" lon="6.64157">
        <ele>8</ele>
        <time>2025-10-12T11:59:02Z</time>
      </trkpt>
      <trkpt lat="43.17149" lon="6.64189">
        <ele>12</ele>
        <time>2025-10-12T11:59:37Z</time>
      </trkpt>
      <trkpt lat="43.17144" lon="6.64194">
        <ele>13</ele>
        <time>2025-10-12T11:59:42Z</time>
      </trkpt>
      <trkpt lat="43.17141" lon="6.64199">
        <ele>14</ele>
        <time>2025-10-12T11:59:50Z</time>
      </trkpt>
      <trkpt lat="43.17116" lon="6.64226">
        <ele>17</ele>
        <time>2025-10-12T12:00:26Z</time>
      </trkpt>
      <trkpt lat="43.17096" lon="6.64252">
        <ele>20</ele>
        <time>2025-10-12T12:01:01Z</time>
      </trkpt>
      <trkpt lat="43.17091" lon="6.64259">
        <ele>21</ele>
        <time>2025-10-12T12:01:11Z</time>
      </trkpt>
      <trkpt lat="43.17086" lon="6.64262">
        <ele>22</ele>
        <time>2025-10-12T12:01:17Z</time>
      </trkpt>
      <trkpt lat="43.17084" lon="6.6427">
        <ele>23</ele>
        <time>2025-10-12T12:01:31Z</time>
      </trkpt>
      <trkpt lat="43.17079" lon="6.64274">
        <ele>24</ele>
        <time>2025-10-12T12:01:44Z</time>
      </trkpt>
      <trkpt lat="43.17069" lon="6.64298">
        <ele>27</ele>
        <time>2025-10-12T12:02:15Z</time>
      </trkpt>
      <trkpt lat="43.17055" lon="6.64324">
        <ele>32</ele>
        <time>2025-10-12T12:02:48Z</time>
      </trkpt>
      <trkpt lat="43.17044" lon="6.64336">
        <ele>33</ele>
        <time>2025-10-12T12:03:01Z</time>
      </trkpt>
      <trkpt lat="43.17026" lon="6.64353">
        <ele>33</ele>
        <time>2025-10-12T12:03:22Z</time>
      </trkpt>
      <trkpt lat="43.17" lon="6.6438">
        <ele>36</ele>
        <time>2025-10-12T12:03:59Z</time>
      </trkpt>
      <trkpt lat="43.16988" lon="6.6439">
        <ele>37</ele>
        <time>2025-10-12T12:04:10Z</time>
      </trkpt>
      <trkpt lat="43.16973" lon="6.64409">
        <ele>37</ele>
        <time>2025-10-12T12:04:29Z</time>
      </trkpt>
      <trkpt lat="43.1697" lon="6.64417">
        <ele>37</ele>
        <time>2025-10-12T12:04:35Z</time>
      </trkpt>
      <trkpt lat="43.16967" lon="6.64427">
        <ele>37</ele>
        <time>2025-10-12T12:04:55Z</time>
      </trkpt>
      <trkpt lat="43.16966" lon="6.64433">
        <ele>37</ele>
        <time>2025-10-12T12:05:01Z</time>
      </trkpt>
      <trkpt lat="43.16956" lon="6.64448">
        <ele>38</ele>
        <time>2025-10-12T12:05:20Z</time>
      </trkpt>
      <trkpt lat="43.16952" lon="6.64452">
        <ele>39</ele>
        <time>2025-10-12T12:05:25Z</time>
      </trkpt>
      <trkpt lat="43.16947" lon="6.64453">
        <ele>39</ele>
        <time>2025-10-12T12:05:30Z</time>
      </trkpt>
      <trkpt lat="43.16944" lon="6.64459">
        <ele>40</ele>
        <time>2025-10-12T12:05:39Z</time>
      </trkpt>
      <trkpt lat="43.16943" lon="6.64465">
        <ele>41</ele>
        <time>2025-10-12T12:05:45Z</time>
      </trkpt>
      <trkpt lat="43.16936" lon="6.64473">
        <ele>43</ele>
        <time>2025-10-12T12:05:57Z</time>
      </trkpt>
      <trkpt lat="43.16925" lon="6.64483">
        <ele>45</ele>
        <time>2025-10-12T12:06:18Z</time>
      </trkpt>
      <trkpt lat="43.16921" lon="6.6449">
        <ele>46</ele>
        <time>2025-10-12T12:06:30Z</time>
      </trkpt>
      <trkpt lat="43.16923" lon="6.64499">
        <ele>48</ele>
        <time>2025-10-12T12:06:42Z</time>
      </trkpt>
      <trkpt lat="43.16939" lon="6.64513">
        <ele>52</ele>
        <time>2025-10-12T12:07:11Z</time>
      </trkpt>
      <trkpt lat="43.16942" lon="6.64518">
        <ele>53</ele>
        <time>2025-10-12T12:07:17Z</time>
      </trkpt>
      <trkpt lat="43.16941" lon="6.64528">
        <ele>54</ele>
        <time>2025-10-12T12:07:28Z</time>
      </trkpt>
      <trkpt lat="43.1694" lon="6.64538">
        <ele>55</ele>
        <time>2025-10-12T12:07:39Z</time>
      </trkpt>
      <trkpt lat="43.16922" lon="6.64552">
        <ele>57</ele>
        <time>2025-10-12T12:08:11Z</time>
      </trkpt>
      <trkpt lat="43.16917" lon="6.64551">
        <ele>58</ele>
        <time>2025-10-12T12:08:17Z</time>
      </trkpt>
      <trkpt lat="43.16906" lon="6.64565">
        <ele>60</ele>
        <time>2025-10-12T12:08:37Z</time>
      </trkpt>
      <trkpt lat="43.16906" lon="6.64571">
        <ele>60</ele>
        <time>2025-10-12T12:08:43Z</time>
      </trkpt>
      <trkpt lat="43.16904" lon="6.64576">
        <ele>61</ele>
        <time>2025-10-12T12:08:49Z</time>
      </trkpt>
      <trkpt lat="43.16899" lon="6.64586">
        <ele>62</ele>
        <time>2025-10-12T12:09:01Z</time>
      </trkpt>
      <trkpt lat="43.16895" lon="6.64587">
        <ele>62</ele>
        <time>2025-10-12T12:09:13Z</time>
      </trkpt>
      <trkpt lat="43.16897" lon="6.64586">
        <ele>59</ele>
        <time>2025-10-12T12:12:33Z</time>
      </trkpt>
      <trkpt lat="43.16905" lon="6.64581">
        <ele>59</ele>
        <time>2025-10-12T12:13:44Z</time>
      </trkpt>
      <trkpt lat="43.16911" lon="6.6457">
        <ele>58</ele>
        <time>2025-10-12T12:14:08Z</time>
      </trkpt>
      <trkpt lat="43.16912" lon="6.6456">
        <ele>57</ele>
        <time>2025-10-12T12:14:26Z</time>
      </trkpt>
      <trkpt lat="43.16917" lon="6.64553">
        <ele>56</ele>
        <time>2025-10-12T12:14:38Z</time>
      </trkpt>
      <trkpt lat="43.16925" lon="6.64551">
        <ele>55</ele>
        <time>2025-10-12T12:14:56Z</time>
      </trkpt>
      <trkpt lat="43.16937" lon="6.64538">
        <ele>54</ele>
        <time>2025-10-12T12:15:16Z</time>
      </trkpt>
      <trkpt lat="43.1694" lon="6.64531">
        <ele>53</ele>
        <time>2025-10-12T12:15:28Z</time>
      </trkpt>
      <trkpt lat="43.16945" lon="6.64523">
        <ele>51</ele>
        <time>2025-10-12T12:15:40Z</time>
      </trkpt>
      <trkpt lat="43.16935" lon="6.64509">
        <ele>49</ele>
        <time>2025-10-12T12:16:08Z</time>
      </trkpt>
      <trkpt lat="43.16929" lon="6.64506">
        <ele>48</ele>
        <time>2025-10-12T12:16:20Z</time>
      </trkpt>
      <trkpt lat="43.1692" lon="6.64495">
        <ele>46</ele>
        <time>2025-10-12T12:16:38Z</time>
      </trkpt>
      <trkpt lat="43.16919" lon="6.64484">
        <ele>45</ele>
        <time>2025-10-12T12:16:50Z</time>
      </trkpt>
      <trkpt lat="43.1692" lon="6.64478">
        <ele>44</ele>
        <time>2025-10-12T12:16:56Z</time>
      </trkpt>
      <trkpt lat="43.16925" lon="6.64478">
        <ele>44</ele>
        <time>2025-10-12T12:17:02Z</time>
      </trkpt>
      <trkpt lat="43.16929" lon="6.64475">
        <ele>43</ele>
        <time>2025-10-12T12:17:07Z</time>
      </trkpt>
      <trkpt lat="43.16933" lon="6.64473">
        <ele>43</ele>
        <time>2025-10-12T12:17:12Z</time>
      </trkpt>
      <trkpt lat="43.16937" lon="6.64469">
        <ele>42</ele>
        <time>2025-10-12T12:17:20Z</time>
      </trkpt>
      <trkpt lat="43.16943" lon="6.64464">
        <ele>41</ele>
        <time>2025-10-12T12:17:32Z</time>
      </trkpt>
      <trkpt lat="43.16943" lon="6.64455">
        <ele>39</ele>
        <time>2025-10-12T12:17:44Z</time>
      </trkpt>
      <trkpt lat="43.16947" lon="6.64449">
        <ele>38</ele>
        <time>2025-10-12T12:17:55Z</time>
      </trkpt>
      <trkpt lat="43.16956" lon="6.64441">
        <ele>37</ele>
        <time>2025-10-12T12:18:10Z</time>
      </trkpt>
      <trkpt lat="43.1696" lon="6.64438">
        <ele>37</ele>
        <time>2025-10-12T12:18:15Z</time>
      </trkpt>
      <trkpt lat="43.16967" lon="6.64426">
        <ele>37</ele>
        <time>2025-10-12T12:18:28Z</time>
      </trkpt>
      <trkpt lat="43.16972" lon="6.64405">
        <ele>36</ele>
        <time>2025-10-12T12:18:47Z</time>
      </trkpt>
      <trkpt lat="43.16977" lon="6.64395">
        <ele>37</ele>
        <time>2025-10-12T12:18:58Z</time>
      </trkpt>
      <trkpt lat="43.16986" lon="6.64384">
        <ele>36</ele>
        <time>2025-10-12T12:19:12Z</time>
      </trkpt>
      <trkpt lat="43.16996" lon="6.64374">
        <ele>35</ele>
        <time>2025-10-12T12:19:29Z</time>
      </trkpt>
      <trkpt lat="43.17005" lon="6.6436">
        <ele>34</ele>
        <time>2025-10-12T12:19:46Z</time>
      </trkpt>
      <trkpt lat="43.17011" lon="6.64357">
        <ele>33</ele>
        <time>2025-10-12T12:19:53Z</time>
      </trkpt>
      <trkpt lat="43.17016" lon="6.64351">
        <ele>32</ele>
        <time>2025-10-12T12:20:01Z</time>
      </trkpt>
      <trkpt lat="43.17032" lon="6.64338">
        <ele>32</ele>
        <time>2025-10-12T12:20:23Z</time>
      </trkpt>
      <trkpt lat="43.17043" lon="6.64329">
        <ele>32</ele>
        <time>2025-10-12T12:20:35Z</time>
      </trkpt>
      <trkpt lat="43.17047" lon="6.64325">
        <ele>32</ele>
        <time>2025-10-12T12:20:40Z</time>
      </trkpt>
      <trkpt lat="43.17058" lon="6.64308">
        <ele>30</ele>
        <time>2025-10-12T12:21:00Z</time>
      </trkpt>
      <trkpt lat="43.17062" lon="6.643">
        <ele>29</ele>
        <time>2025-10-12T12:21:12Z</time>
      </trkpt>
      <trkpt lat="43.17067" lon="6.64294">
        <ele>27</ele>
        <time>2025-10-12T12:21:24Z</time>
      </trkpt>
      <trkpt lat="43.1707" lon="6.64281">
        <ele>25</ele>
        <time>2025-10-12T12:21:37Z</time>
      </trkpt>
      <trkpt lat="43.17073" lon="6.64278">
        <ele>24</ele>
        <time>2025-10-12T12:21:43Z</time>
      </trkpt>
      <trkpt lat="43.17076" lon="6.6427">
        <ele>23</ele>
        <time>2025-10-12T12:21:55Z</time>
      </trkpt>
      <trkpt lat="43.17085" lon="6.6426">
        <ele>20</ele>
        <time>2025-10-12T12:22:12Z</time>
      </trkpt>
      <trkpt lat="43.17088" lon="6.64255">
        <ele>19</ele>
        <time>2025-10-12T12:22:20Z</time>
      </trkpt>
      <trkpt lat="43.17093" lon="6.64247">
        <ele>18</ele>
        <time>2025-10-12T12:22:33Z</time>
      </trkpt>
      <trkpt lat="43.17103" lon="6.64233">
        <ele>16</ele>
        <time>2025-10-12T12:22:53Z</time>
      </trkpt>
      <trkpt lat="43.17123" lon="6.64212">
        <ele>12</ele>
        <time>2025-10-12T12:23:27Z</time>
      </trkpt>
      <trkpt lat="43.17127" lon="6.64209">
        <ele>12</ele>
        <time>2025-10-12T12:23:32Z</time>
      </trkpt>
      <trkpt lat="43.17134" lon="6.64198">
        <ele>11</ele>
        <time>2025-10-12T12:23:46Z</time>
      </trkpt>
      <trkpt lat="43.17143" lon="6.64189">
        <ele>10</ele>
        <time>2025-10-12T12:23:59Z</time>
      </trkpt>
      <trkpt lat="43.17162" lon="6.64164">
        <ele>8</ele>
        <time>2025-10-12T12:24:29Z</time>
      </trkpt>
      <trkpt lat="43.17164" lon="6.64159">
        <ele>7</ele>
        <time>2025-10-12T12:24:34Z</time>
      </trkpt>
      <trkpt lat="43.17174" lon="6.64129">
        <ele>4</ele>
        <time>2025-10-12T12:25:05Z</time>
      </trkpt>
      <trkpt lat="43.17177" lon="6.64124">
        <ele>4</ele>
        <time>2025-10-12T12:25:17Z</time>
      </trkpt>
      <trkpt lat="43.17181" lon="6.64119">
        <ele>4</ele>
        <time>2025-10-12T12:25:30Z</time>
      </trkpt>
      <trkpt lat="43.17182" lon="6.64114">
        <ele>4</ele>
        <time>2025-10-12T12:25:35Z</time>
      </trkpt>
      <trkpt lat="43.17189" lon="6.64098">
        <ele>3</ele>
        <time>2025-10-12T12:25:47Z</time>
      </trkpt>
      <trkpt lat="43.17192" lon="6.64095">
        <ele>3</ele>
        <time>2025-10-12T12:25:51Z</time>
      </trkpt>
      <trkpt lat="43.17196" lon="6.64094">
        <ele>3</ele>
        <time>2025-10-12T12:25:55Z</time>
      </trkpt>
      <trkpt lat="43.17199" lon="6.6409">
        <ele>3</ele>
        <time>2025-10-12T12:25:59Z</time>
      </trkpt>
      <trkpt lat="43.17197" lon="6.64085">
        <ele>3</ele>
        <time>2025-10-12T12:26:03Z</time>
      </trkpt>
      <trkpt lat="43.17195" lon="6.64077">
        <ele>2</ele>
        <time>2025-10-12T12:26:11Z</time>
      </trkpt>
      <trkpt lat="43.17197" lon="6.64064">
        <ele>2.7</ele>
        <time>2025-10-12T12:26:25Z</time>
      </trkpt>
      <trkpt lat="43.17204" lon="6.64052">
        <ele>2.5</ele>
        <time>2025-10-12T12:26:38Z</time>
      </trkpt>
      <trkpt lat="43.17206" lon="6.64047">
        <ele>2.4</ele>
        <time>2025-10-12T12:26:43Z</time>
      </trkpt>
      <trkpt lat="43.17211" lon="6.64034">
        <ele>1.9</ele>
        <time>2025-10-12T12:26:54Z</time>
      </trkpt>
      <trkpt lat="43.17215" lon="6.64028">
        <ele>1</ele>
        <time>2025-10-12T12:27:02Z</time>
      </trkpt>
      <trkpt lat="43.17218" lon="6.64024">
        <ele>2</ele>
        <time>2025-10-12T12:27:08Z</time>
      </trkpt>
      <trkpt lat="43.17221" lon="6.64019">
        <ele>3</ele>
        <time>2025-10-12T12:27:13Z</time>
      </trkpt>
      <trkpt lat="43.17224" lon="6.64015">
        <ele>3</ele>
        <time>2025-10-12T12:27:17Z</time>
      </trkpt>
      <trkpt lat="43.17232" lon="6.64006">
        <ele>1</ele>
        <time>2025-10-12T12:27:37Z</time>
      </trkpt>
      <trkpt lat="43.17234" lon="6.64004">
        <ele>2</ele>
        <time>2025-10-12T12:34:24Z</time>
      </trkpt>
      <trkpt lat="43.17236" lon="6.64">
        <ele>2</ele>
        <time>2025-10-12T12:36:42Z</time>
      </trkpt>
      <trkpt lat="43.17241" lon="6.63997">
        <ele>2</ele>
        <time>2025-10-12T12:37:30Z</time>
      </trkpt>
      <trkpt lat="43.1725" lon="6.63992">
        <ele>2</ele>
        <time>2025-10-12T12:37:40Z</time>
      </trkpt>
      <trkpt lat="43.17253" lon="6.63989">
        <ele>2</ele>
        <time>2025-10-12T12:37:44Z</time>
      </trkpt>
      <trkpt lat="43.17257" lon="6.63985">
        <ele>3</ele>
        <time>2025-10-12T12:37:51Z</time>
      </trkpt>
      <trkpt lat="43.17265" lon="6.63974">
        <ele>3</ele>
        <time>2025-10-12T12:38:04Z</time>
      </trkpt>
      <trkpt lat="43.17268" lon="6.63972">
        <ele>3</ele>
        <time>2025-10-12T12:38:08Z</time>
      </trkpt>
      <trkpt lat="43.17271" lon="6.63968">
        <ele>3</ele>
        <time>2025-10-12T12:38:12Z</time>
      </trkpt>
      <trkpt lat="43.17275" lon="6.63963">
        <ele>2</ele>
        <time>2025-10-12T12:38:18Z</time>
      </trkpt>
      <trkpt lat="43.17278" lon="6.6396">
        <ele>2</ele>
        <time>2025-10-12T12:38:22Z</time>
      </trkpt>
      <trkpt lat="43.1728" lon="6.63957">
        <ele>2</ele>
        <time>2025-10-12T12:38:26Z</time>
      </trkpt>
      <trkpt lat="43.17284" lon="6.63952">
        <ele>3</ele>
        <time>2025-10-12T12:38:32Z</time>
      </trkpt>
      <trkpt lat="43.17294" lon="6.63945">
        <ele>3</ele>
        <time>2025-10-12T12:38:43Z</time>
      </trkpt>
      <trkpt lat="43.17298" lon="6.6394">
        <ele>3</ele>
        <time>2025-10-12T12:38:49Z</time>
      </trkpt>
      <trkpt lat="43.17302" lon="6.63932">
        <ele>5</ele>
        <time>2025-10-12T12:39:01Z</time>
      </trkpt>
      <trkpt lat="43.17306" lon="6.63928">
        <ele>5</ele>
        <time>2025-10-12T12:39:07Z</time>
      </trkpt>
      <trkpt lat="43.1732" lon="6.63922">
        <ele>7</ele>
        <time>2025-10-12T12:39:26Z</time>
      </trkpt>
      <trkpt lat="43.17322" lon="6.63919">
        <ele>7</ele>
        <time>2025-10-12T12:39:30Z</time>
      </trkpt>
      <trkpt lat="43.17326" lon="6.63918">
        <ele>8</ele>
        <time>2025-10-12T12:39:35Z</time>
      </trkpt>
      <trkpt lat="43.17334" lon="6.6392">
        <ele>9</ele>
        <time>2025-10-12T12:39:45Z</time>
      </trkpt>
      <trkpt lat="43.17341" lon="6.63924">
        <ele>8</ele>
        <time>2025-10-12T12:39:57Z</time>
      </trkpt>
      <trkpt lat="43.17369" lon="6.6394">
        <ele>7</ele>
        <time>2025-10-12T12:40:28Z</time>
      </trkpt>
      <trkpt lat="43.17372" lon="6.63942">
        <ele>7</ele>
        <time>2025-10-12T12:40:31Z</time>
      </trkpt>
      <trkpt lat="43.17387" lon="6.63948">
        <ele>7</ele>
        <time>2025-10-12T12:40:45Z</time>
      </trkpt>
      <trkpt lat="43.17398" lon="6.6396">
        <ele>7</ele>
        <time>2025-10-12T12:40:56Z</time>
      </trkpt>
      <trkpt lat="43.17411" lon="6.63967">
        <ele>7</ele>
        <time>2025-10-12T12:41:08Z</time>
      </trkpt>
      <trkpt lat="43.17414" lon="6.63968">
        <ele>7</ele>
        <time>2025-10-12T12:41:11Z</time>
      </trkpt>
      <trkpt lat="43.17423" lon="6.63975">
        <ele>8</ele>
        <time>2025-10-12T12:41:20Z</time>
      </trkpt>
      <trkpt lat="43.1743" lon="6.63985">
        <ele>8</ele>
        <time>2025-10-12T12:41:30Z</time>
      </trkpt>
      <trkpt lat="43.17433" lon="6.63989">
        <ele>8</ele>
        <time>2025-10-12T12:41:43Z</time>
      </trkpt>
      <trkpt lat="43.17436" lon="6.6399">
        <ele>8</ele>
        <time>2025-10-12T12:41:51Z</time>
      </trkpt>
      <trkpt lat="43.1744" lon="6.63989">
        <ele>8</ele>
        <time>2025-10-12T12:41:57Z</time>
      </trkpt>
      <trkpt lat="43.17444" lon="6.6399">
        <ele>8</ele>
        <time>2025-10-12T12:42:00Z</time>
      </trkpt>
      <trkpt lat="43.17448" lon="6.63989">
        <ele>8</ele>
        <time>2025-10-12T12:42:06Z</time>
      </trkpt>
      <trkpt lat="43.17451" lon="6.63989">
        <ele>8</ele>
        <time>2025-10-12T12:42:10Z</time>
      </trkpt>
      <trkpt lat="43.17454" lon="6.63989">
        <ele>8</ele>
        <time>2025-10-12T12:42:13Z</time>
      </trkpt>
      <trkpt lat="43.17457" lon="6.63988">
        <ele>8</ele>
        <time>2025-10-12T12:42:17Z</time>
      </trkpt>
      <trkpt lat="43.17488" lon="6.63985">
        <ele>8</ele>
        <time>2025-10-12T12:42:50Z</time>
      </trkpt>
      <trkpt lat="43.17498" lon="6.63985">
        <ele>8</ele>
        <time>2025-10-12T12:43:00Z</time>
      </trkpt>
      <trkpt lat="43.17512" lon="6.63992">
        <ele>9</ele>
        <time>2025-10-12T12:43:16Z</time>
      </trkpt>
      <trkpt lat="43.17516" lon="6.63995">
        <ele>9</ele>
        <time>2025-10-12T12:43:21Z</time>
      </trkpt>
      <trkpt lat="43.17533" lon="6.63996">
        <ele>9</ele>
        <time>2025-10-12T12:43:39Z</time>
      </trkpt>
      <trkpt lat="43.17538" lon="6.63998">
        <ele>9</ele>
        <time>2025-10-12T12:43:46Z</time>
      </trkpt>
      <trkpt lat="43.1754" lon="6.64002">
        <ele>10</ele>
        <time>2025-10-12T12:43:50Z</time>
      </trkpt>
      <trkpt lat="43.17543" lon="6.64004">
        <ele>10</ele>
        <time>2025-10-12T12:43:54Z</time>
      </trkpt>
      <trkpt lat="43.17546" lon="6.64003">
        <ele>10</ele>
        <time>2025-10-12T12:43:59Z</time>
      </trkpt>
      <trkpt lat="43.17549" lon="6.64">
        <ele>10</ele>
        <time>2025-10-12T12:44:04Z</time>
      </trkpt>
      <trkpt lat="43.17552" lon="6.63996">
        <ele>10</ele>
        <time>2025-10-12T12:44:16Z</time>
      </trkpt>
      <trkpt lat="43.17556" lon="6.63988">
        <ele>10</ele>
        <time>2025-10-12T12:44:52Z</time>
      </trkpt>
      <trkpt lat="43.17559" lon="6.63982">
        <ele>11</ele>
        <time>2025-10-12T12:45:00Z</time>
      </trkpt>
      <trkpt lat="43.17563" lon="6.63971">
        <ele>12</ele>
        <time>2025-10-12T12:45:12Z</time>
      </trkpt>
      <trkpt lat="43.17566" lon="6.63967">
        <ele>13</ele>
        <time>2025-10-12T12:45:17Z</time>
      </trkpt>
      <trkpt lat="43.17567" lon="6.63962">
        <ele>13</ele>
        <time>2025-10-12T12:45:23Z</time>
      </trkpt>
      <trkpt lat="43.1757" lon="6.63955">
        <ele>13</ele>
        <time>2025-10-12T12:45:31Z</time>
      </trkpt>
      <trkpt lat="43.17584" lon="6.63936">
        <ele>17</ele>
        <time>2025-10-12T12:46:00Z</time>
      </trkpt>
      <trkpt lat="43.17585" lon="6.63931">
        <ele>17</ele>
        <time>2025-10-12T12:46:06Z</time>
      </trkpt>
      <trkpt lat="43.17605" lon="6.6391">
        <ele>21</ele>
        <time>2025-10-12T12:46:43Z</time>
      </trkpt>
      <trkpt lat="43.1761" lon="6.639">
        <ele>22</ele>
        <time>2025-10-12T12:47:00Z</time>
      </trkpt>
      <trkpt lat="43.17614" lon="6.63892">
        <ele>23</ele>
        <time>2025-10-12T12:47:10Z</time>
      </trkpt>
      <trkpt lat="43.17619" lon="6.63882">
        <ele>24</ele>
        <time>2025-10-12T12:47:22Z</time>
      </trkpt>
      <trkpt lat="43.17632" lon="6.6385">
        <ele>27</ele>
        <time>2025-10-12T12:47:54Z</time>
      </trkpt>
      <trkpt lat="43.17635" lon="6.63845">
        <ele>27</ele>
        <time>2025-10-12T12:47:59Z</time>
      </trkpt>
      <trkpt lat="43.17637" lon="6.63828">
        <ele>28</ele>
        <time>2025-10-12T12:48:12Z</time>
      </trkpt>
      <trkpt lat="43.17644" lon="6.63808">
        <ele>29</ele>
        <time>2025-10-12T12:48:28Z</time>
      </trkpt>
      <trkpt lat="43.17645" lon="6.63796">
        <ele>29</ele>
        <time>2025-10-12T12:48:36Z</time>
      </trkpt>
      <trkpt lat="43.17645" lon="6.63772">
        <ele>30</ele>
        <time>2025-10-12T12:48:51Z</time>
      </trkpt>
      <trkpt lat="43.1765" lon="6.63747">
        <ele>30</ele>
        <time>2025-10-12T12:49:07Z</time>
      </trkpt>
      <trkpt lat="43.17652" lon="6.63742">
        <ele>30</ele>
        <time>2025-10-12T12:49:11Z</time>
      </trkpt>
      <trkpt lat="43.17659" lon="6.63706">
        <ele>31</ele>
        <time>2025-10-12T12:49:36Z</time>
      </trkpt>
      <trkpt lat="43.17661" lon="6.637">
        <ele>32</ele>
        <time>2025-10-12T12:49:41Z</time>
      </trkpt>
      <trkpt lat="43.17666" lon="6.6368">
        <ele>33</ele>
        <time>2025-10-12T12:49:59Z</time>
      </trkpt>
      <trkpt lat="43.17672" lon="6.63668">
        <ele>35</ele>
        <time>2025-10-12T12:50:10Z</time>
      </trkpt>
      <trkpt lat="43.17673" lon="6.63662">
        <ele>35</ele>
        <time>2025-10-12T12:50:14Z</time>
      </trkpt>
      <trkpt lat="43.17676" lon="6.63655">
        <ele>36</ele>
        <time>2025-10-12T12:50:21Z</time>
      </trkpt>
      <trkpt lat="43.17679" lon="6.63651">
        <ele>36</ele>
        <time>2025-10-12T12:50:26Z</time>
      </trkpt>
      <trkpt lat="43.17683" lon="6.63644">
        <ele>37</ele>
        <time>2025-10-12T12:50:33Z</time>
      </trkpt>
      <trkpt lat="43.17694" lon="6.63623">
        <ele>40</ele>
        <time>2025-10-12T12:50:58Z</time>
      </trkpt>
      <trkpt lat="43.17701" lon="6.63612">
        <ele>41</ele>
        <time>2025-10-12T12:51:11Z</time>
      </trkpt>
      <trkpt lat="43.17704" lon="6.63608">
        <ele>41</ele>
        <time>2025-10-12T12:51:17Z</time>
      </trkpt>
      <trkpt lat="43.17705" lon="6.63602">
        <ele>42</ele>
        <time>2025-10-12T12:51:23Z</time>
      </trkpt>
      <trkpt lat="43.17712" lon="6.63592">
        <ele>44</ele>
        <time>2025-10-12T12:51:37Z</time>
      </trkpt>
      <trkpt lat="43.17715" lon="6.63588">
        <ele>45</ele>
        <time>2025-10-12T12:51:49Z</time>
      </trkpt>
      <trkpt lat="43.1772" lon="6.63575">
        <ele>45</ele>
        <time>2025-10-12T12:52:13Z</time>
      </trkpt>
      <trkpt lat="43.17723" lon="6.6357">
        <ele>46</ele>
        <time>2025-10-12T12:52:18Z</time>
      </trkpt>
      <trkpt lat="43.17726" lon="6.63565">
        <ele>46</ele>
        <time>2025-10-12T12:52:23Z</time>
      </trkpt>
      <trkpt lat="43.17731" lon="6.63541">
        <ele>48</ele>
        <time>2025-10-12T12:52:45Z</time>
      </trkpt>
      <trkpt lat="43.17741" lon="6.63518">
        <ele>49</ele>
        <time>2025-10-12T12:53:05Z</time>
      </trkpt>
      <trkpt lat="43.17745" lon="6.63514">
        <ele>49</ele>
        <time>2025-10-12T12:53:09Z</time>
      </trkpt>
      <trkpt lat="43.17752" lon="6.63502">
        <ele>50</ele>
        <time>2025-10-12T12:53:24Z</time>
      </trkpt>
      <trkpt lat="43.17766" lon="6.63488">
        <ele>50</ele>
        <time>2025-10-12T12:53:56Z</time>
      </trkpt>
      <trkpt lat="43.17782" lon="6.63477">
        <ele>51</ele>
        <time>2025-10-12T12:54:15Z</time>
      </trkpt>
      <trkpt lat="43.17791" lon="6.63473">
        <ele>52</ele>
        <time>2025-10-12T12:54:28Z</time>
      </trkpt>
      <trkpt lat="43.17795" lon="6.63471">
        <ele>52</ele>
        <time>2025-10-12T12:54:33Z</time>
      </trkpt>
      <trkpt lat="43.17804" lon="6.63469">
        <ele>52</ele>
        <time>2025-10-12T12:54:46Z</time>
      </trkpt>
      <trkpt lat="43.1781" lon="6.63465">
        <ele>53</ele>
        <time>2025-10-12T12:56:13Z</time>
      </trkpt>
      <trkpt lat="43.17823" lon="6.63457">
        <ele>54</ele>
        <time>2025-10-12T12:58:10Z</time>
      </trkpt>
      <trkpt lat="43.17843" lon="6.63424">
        <ele>53</ele>
        <time>2025-10-12T12:58:46Z</time>
      </trkpt>
      <trkpt lat="43.17854" lon="6.63407">
        <ele>53</ele>
        <time>2025-10-12T12:59:10Z</time>
      </trkpt>
      <trkpt lat="43.17858" lon="6.63403">
        <ele>53</ele>
        <time>2025-10-12T12:59:51Z</time>
      </trkpt>
      <trkpt lat="43.17871" lon="6.634">
        <ele>54</ele>
        <time>2025-10-12T13:00:07Z</time>
      </trkpt>
      <trkpt lat="43.17876" lon="6.63396">
        <ele>54</ele>
        <time>2025-10-12T13:00:14Z</time>
      </trkpt>
      <trkpt lat="43.17898" lon="6.63374">
        <ele>53</ele>
        <time>2025-10-12T13:00:43Z</time>
      </trkpt>
      <trkpt lat="43.1791" lon="6.6336">
        <ele>52</ele>
        <time>2025-10-12T13:00:59Z</time>
      </trkpt>
      <trkpt lat="43.17913" lon="6.63353">
        <ele>51</ele>
        <time>2025-10-12T13:01:06Z</time>
      </trkpt>
      <trkpt lat="43.17918" lon="6.63347">
        <ele>51</ele>
        <time>2025-10-12T13:01:12Z</time>
      </trkpt>
      <trkpt lat="43.17927" lon="6.63337">
        <ele>51</ele>
        <time>2025-10-12T13:01:23Z</time>
      </trkpt>
      <trkpt lat="43.1794" lon="6.63324">
        <ele>50</ele>
        <time>2025-10-12T13:01:40Z</time>
      </trkpt>
      <trkpt lat="43.17945" lon="6.63318">
        <ele>50</ele>
        <time>2025-10-12T13:01:47Z</time>
      </trkpt>
      <trkpt lat="43.17948" lon="6.63313">
        <ele>51</ele>
        <time>2025-10-12T13:01:54Z</time>
      </trkpt>
      <trkpt lat="43.17955" lon="6.63308">
        <ele>51</ele>
        <time>2025-10-12T13:02:05Z</time>
      </trkpt>
      <trkpt lat="43.1797" lon="6.63291">
        <ele>53</ele>
        <time>2025-10-12T13:02:28Z</time>
      </trkpt>
      <trkpt lat="43.17995" lon="6.63274">
        <ele>56</ele>
        <time>2025-10-12T13:03:04Z</time>
      </trkpt>
      <trkpt lat="43.18011" lon="6.63269">
        <ele>57</ele>
        <time>2025-10-12T13:03:22Z</time>
      </trkpt>
      <trkpt lat="43.18017" lon="6.63266">
        <ele>57</ele>
        <time>2025-10-12T13:03:28Z</time>
      </trkpt>
      <trkpt lat="43.18028" lon="6.63253">
        <ele>57</ele>
        <time>2025-10-12T13:03:43Z</time>
      </trkpt>
      <trkpt lat="43.18036" lon="6.63242">
        <ele>56</ele>
        <time>2025-10-12T13:03:55Z</time>
      </trkpt>
      <trkpt lat="43.18043" lon="6.63233">
        <ele>56</ele>
        <time>2025-10-12T13:04:05Z</time>
      </trkpt>
      <trkpt lat="43.18053" lon="6.63229">
        <ele>55</ele>
        <time>2025-10-12T13:04:15Z</time>
      </trkpt>
      <trkpt lat="43.18069" lon="6.63214">
        <ele>52</ele>
        <time>2025-10-12T13:04:40Z</time>
      </trkpt>
      <trkpt lat="43.18075" lon="6.63204">
        <ele>50</ele>
        <time>2025-10-12T13:04:53Z</time>
      </trkpt>
      <trkpt lat="43.18079" lon="6.63197">
        <ele>48</ele>
        <time>2025-10-12T13:05:05Z</time>
      </trkpt>
      <trkpt lat="43.18095" lon="6.63162">
        <ele>44</ele>
        <time>2025-10-12T13:05:41Z</time>
      </trkpt>
      <trkpt lat="43.18099" lon="6.63156">
        <ele>43</ele>
        <time>2025-10-12T13:05:47Z</time>
      </trkpt>
      <trkpt lat="43.18112" lon="6.63111">
        <ele>41</ele>
        <time>2025-10-12T13:06:21Z</time>
      </trkpt>
      <trkpt lat="43.18115" lon="6.63103">
        <ele>41</ele>
        <time>2025-10-12T13:06:27Z</time>
      </trkpt>
      <trkpt lat="43.18119" lon="6.63097">
        <ele>41</ele>
        <time>2025-10-12T13:06:33Z</time>
      </trkpt>
      <trkpt lat="43.18126" lon="6.63082">
        <ele>41</ele>
        <time>2025-10-12T13:06:46Z</time>
      </trkpt>
      <trkpt lat="43.18139" lon="6.63058">
        <ele>39</ele>
        <time>2025-10-12T13:07:10Z</time>
      </trkpt>
      <trkpt lat="43.18146" lon="6.63031">
        <ele>38</ele>
        <time>2025-10-12T13:07:30Z</time>
      </trkpt>
      <trkpt lat="43.18163" lon="6.62997">
        <ele>35</ele>
        <time>2025-10-12T13:07:59Z</time>
      </trkpt>
      <trkpt lat="43.18185" lon="6.62977">
        <ele>34</ele>
        <time>2025-10-12T13:08:24Z</time>
      </trkpt>
      <trkpt lat="43.18202" lon="6.62967">
        <ele>33</ele>
        <time>2025-10-12T13:08:45Z</time>
      </trkpt>
      <trkpt lat="43.18215" lon="6.62968">
        <ele>32</ele>
        <time>2025-10-12T13:08:59Z</time>
      </trkpt>
      <trkpt lat="43.1822" lon="6.6297">
        <ele>32</ele>
        <time>2025-10-12T13:09:04Z</time>
      </trkpt>
      <trkpt lat="43.18224" lon="6.62967">
        <ele>31</ele>
        <time>2025-10-12T13:09:09Z</time>
      </trkpt>
      <trkpt lat="43.1823" lon="6.62959">
        <ele>30</ele>
        <time>2025-10-12T13:09:18Z</time>
      </trkpt>
      <trkpt lat="43.18233" lon="6.62954">
        <ele>30</ele>
        <time>2025-10-12T13:09:24Z</time>
      </trkpt>
      <trkpt lat="43.18233" lon="6.62946">
        <ele>29</ele>
        <time>2025-10-12T13:09:30Z</time>
      </trkpt>
      <trkpt lat="43.1824" lon="6.62934">
        <ele>29</ele>
        <time>2025-10-12T13:09:40Z</time>
      </trkpt>
      <trkpt lat="43.18251" lon="6.62936">
        <ele>30</ele>
        <time>2025-10-12T13:09:53Z</time>
      </trkpt>
      <trkpt lat="43.18263" lon="6.62941">
        <ele>30</ele>
        <time>2025-10-12T13:10:05Z</time>
      </trkpt>
      <trkpt lat="43.18269" lon="6.6294">
        <ele>30</ele>
        <time>2025-10-12T13:10:10Z</time>
      </trkpt>
      <trkpt lat="43.18283" lon="6.62931">
        <ele>32</ele>
        <time>2025-10-12T13:10:27Z</time>
      </trkpt>
      <trkpt lat="43.18297" lon="6.62928">
        <ele>34</ele>
        <time>2025-10-12T13:10:58Z</time>
      </trkpt>
      <trkpt lat="43.18297" lon="6.62927">
        <ele>36</ele>
        <time>2025-10-12T13:16:36Z</time>
      </trkpt>
      <trkpt lat="43.18309" lon="6.62933">
        <ele>37</ele>
        <time>2025-10-12T13:17:06Z</time>
      </trkpt>
      <trkpt lat="43.18318" lon="6.62939">
        <ele>37</ele>
        <time>2025-10-12T13:17:18Z</time>
      </trkpt>
      <trkpt lat="43.18327" lon="6.62943">
        <ele>37</ele>
        <time>2025-10-12T13:17:30Z</time>
      </trkpt>
      <trkpt lat="43.18332" lon="6.62945">
        <ele>37</ele>
        <time>2025-10-12T13:17:36Z</time>
      </trkpt>
      <trkpt lat="43.18343" lon="6.62947">
        <ele>37</ele>
        <time>2025-10-12T13:17:49Z</time>
      </trkpt>
      <trkpt lat="43.18353" lon="6.6295">
        <ele>37</ele>
        <time>2025-10-12T13:18:01Z</time>
      </trkpt>
      <trkpt lat="43.18374" lon="6.62951">
        <ele>38</ele>
        <time>2025-10-12T13:18:23Z</time>
      </trkpt>
      <trkpt lat="43.18379" lon="6.62949">
        <ele>38</ele>
        <time>2025-10-12T13:18:28Z</time>
      </trkpt>
      <trkpt lat="43.18384" lon="6.62949">
        <ele>39</ele>
        <time>2025-10-12T13:18:33Z</time>
      </trkpt>
      <trkpt lat="43.18404" lon="6.62944">
        <ele>39</ele>
        <time>2025-10-12T13:18:56Z</time>
      </trkpt>
      <trkpt lat="43.18412" lon="6.62944">
        <ele>40</ele>
        <time>2025-10-12T13:19:04Z</time>
      </trkpt>
      <trkpt lat="43.18418" lon="6.62947">
        <ele>39</ele>
        <time>2025-10-12T13:19:13Z</time>
      </trkpt>
      <trkpt lat="43.18429" lon="6.62948">
        <ele>41</ele>
        <time>2025-10-12T13:19:25Z</time>
      </trkpt>
      <trkpt lat="43.18433" lon="6.62951">
        <ele>41</ele>
        <time>2025-10-12T13:19:29Z</time>
      </trkpt>
      <trkpt lat="43.18445" lon="6.62954">
        <ele>42</ele>
        <time>2025-10-12T13:19:43Z</time>
      </trkpt>
      <trkpt lat="43.18449" lon="6.62954">
        <ele>42</ele>
        <time>2025-10-12T13:19:47Z</time>
      </trkpt>
      <trkpt lat="43.18452" lon="6.62952">
        <ele>41</ele>
        <time>2025-10-12T13:19:51Z</time>
      </trkpt>
      <trkpt lat="43.18456" lon="6.62951">
        <ele>41</ele>
        <time>2025-10-12T13:19:55Z</time>
      </trkpt>
      <trkpt lat="43.18476" lon="6.62944">
        <ele>42</ele>
        <time>2025-10-12T13:20:17Z</time>
      </trkpt>
      <trkpt lat="43.18489" lon="6.6294">
        <ele>43</ele>
        <time>2025-10-12T13:20:31Z</time>
      </trkpt>
      <trkpt lat="43.18502" lon="6.62941">
        <ele>43</ele>
        <time>2025-10-12T13:20:44Z</time>
      </trkpt>
      <trkpt lat="43.18507" lon="6.62937">
        <ele>43</ele>
        <time>2025-10-12T13:20:50Z</time>
      </trkpt>
      <trkpt lat="43.18531" lon="6.6293">
        <ele>44</ele>
        <time>2025-10-12T13:21:15Z</time>
      </trkpt>
      <trkpt lat="43.18541" lon="6.62924">
        <ele>44</ele>
        <time>2025-10-12T13:21:25Z</time>
      </trkpt>
      <trkpt lat="43.18545" lon="6.6292">
        <ele>44</ele>
        <time>2025-10-12T13:21:30Z</time>
      </trkpt>
      <trkpt lat="43.18552" lon="6.62915">
        <ele>44</ele>
        <time>2025-10-12T13:21:39Z</time>
      </trkpt>
      <trkpt lat="43.18587" lon="6.62916">
        <ele>47</ele>
        <time>2025-10-12T13:22:15Z</time>
      </trkpt>
      <trkpt lat="43.18597" lon="6.62916">
        <ele>47</ele>
        <time>2025-10-12T13:22:25Z</time>
      </trkpt>
      <trkpt lat="43.18618" lon="6.62905">
        <ele>48</ele>
        <time>2025-10-12T13:22:47Z</time>
      </trkpt>
      <trkpt lat="43.18633" lon="6.62888">
        <ele>49</ele>
        <time>2025-10-12T13:23:08Z</time>
      </trkpt>
      <trkpt lat="43.18636" lon="6.62882">
        <ele>50</ele>
        <time>2025-10-12T13:23:14Z</time>
      </trkpt>
      <trkpt lat="43.18643" lon="6.62877">
        <ele>51</ele>
        <time>2025-10-12T13:23:22Z</time>
      </trkpt>
      <trkpt lat="43.18674" lon="6.62874">
        <ele>53</ele>
        <time>2025-10-12T13:23:57Z</time>
      </trkpt>
      <trkpt lat="43.18683" lon="6.62871">
        <ele>54</ele>
        <time>2025-10-12T13:24:07Z</time>
      </trkpt>
      <trkpt lat="43.18701" lon="6.62849">
        <ele>55</ele>
        <time>2025-10-12T13:24:34Z</time>
      </trkpt>
      <trkpt lat="43.18704" lon="6.62843">
        <ele>56</ele>
        <time>2025-10-12T13:24:40Z</time>
      </trkpt>
      <trkpt lat="43.1871" lon="6.62838">
        <ele>56</ele>
        <time>2025-10-12T13:24:46Z</time>
      </trkpt>
      <trkpt lat="43.18706" lon="6.62842">
        <ele>56</ele>
        <time>2025-10-12T13:25:09Z</time>
      </trkpt>
      <trkpt lat="43.18695" lon="6.62853">
        <ele>56</ele>
        <time>2025-10-12T13:25:25Z</time>
      </trkpt>
      <trkpt lat="43.18689" lon="6.62861">
        <ele>55</ele>
        <time>2025-10-12T13:25:32Z</time>
      </trkpt>
      <trkpt lat="43.18687" lon="6.62866">
        <ele>55</ele>
        <time>2025-10-12T13:25:35Z</time>
      </trkpt>
      <trkpt lat="43.18694" lon="6.62859">
        <ele>54</ele>
        <time>2025-10-12T13:29:41Z</time>
      </trkpt>
      <trkpt lat="43.187" lon="6.62852">
        <ele>55</ele>
        <time>2025-10-12T13:29:48Z</time>
      </trkpt>
      <trkpt lat="43.18703" lon="6.62846">
        <ele>56</ele>
        <time>2025-10-12T13:30:10Z</time>
      </trkpt>
      <trkpt lat="43.18711" lon="6.6284">
        <ele>56</ele>
        <time>2025-10-12T13:30:21Z</time>
      </trkpt>
      <trkpt lat="43.1872" lon="6.6284">
        <ele>57</ele>
        <time>2025-10-12T13:30:30Z</time>
      </trkpt>
      <trkpt lat="43.18731" lon="6.62847">
        <ele>58</ele>
        <time>2025-10-12T13:30:44Z</time>
      </trkpt>
      <trkpt lat="43.18743" lon="6.62863">
        <ele>59</ele>
        <time>2025-10-12T13:31:03Z</time>
      </trkpt>
      <trkpt lat="43.18748" lon="6.62867">
        <ele>60</ele>
        <time>2025-10-12T13:31:09Z</time>
      </trkpt>
      <trkpt lat="43.18757" lon="6.62867">
        <ele>60</ele>
        <time>2025-10-12T13:31:23Z</time>
      </trkpt>
      <trkpt lat="43.18762" lon="6.62865">
        <ele>60</ele>
        <time>2025-10-12T13:31:29Z</time>
      </trkpt>
      <trkpt lat="43.18788" lon="6.62857">
        <ele>62</ele>
        <time>2025-10-12T13:32:00Z</time>
      </trkpt>
      <trkpt lat="43.18793" lon="6.62856">
        <ele>62</ele>
        <time>2025-10-12T13:32:06Z</time>
      </trkpt>
      <trkpt lat="43.18809" lon="6.62847">
        <ele>64</ele>
        <time>2025-10-12T13:32:26Z</time>
      </trkpt>
      <trkpt lat="43.18829" lon="6.62841">
        <ele>66</ele>
        <time>2025-10-12T13:32:52Z</time>
      </trkpt>
      <trkpt lat="43.18834" lon="6.62838">
        <ele>66</ele>
        <time>2025-10-12T13:32:58Z</time>
      </trkpt>
      <trkpt lat="43.18838" lon="6.62833">
        <ele>65</ele>
        <time>2025-10-12T13:33:03Z</time>
      </trkpt>
      <trkpt lat="43.18846" lon="6.62826">
        <ele>66</ele>
        <time>2025-10-12T13:33:12Z</time>
      </trkpt>
      <trkpt lat="43.1886" lon="6.62808">
        <ele>66</ele>
        <time>2025-10-12T13:33:33Z</time>
      </trkpt>
      <trkpt lat="43.18863" lon="6.62802">
        <ele>66</ele>
        <time>2025-10-12T13:33:38Z</time>
      </trkpt>
      <trkpt lat="43.18874" lon="6.62793">
        <ele>67</ele>
        <time>2025-10-12T13:33:49Z</time>
      </trkpt>
      <trkpt lat="43.18886" lon="6.62778">
        <ele>67</ele>
        <time>2025-10-12T13:34:05Z</time>
      </trkpt>
      <trkpt lat="43.18889" lon="6.62772">
        <ele>67</ele>
        <time>2025-10-12T13:34:09Z</time>
      </trkpt>
      <trkpt lat="43.18893" lon="6.62767">
        <ele>68</ele>
        <time>2025-10-12T13:34:14Z</time>
      </trkpt>
      <trkpt lat="43.18913" lon="6.62754">
        <ele>69</ele>
        <time>2025-10-12T13:34:39Z</time>
      </trkpt>
      <trkpt lat="43.18926" lon="6.6274">
        <ele>70</ele>
        <time>2025-10-12T13:34:56Z</time>
      </trkpt>
      <trkpt lat="43.18936" lon="6.62727">
        <ele>70</ele>
        <time>2025-10-12T13:35:11Z</time>
      </trkpt>
      <trkpt lat="43.18939" lon="6.6272">
        <ele>70</ele>
        <time>2025-10-12T13:35:16Z</time>
      </trkpt>
      <trkpt lat="43.18943" lon="6.62716">
        <ele>69</ele>
        <time>2025-10-12T13:35:22Z</time>
      </trkpt>
      <trkpt lat="43.18949" lon="6.62716">
        <ele>70</ele>
        <time>2025-10-12T13:35:29Z</time>
      </trkpt>
      <trkpt lat="43.18968" lon="6.62727">
        <ele>73</ele>
        <time>2025-10-12T13:35:55Z</time>
      </trkpt>
      <trkpt lat="43.18985" lon="6.62728">
        <ele>75</ele>
        <time>2025-10-12T13:36:13Z</time>
      </trkpt>
      <trkpt lat="43.18989" lon="6.62731">
        <ele>76</ele>
        <time>2025-10-12T13:36:19Z</time>
      </trkpt>
      <trkpt lat="43.18995" lon="6.62724">
        <ele>78</ele>
        <time>2025-10-12T13:36:31Z</time>
      </trkpt>
      <trkpt lat="43.18993" lon="6.62713">
        <ele>79</ele>
        <time>2025-10-12T13:36:43Z</time>
      </trkpt>
      <trkpt lat="43.18988" lon="6.62707">
        <ele>80</ele>
        <time>2025-10-12T13:36:52Z</time>
      </trkpt>
      <trkpt lat="43.18983" lon="6.62697">
        <ele>82</ele>
        <time>2025-10-12T13:37:04Z</time>
      </trkpt>
      <trkpt lat="43.18984" lon="6.62691">
        <ele>83</ele>
        <time>2025-10-12T13:37:10Z</time>
      </trkpt>
      <trkpt lat="43.18985" lon="6.62684">
        <ele>83</ele>
        <time>2025-10-12T13:37:15Z</time>
      </trkpt>
      <trkpt lat="43.18986" lon="6.62678">
        <ele>83</ele>
        <time>2025-10-12T13:37:20Z</time>
      </trkpt>
      <trkpt lat="43.18988" lon="6.62671">
        <ele>83</ele>
        <time>2025-10-12T13:37:28Z</time>
      </trkpt>
      <trkpt lat="43.18996" lon="6.62635">
        <ele>88</ele>
        <time>2025-10-12T13:38:06Z</time>
      </trkpt>
      <trkpt lat="43.18996" lon="6.62622">
        <ele>90</ele>
        <time>2025-10-12T13:38:18Z</time>
      </trkpt>
      <trkpt lat="43.18998" lon="6.62614">
        <ele>91</ele>
        <time>2025-10-12T13:38:30Z</time>
      </trkpt>
      <trkpt lat="43.19005" lon="6.62612">
        <ele>92</ele>
        <time>2025-10-12T13:38:42Z</time>
      </trkpt>
      <trkpt lat="43.1901" lon="6.62616">
        <ele>93</ele>
        <time>2025-10-12T13:38:48Z</time>
      </trkpt>
      <trkpt lat="43.19012" lon="6.62622">
        <ele>94</ele>
        <time>2025-10-12T13:38:56Z</time>
      </trkpt>
      <trkpt lat="43.19017" lon="6.62631">
        <ele>96</ele>
        <time>2025-10-12T13:39:08Z</time>
      </trkpt>
      <trkpt lat="43.19021" lon="6.62633">
        <ele>97</ele>
        <time>2025-10-12T13:39:12Z</time>
      </trkpt>
      <trkpt lat="43.19044" lon="6.62636">
        <ele>99</ele>
        <time>2025-10-12T13:39:41Z</time>
      </trkpt>
      <trkpt lat="43.19073" lon="6.62629">
        <ele>103</ele>
        <time>2025-10-12T13:40:20Z</time>
      </trkpt>
      <trkpt lat="43.19078" lon="6.62629">
        <ele>103</ele>
        <time>2025-10-12T13:40:38Z</time>
      </trkpt>
      <trkpt lat="43.19091" lon="6.62622">
        <ele>103</ele>
        <time>2025-10-12T13:45:22Z</time>
      </trkpt>
      <trkpt lat="43.19118" lon="6.6259">
        <ele>104</ele>
        <time>2025-10-12T13:46:02Z</time>
      </trkpt>
      <trkpt lat="43.19125" lon="6.62579">
        <ele>105</ele>
        <time>2025-10-12T13:46:14Z</time>
      </trkpt>
      <trkpt lat="43.19139" lon="6.62556">
        <ele>107</ele>
        <time>2025-10-12T13:46:37Z</time>
      </trkpt>
      <trkpt lat="43.1915" lon="6.62533">
        <ele>108</ele>
        <time>2025-10-12T13:46:56Z</time>
      </trkpt>
      <trkpt lat="43.19151" lon="6.62524">
        <ele>108</ele>
        <time>2025-10-12T13:47:03Z</time>
      </trkpt>
      <trkpt lat="43.19163" lon="6.62514">
        <ele>109</ele>
        <time>2025-10-12T13:47:15Z</time>
      </trkpt>
      <trkpt lat="43.19173" lon="6.62508">
        <ele>110</ele>
        <time>2025-10-12T13:47:25Z</time>
      </trkpt>
      <trkpt lat="43.19183" lon="6.62507">
        <ele>112</ele>
        <time>2025-10-12T13:47:36Z</time>
      </trkpt>
      <trkpt lat="43.1919" lon="6.62504">
        <ele>113</ele>
        <time>2025-10-12T13:47:45Z</time>
      </trkpt>
      <trkpt lat="43.192" lon="6.62501">
        <ele>115</ele>
        <time>2025-10-12T13:47:56Z</time>
      </trkpt>
      <trkpt lat="43.19214" lon="6.62496">
        <ele>116</ele>
        <time>2025-10-12T13:48:15Z</time>
      </trkpt>
      <trkpt lat="43.19216" lon="6.62489">
        <ele>116</ele>
        <time>2025-10-12T13:48:25Z</time>
      </trkpt>
      <trkpt lat="43.19207" lon="6.62486">
        <ele>117</ele>
        <time>2025-10-12T13:48:37Z</time>
      </trkpt>
      <trkpt lat="43.19199" lon="6.62479">
        <ele>118</ele>
        <time>2025-10-12T13:48:50Z</time>
      </trkpt>
      <trkpt lat="43.19197" lon="6.62466">
        <ele>119</ele>
        <time>2025-10-12T13:49:03Z</time>
      </trkpt>
      <trkpt lat="43.19192" lon="6.62444">
        <ele>121</ele>
        <time>2025-10-12T13:49:23Z</time>
      </trkpt>
      <trkpt lat="43.1918" lon="6.62428">
        <ele>124</ele>
        <time>2025-10-12T13:49:41Z</time>
      </trkpt>
      <trkpt lat="43.19171" lon="6.62421">
        <ele>125</ele>
        <time>2025-10-12T13:49:54Z</time>
      </trkpt>
      <trkpt lat="43.19162" lon="6.62417">
        <ele>127</ele>
        <time>2025-10-12T13:50:06Z</time>
      </trkpt>
      <trkpt lat="43.19156" lon="6.62414">
        <ele>128</ele>
        <time>2025-10-12T13:50:14Z</time>
      </trkpt>
      <trkpt lat="43.19144" lon="6.62412">
        <ele>129</ele>
        <time>2025-10-12T13:50:25Z</time>
      </trkpt>
      <trkpt lat="43.19114" lon="6.62428">
        <ele>135</ele>
        <time>2025-10-12T13:51:04Z</time>
      </trkpt>
      <trkpt lat="43.19093" lon="6.62438">
        <ele>138</ele>
        <time>2025-10-12T13:51:31Z</time>
      </trkpt>
      <trkpt lat="43.1907" lon="6.62438">
        <ele>143</ele>
        <time>2025-10-12T13:52:10Z</time>
      </trkpt>
      <trkpt lat="43.19061" lon="6.62437">
        <ele>144</ele>
        <time>2025-10-12T13:52:23Z</time>
      </trkpt>
      <trkpt lat="43.19045" lon="6.62427">
        <ele>147</ele>
        <time>2025-10-12T13:52:47Z</time>
      </trkpt>
      <trkpt lat="43.19038" lon="6.62421">
        <ele>149</ele>
        <time>2025-10-12T13:52:59Z</time>
      </trkpt>
      <trkpt lat="43.19019" lon="6.62412">
        <ele>152</ele>
        <time>2025-10-12T13:53:24Z</time>
      </trkpt>
      <trkpt lat="43.18988" lon="6.62386">
        <ele>155</ele>
        <time>2025-10-12T13:54:04Z</time>
      </trkpt>
      <trkpt lat="43.18982" lon="6.62376">
        <ele>154</ele>
        <time>2025-10-12T13:54:14Z</time>
      </trkpt>
      <trkpt lat="43.18985" lon="6.62364">
        <ele>153</ele>
        <time>2025-10-12T13:54:28Z</time>
      </trkpt>
      <trkpt lat="43.1899" lon="6.6235">
        <ele>151</ele>
        <time>2025-10-12T13:54:46Z</time>
      </trkpt>
      <trkpt lat="43.18995" lon="6.62344">
        <ele>149</ele>
        <time>2025-10-12T13:55:00Z</time>
      </trkpt>
      <trkpt lat="43.19012" lon="6.62319">
        <ele>146</ele>
        <time>2025-10-12T13:55:27Z</time>
      </trkpt>
      <trkpt lat="43.19018" lon="6.62313">
        <ele>145</ele>
        <time>2025-10-12T13:55:33Z</time>
      </trkpt>
      <trkpt lat="43.19023" lon="6.62304">
        <ele>144</ele>
        <time>2025-10-12T13:55:43Z</time>
      </trkpt>
      <trkpt lat="43.19052" lon="6.62275">
        <ele>140</ele>
        <time>2025-10-12T13:56:20Z</time>
      </trkpt>
      <trkpt lat="43.1905" lon="6.62266">
        <ele>139</ele>
        <time>2025-10-12T13:57:46Z</time>
      </trkpt>
      <trkpt lat="43.19061" lon="6.62256">
        <ele>137</ele>
        <time>2025-10-12T14:00:09Z</time>
      </trkpt>
      <trkpt lat="43.19066" lon="6.62246">
        <ele>137</ele>
        <time>2025-10-12T14:00:19Z</time>
      </trkpt>
      <trkpt lat="43.19066" lon="6.62234">
        <ele>138</ele>
        <time>2025-10-12T14:00:31Z</time>
      </trkpt>
      <trkpt lat="43.19067" lon="6.62223">
        <ele>138</ele>
        <time>2025-10-12T14:00:40Z</time>
      </trkpt>
      <trkpt lat="43.19067" lon="6.62202">
        <ele>139</ele>
        <time>2025-10-12T14:00:57Z</time>
      </trkpt>
      <trkpt lat="43.19078" lon="6.62168">
        <ele>141</ele>
        <time>2025-10-12T14:01:24Z</time>
      </trkpt>
      <trkpt lat="43.19091" lon="6.62147">
        <ele>142</ele>
        <time>2025-10-12T14:01:46Z</time>
      </trkpt>
      <trkpt lat="43.19097" lon="6.6214">
        <ele>142</ele>
        <time>2025-10-12T14:01:55Z</time>
      </trkpt>
      <trkpt lat="43.19106" lon="6.62124">
        <ele>143</ele>
        <time>2025-10-12T14:02:10Z</time>
      </trkpt>
      <trkpt lat="43.19115" lon="6.62109">
        <ele>143</ele>
        <time>2025-10-12T14:02:24Z</time>
      </trkpt>
      <trkpt lat="43.19122" lon="6.62101">
        <ele>144</ele>
        <time>2025-10-12T14:02:33Z</time>
      </trkpt>
      <trkpt lat="43.19135" lon="6.62079">
        <ele>144</ele>
        <time>2025-10-12T14:02:52Z</time>
      </trkpt>
      <trkpt lat="43.19139" lon="6.62069">
        <ele>144</ele>
        <time>2025-10-12T14:03:00Z</time>
      </trkpt>
      <trkpt lat="43.19143" lon="6.62059">
        <ele>145</ele>
        <time>2025-10-12T14:03:09Z</time>
      </trkpt>
      <trkpt lat="43.19162" lon="6.62025">
        <ele>146</ele>
        <time>2025-10-12T14:03:40Z</time>
      </trkpt>
      <trkpt lat="43.19167" lon="6.62016">
        <ele>146</ele>
        <time>2025-10-12T14:03:48Z</time>
      </trkpt>
      <trkpt lat="43.19168" lon="6.62007">
        <ele>146</ele>
        <time>2025-10-12T14:03:54Z</time>
      </trkpt>
      <trkpt lat="43.19167" lon="6.61987">
        <ele>146</ele>
        <time>2025-10-12T14:04:14Z</time>
      </trkpt>
      <trkpt lat="43.19168" lon="6.6197">
        <ele>145</ele>
        <time>2025-10-12T14:04:28Z</time>
      </trkpt>
      <trkpt lat="43.19171" lon="6.61961">
        <ele>145</ele>
        <time>2025-10-12T14:04:35Z</time>
      </trkpt>
      <trkpt lat="43.19172" lon="6.61937">
        <ele>144</ele>
        <time>2025-10-12T14:04:49Z</time>
      </trkpt>
      <trkpt lat="43.1917" lon="6.61924">
        <ele>144</ele>
        <time>2025-10-12T14:04:58Z</time>
      </trkpt>
      <trkpt lat="43.19152" lon="6.61893">
        <ele>146</ele>
        <time>2025-10-12T14:05:25Z</time>
      </trkpt>
      <trkpt lat="43.19146" lon="6.61861">
        <ele>147</ele>
        <time>2025-10-12T14:05:49Z</time>
      </trkpt>
      <trkpt lat="43.19145" lon="6.61849">
        <ele>147</ele>
        <time>2025-10-12T14:05:57Z</time>
      </trkpt>
      <trkpt lat="43.19141" lon="6.6184">
        <ele>147</ele>
        <time>2025-10-12T14:06:04Z</time>
      </trkpt>
      <trkpt lat="43.19145" lon="6.61819">
        <ele>147</ele>
        <time>2025-10-12T14:06:18Z</time>
      </trkpt>
      <trkpt lat="43.19152" lon="6.61796">
        <ele>145</ele>
        <time>2025-10-12T14:06:37Z</time>
      </trkpt>
      <trkpt lat="43.19152" lon="6.61784">
        <ele>144</ele>
        <time>2025-10-12T14:06:44Z</time>
      </trkpt>
      <trkpt lat="43.19149" lon="6.61763">
        <ele>144</ele>
        <time>2025-10-12T14:06:58Z</time>
      </trkpt>
      <trkpt lat="43.19151" lon="6.61738">
        <ele>143</ele>
        <time>2025-10-12T14:07:14Z</time>
      </trkpt>
      <trkpt lat="43.1915" lon="6.61728">
        <ele>142</ele>
        <time>2025-10-12T14:07:21Z</time>
      </trkpt>
      <trkpt lat="43.19147" lon="6.61717">
        <ele>142</ele>
        <time>2025-10-12T14:07:28Z</time>
      </trkpt>
      <trkpt lat="43.19141" lon="6.61711">
        <ele>142</ele>
        <time>2025-10-12T14:07:34Z</time>
      </trkpt>
      <trkpt lat="43.19105" lon="6.61712">
        <ele>144</ele>
        <time>2025-10-12T14:08:07Z</time>
      </trkpt>
      <trkpt lat="43.19077" lon="6.61714">
        <ele>147</ele>
        <time>2025-10-12T14:08:38Z</time>
      </trkpt>
      <trkpt lat="43.19068" lon="6.61712">
        <ele>148</ele>
        <time>2025-10-12T14:08:49Z</time>
      </trkpt>
      <trkpt lat="43.19053" lon="6.61716">
        <ele>150</ele>
        <time>2025-10-12T14:09:07Z</time>
      </trkpt>
      <trkpt lat="43.19044" lon="6.6172">
        <ele>151</ele>
        <time>2025-10-12T14:09:18Z</time>
      </trkpt>
      <trkpt lat="43.19036" lon="6.61721">
        <ele>152</ele>
        <time>2025-10-12T14:09:27Z</time>
      </trkpt>
      <trkpt lat="43.19022" lon="6.61719">
        <ele>153</ele>
        <time>2025-10-12T14:09:42Z</time>
      </trkpt>
      <trkpt lat="43.19014" lon="6.61713">
        <ele>155</ele>
        <time>2025-10-12T14:09:55Z</time>
      </trkpt>
      <trkpt lat="43.19009" lon="6.61711">
        <ele>155</ele>
        <time>2025-10-12T14:09:59Z</time>
      </trkpt>
      <trkpt lat="43.19006" lon="6.61707">
        <ele>156</ele>
        <time>2025-10-12T14:10:04Z</time>
      </trkpt>
      <trkpt lat="43.18999" lon="6.61701">
        <ele>157</ele>
        <time>2025-10-12T14:10:15Z</time>
      </trkpt>
      <trkpt lat="43.18972" lon="6.61679">
        <ele>159</ele>
        <time>2025-10-12T14:10:48Z</time>
      </trkpt>
      <trkpt lat="43.1895" lon="6.61658">
        <ele>159</ele>
        <time>2025-10-12T14:11:14Z</time>
      </trkpt>
      <trkpt lat="43.18927" lon="6.61618">
        <ele>160</ele>
        <time>2025-10-12T14:11:51Z</time>
      </trkpt>
      <trkpt lat="43.18917" lon="6.61588">
        <ele>160</ele>
        <time>2025-10-12T14:12:14Z</time>
      </trkpt>
      <trkpt lat="43.18897" lon="6.61542">
        <ele>160</ele>
        <time>2025-10-12T14:12:49Z</time>
      </trkpt>
      <trkpt lat="43.1889" lon="6.61526">
        <ele>160</ele>
        <time>2025-10-12T14:13:00Z</time>
      </trkpt>
      <trkpt lat="43.18888" lon="6.61519">
        <ele>161</ele>
        <time>2025-10-12T14:13:08Z</time>
      </trkpt>
      <trkpt lat="43.18883" lon="6.61512">
        <ele>162</ele>
        <time>2025-10-12T14:13:22Z</time>
      </trkpt>
      <trkpt lat="43.18877" lon="6.6151">
        <ele>162</ele>
        <time>2025-10-12T14:13:28Z</time>
      </trkpt>
      <trkpt lat="43.18866" lon="6.61508">
        <ele>162</ele>
        <time>2025-10-12T14:13:38Z</time>
      </trkpt>
      <trkpt lat="43.18861" lon="6.61508">
        <ele>161</ele>
        <time>2025-10-12T14:13:46Z</time>
      </trkpt>
      <trkpt lat="43.18855" lon="6.61509">
        <ele>161</ele>
        <time>2025-10-12T14:13:51Z</time>
      </trkpt>
      <trkpt lat="43.18849" lon="6.61508">
        <ele>161</ele>
        <time>2025-10-12T14:13:56Z</time>
      </trkpt>
      <trkpt lat="43.18831" lon="6.61509">
        <ele>162</ele>
        <time>2025-10-12T14:14:14Z</time>
      </trkpt>
      <trkpt lat="43.18825" lon="6.61507">
        <ele>162</ele>
        <time>2025-10-12T14:14:20Z</time>
      </trkpt>
      <trkpt lat="43.18811" lon="6.61509">
        <ele>163</ele>
        <time>2025-10-12T14:14:32Z</time>
      </trkpt>
      <trkpt lat="43.188" lon="6.61511">
        <ele>162</ele>
        <time>2025-10-12T14:14:44Z</time>
      </trkpt>
      <trkpt lat="43.18793" lon="6.6151">
        <ele>162</ele>
        <time>2025-10-12T14:14:49Z</time>
      </trkpt>
      <trkpt lat="43.1876" lon="6.61515">
        <ele>163</ele>
        <time>2025-10-12T14:15:20Z</time>
      </trkpt>
      <trkpt lat="43.18752" lon="6.61516">
        <ele>164</ele>
        <time>2025-10-12T14:15:28Z</time>
      </trkpt>
      <trkpt lat="43.18746" lon="6.61516">
        <ele>164</ele>
        <time>2025-10-12T14:15:34Z</time>
      </trkpt>
      <trkpt lat="43.18741" lon="6.61517">
        <ele>165</ele>
        <time>2025-10-12T14:15:38Z</time>
      </trkpt>
      <trkpt lat="43.18735" lon="6.61517">
        <ele>165</ele>
        <time>2025-10-12T14:15:43Z</time>
      </trkpt>
      <trkpt lat="43.18711" lon="6.61527">
        <ele>166</ele>
        <time>2025-10-12T14:16:08Z</time>
      </trkpt>
      <trkpt lat="43.18676" lon="6.6154">
        <ele>165</ele>
        <time>2025-10-12T14:16:43Z</time>
      </trkpt>
      <trkpt lat="43.18657" lon="6.61546">
        <ele>165</ele>
        <time>2025-10-12T14:17:02Z</time>
      </trkpt>
      <trkpt lat="43.18645" lon="6.61552">
        <ele>164</ele>
        <time>2025-10-12T14:17:14Z</time>
      </trkpt>
      <trkpt lat="43.18639" lon="6.61557">
        <ele>163</ele>
        <time>2025-10-12T14:17:21Z</time>
      </trkpt>
      <trkpt lat="43.18633" lon="6.6156">
        <ele>163</ele>
        <time>2025-10-12T14:17:26Z</time>
      </trkpt>
      <trkpt lat="43.18626" lon="6.6156">
        <ele>162</ele>
        <time>2025-10-12T14:17:32Z</time>
      </trkpt>
      <trkpt lat="43.18615" lon="6.61563">
        <ele>161</ele>
        <time>2025-10-12T14:17:45Z</time>
      </trkpt>
      <trkpt lat="43.18596" lon="6.61556">
        <ele>158</ele>
        <time>2025-10-12T14:18:08Z</time>
      </trkpt>
      <trkpt lat="43.18589" lon="6.61556">
        <ele>157</ele>
        <time>2025-10-12T14:18:14Z</time>
      </trkpt>
      <trkpt lat="43.18576" lon="6.61553">
        <ele>156</ele>
        <time>2025-10-12T14:18:25Z</time>
      </trkpt>
      <trkpt lat="43.18542" lon="6.61562">
        <ele>155</ele>
        <time>2025-10-12T14:18:57Z</time>
      </trkpt>
      <trkpt lat="43.18502" lon="6.61564">
        <ele>153</ele>
        <time>2025-10-12T14:19:32Z</time>
      </trkpt>
      <trkpt lat="43.18495" lon="6.61564">
        <ele>153</ele>
        <time>2025-10-12T14:19:38Z</time>
      </trkpt>
      <trkpt lat="43.18488" lon="6.61564">
        <ele>153</ele>
        <time>2025-10-12T14:19:43Z</time>
      </trkpt>
      <trkpt lat="43.18468" lon="6.61561">
        <ele>151</ele>
        <time>2025-10-12T14:20:03Z</time>
      </trkpt>
      <trkpt lat="43.1846" lon="6.61563">
        <ele>151</ele>
        <time>2025-10-12T14:20:15Z</time>
      </trkpt>
      <trkpt lat="43.18437" lon="6.61561">
        <ele>152</ele>
        <time>2025-10-12T14:20:50Z</time>
      </trkpt>
      <trkpt lat="43.18426" lon="6.61562">
        <ele>153</ele>
        <time>2025-10-12T14:21:02Z</time>
      </trkpt>
      <trkpt lat="43.1842" lon="6.61564">
        <ele>153</ele>
        <time>2025-10-12T14:21:09Z</time>
      </trkpt>
      <trkpt lat="43.18414" lon="6.61564">
        <ele>153</ele>
        <time>2025-10-12T14:21:15Z</time>
      </trkpt>
      <trkpt lat="43.18405" lon="6.61566">
        <ele>154</ele>
        <time>2025-10-12T14:21:26Z</time>
      </trkpt>
      <trkpt lat="43.18387" lon="6.61555">
        <ele>157</ele>
        <time>2025-10-12T14:21:51Z</time>
      </trkpt>
      <trkpt lat="43.18381" lon="6.61554">
        <ele>157</ele>
        <time>2025-10-12T14:21:57Z</time>
      </trkpt>
      <trkpt lat="43.18375" lon="6.61556">
        <ele>157</ele>
        <time>2025-10-12T14:22:05Z</time>
      </trkpt>
      <trkpt lat="43.18347" lon="6.61552">
        <ele>156</ele>
        <time>2025-10-12T14:22:30Z</time>
      </trkpt>
      <trkpt lat="43.18342" lon="6.61548">
        <ele>156</ele>
        <time>2025-10-12T14:22:36Z</time>
      </trkpt>
      <trkpt lat="43.18336" lon="6.61544">
        <ele>157</ele>
        <time>2025-10-12T14:22:57Z</time>
      </trkpt>
      <trkpt lat="43.18339" lon="6.61526">
        <ele>157</ele>
        <time>2025-10-12T14:26:39Z</time>
      </trkpt>
      <trkpt lat="43.18349" lon="6.61505">
        <ele>158</ele>
        <time>2025-10-12T14:26:59Z</time>
      </trkpt>
      <trkpt lat="43.18347" lon="6.61496">
        <ele>158</ele>
        <time>2025-10-12T14:27:07Z</time>
      </trkpt>
      <trkpt lat="43.18342" lon="6.61492">
        <ele>158</ele>
        <time>2025-10-12T14:27:14Z</time>
      </trkpt>
      <trkpt lat="43.18329" lon="6.61467">
        <ele>156</ele>
        <time>2025-10-12T14:27:38Z</time>
      </trkpt>
      <trkpt lat="43.18324" lon="6.61463">
        <ele>155</ele>
        <time>2025-10-12T14:27:43Z</time>
      </trkpt>
      <trkpt lat="43.18298" lon="6.61456">
        <ele>153</ele>
        <time>2025-10-12T14:28:10Z</time>
      </trkpt>
      <trkpt lat="43.18272" lon="6.61427">
        <ele>148</ele>
        <time>2025-10-12T14:28:44Z</time>
      </trkpt>
      <trkpt lat="43.1827" lon="6.61415">
        <ele>147</ele>
        <time>2025-10-12T14:29:00Z</time>
      </trkpt>
      <trkpt lat="43.18271" lon="6.61407">
        <ele>146</ele>
        <time>2025-10-12T14:29:05Z</time>
      </trkpt>
      <trkpt lat="43.18269" lon="6.61392">
        <ele>144</ele>
        <time>2025-10-12T14:29:16Z</time>
      </trkpt>
      <trkpt lat="43.18265" lon="6.61376">
        <ele>144</ele>
        <time>2025-10-12T14:29:27Z</time>
      </trkpt>
      <trkpt lat="43.18261" lon="6.6137">
        <ele>144</ele>
        <time>2025-10-12T14:29:33Z</time>
      </trkpt>
      <trkpt lat="43.18252" lon="6.61363">
        <ele>144</ele>
        <time>2025-10-12T14:29:44Z</time>
      </trkpt>
      <trkpt lat="43.18253" lon="6.61355">
        <ele>144</ele>
        <time>2025-10-12T14:29:49Z</time>
      </trkpt>
      <trkpt lat="43.18259" lon="6.61354">
        <ele>143</ele>
        <time>2025-10-12T14:29:54Z</time>
      </trkpt>
      <trkpt lat="43.18263" lon="6.61354">
        <ele>143</ele>
        <time>2025-10-12T14:29:58Z</time>
      </trkpt>
      <trkpt lat="43.18278" lon="6.61367">
        <ele>140</ele>
        <time>2025-10-12T14:30:15Z</time>
      </trkpt>
      <trkpt lat="43.18281" lon="6.61372">
        <ele>140</ele>
        <time>2025-10-12T14:30:20Z</time>
      </trkpt>
      <trkpt lat="43.18284" lon="6.61376">
        <ele>140</ele>
        <time>2025-10-12T14:30:24Z</time>
      </trkpt>
      <trkpt lat="43.18289" lon="6.61379">
        <ele>140</ele>
        <time>2025-10-12T14:30:29Z</time>
      </trkpt>
      <trkpt lat="43.18294" lon="6.61379">
        <ele>140</ele>
        <time>2025-10-12T14:30:33Z</time>
      </trkpt>
      <trkpt lat="43.18299" lon="6.61378">
        <ele>139</ele>
        <time>2025-10-12T14:30:37Z</time>
      </trkpt>
      <trkpt lat="43.18302" lon="6.61374">
        <ele>139</ele>
        <time>2025-10-12T14:30:41Z</time>
      </trkpt>
      <trkpt lat="43.18308" lon="6.61366">
        <ele>138</ele>
        <time>2025-10-12T14:30:50Z</time>
      </trkpt>
      <trkpt lat="43.18308" lon="6.61359">
        <ele>137</ele>
        <time>2025-10-12T14:30:55Z</time>
      </trkpt>
      <trkpt lat="43.18304" lon="6.61339">
        <ele>135</ele>
        <time>2025-10-12T14:31:14Z</time>
      </trkpt>
      <trkpt lat="43.18292" lon="6.61324">
        <ele>133</ele>
        <time>2025-10-12T14:31:33Z</time>
      </trkpt>
      <trkpt lat="43.18289" lon="6.61318">
        <ele>133</ele>
        <time>2025-10-12T14:31:38Z</time>
      </trkpt>
      <trkpt lat="43.1826" lon="6.61285">
        <ele>131</ele>
        <time>2025-10-12T14:32:13Z</time>
      </trkpt>
      <trkpt lat="43.18248" lon="6.61278">
        <ele>129</ele>
        <time>2025-10-12T14:32:35Z</time>
      </trkpt>
      <trkpt lat="43.18251" lon="6.61273">
        <ele>129</ele>
        <time>2025-10-12T14:33:05Z</time>
      </trkpt>
      <trkpt lat="43.18263" lon="6.61265">
        <ele>124</ele>
        <time>2025-10-12T14:37:32Z</time>
      </trkpt>
      <trkpt lat="43.18276" lon="6.61265">
        <ele>122</ele>
        <time>2025-10-12T14:37:48Z</time>
      </trkpt>
      <trkpt lat="43.18286" lon="6.61261">
        <ele>121</ele>
        <time>2025-10-12T14:37:59Z</time>
      </trkpt>
      <trkpt lat="43.1829" lon="6.61256">
        <ele>121</ele>
        <time>2025-10-12T14:38:04Z</time>
      </trkpt>
      <trkpt lat="43.18293" lon="6.6125">
        <ele>121</ele>
        <time>2025-10-12T14:38:09Z</time>
      </trkpt>
      <trkpt lat="43.18297" lon="6.61241">
        <ele>121</ele>
        <time>2025-10-12T14:38:16Z</time>
      </trkpt>
      <trkpt lat="43.18314" lon="6.61215">
        <ele>118</ele>
        <time>2025-10-12T14:38:41Z</time>
      </trkpt>
      <trkpt lat="43.18335" lon="6.61196">
        <ele>115</ele>
        <time>2025-10-12T14:39:06Z</time>
      </trkpt>
      <trkpt lat="43.18339" lon="6.6119">
        <ele>114</ele>
        <time>2025-10-12T14:39:11Z</time>
      </trkpt>
      <trkpt lat="43.18345" lon="6.61186">
        <ele>113</ele>
        <time>2025-10-12T14:39:18Z</time>
      </trkpt>
      <trkpt lat="43.18349" lon="6.61182">
        <ele>113</ele>
        <time>2025-10-12T14:39:23Z</time>
      </trkpt>
      <trkpt lat="43.18353" lon="6.61176">
        <ele>112</ele>
        <time>2025-10-12T14:39:31Z</time>
      </trkpt>
      <trkpt lat="43.18359" lon="6.61156">
        <ele>110</ele>
        <time>2025-10-12T14:39:49Z</time>
      </trkpt>
      <trkpt lat="43.18361" lon="6.61149">
        <ele>109</ele>
        <time>2025-10-12T14:39:54Z</time>
      </trkpt>
      <trkpt lat="43.18363" lon="6.61138">
        <ele>109</ele>
        <time>2025-10-12T14:40:02Z</time>
      </trkpt>
      <trkpt lat="43.18376" lon="6.61091">
        <ele>106</ele>
        <time>2025-10-12T14:40:40Z</time>
      </trkpt>
      <trkpt lat="43.18378" lon="6.61083">
        <ele>106</ele>
        <time>2025-10-12T14:40:45Z</time>
      </trkpt>
      <trkpt lat="43.1838" lon="6.61066">
        <ele>105</ele>
        <time>2025-10-12T14:40:56Z</time>
      </trkpt>
      <trkpt lat="43.18379" lon="6.61057">
        <ele>104</ele>
        <time>2025-10-12T14:41:02Z</time>
      </trkpt>
      <trkpt lat="43.18387" lon="6.61014">
        <ele>98</ele>
        <time>2025-10-12T14:41:32Z</time>
      </trkpt>
      <trkpt lat="43.18386" lon="6.61006">
        <ele>97</ele>
        <time>2025-10-12T14:41:37Z</time>
      </trkpt>
      <trkpt lat="43.18383" lon="6.60998">
        <ele>97</ele>
        <time>2025-10-12T14:41:42Z</time>
      </trkpt>
      <trkpt lat="43.18378" lon="6.60992">
        <ele>97</ele>
        <time>2025-10-12T14:41:48Z</time>
      </trkpt>
      <trkpt lat="43.18372" lon="6.60989">
        <ele>96</ele>
        <time>2025-10-12T14:41:53Z</time>
      </trkpt>
      <trkpt lat="43.18348" lon="6.60964">
        <ele>95</ele>
        <time>2025-10-12T14:42:17Z</time>
      </trkpt>
      <trkpt lat="43.18344" lon="6.60949">
        <ele>94</ele>
        <time>2025-10-12T14:42:28Z</time>
      </trkpt>
      <trkpt lat="43.18343" lon="6.6094">
        <ele>93</ele>
        <time>2025-10-12T14:42:34Z</time>
      </trkpt>
      <trkpt lat="43.18346" lon="6.60914">
        <ele>90</ele>
        <time>2025-10-12T14:42:52Z</time>
      </trkpt>
      <trkpt lat="43.18356" lon="6.6086">
        <ele>86</ele>
        <time>2025-10-12T14:43:25Z</time>
      </trkpt>
      <trkpt lat="43.18353" lon="6.60806">
        <ele>82</ele>
        <time>2025-10-12T14:44:01Z</time>
      </trkpt>
      <trkpt lat="43.18354" lon="6.60797">
        <ele>81</ele>
        <time>2025-10-12T14:44:06Z</time>
      </trkpt>
      <trkpt lat="43.18353" lon="6.6078">
        <ele>80</ele>
        <time>2025-10-12T14:44:16Z</time>
      </trkpt>
      <trkpt lat="43.18351" lon="6.60773">
        <ele>80</ele>
        <time>2025-10-12T14:44:21Z</time>
      </trkpt>
      <trkpt lat="43.18349" lon="6.6074">
        <ele>78</ele>
        <time>2025-10-12T14:44:42Z</time>
      </trkpt>
      <trkpt lat="43.18351" lon="6.60731">
        <ele>78</ele>
        <time>2025-10-12T14:44:48Z</time>
      </trkpt>
      <trkpt lat="43.18353" lon="6.60724">
        <ele>77</ele>
        <time>2025-10-12T14:44:53Z</time>
      </trkpt>
      <trkpt lat="43.18353" lon="6.60716">
        <ele>77</ele>
        <time>2025-10-12T14:44:58Z</time>
      </trkpt>
      <trkpt lat="43.18357" lon="6.60681">
        <ele>73</ele>
        <time>2025-10-12T14:45:21Z</time>
      </trkpt>
      <trkpt lat="43.18367" lon="6.60649">
        <ele>70</ele>
        <time>2025-10-12T14:45:43Z</time>
      </trkpt>
      <trkpt lat="43.18381" lon="6.60632">
        <ele>68</ele>
        <time>2025-10-12T14:46:01Z</time>
      </trkpt>
      <trkpt lat="43.18413" lon="6.60607">
        <ele>65</ele>
        <time>2025-10-12T14:46:35Z</time>
      </trkpt>
      <trkpt lat="43.18422" lon="6.60595">
        <ele>63</ele>
        <time>2025-10-12T14:46:46Z</time>
      </trkpt>
      <trkpt lat="43.18418" lon="6.60584">
        <ele>62</ele>
        <time>2025-10-12T14:46:59Z</time>
      </trkpt>
      <trkpt lat="43.18386" lon="6.60552">
        <ele>57</ele>
        <time>2025-10-12T14:47:32Z</time>
      </trkpt>
      <trkpt lat="43.18372" lon="6.60545">
        <ele>55</ele>
        <time>2025-10-12T14:47:45Z</time>
      </trkpt>
      <trkpt lat="43.18366" lon="6.60544">
        <ele>54</ele>
        <time>2025-10-12T14:47:51Z</time>
      </trkpt>
      <trkpt lat="43.18332" lon="6.60525">
        <ele>50</ele>
        <time>2025-10-12T14:48:25Z</time>
      </trkpt>
      <trkpt lat="43.18319" lon="6.60515">
        <ele>48</ele>
        <time>2025-10-12T14:48:38Z</time>
      </trkpt>
      <trkpt lat="43.18316" lon="6.60506">
        <ele>46</ele>
        <time>2025-10-12T14:48:45Z</time>
      </trkpt>
      <trkpt lat="43.18316" lon="6.60478">
        <ele>44</ele>
        <time>2025-10-12T14:49:04Z</time>
      </trkpt>
      <trkpt lat="43.18321" lon="6.60451">
        <ele>41</ele>
        <time>2025-10-12T14:49:24Z</time>
      </trkpt>
      <trkpt lat="43.18328" lon="6.60427">
        <ele>38</ele>
        <time>2025-10-12T14:49:46Z</time>
      </trkpt>
      <trkpt lat="43.18324" lon="6.60419">
        <ele>37</ele>
        <time>2025-10-12T14:49:56Z</time>
      </trkpt>
      <trkpt lat="43.1833" lon="6.60412">
        <ele>37</ele>
        <time>2025-10-12T14:50:21Z</time>
      </trkpt>
      <trkpt lat="43.18343" lon="6.60405">
        <ele>35</ele>
        <time>2025-10-12T14:53:37Z</time>
      </trkpt>
      <trkpt lat="43.18356" lon="6.60407">
        <ele>34</ele>
        <time>2025-10-12T14:53:50Z</time>
      </trkpt>
      <trkpt lat="43.18362" lon="6.60409">
        <ele>34</ele>
        <time>2025-10-12T14:53:56Z</time>
      </trkpt>
      <trkpt lat="43.18368" lon="6.60415">
        <ele>33</ele>
        <time>2025-10-12T14:54:11Z</time>
      </trkpt>
      <trkpt lat="43.18373" lon="6.60417">
        <ele>33</ele>
        <time>2025-10-12T14:54:17Z</time>
      </trkpt>
      <trkpt lat="43.1838" lon="6.60424">
        <ele>32</ele>
        <time>2025-10-12T14:54:26Z</time>
      </trkpt>
      <trkpt lat="43.18401" lon="6.60454">
        <ele>30</ele>
        <time>2025-10-12T14:54:55Z</time>
      </trkpt>
      <trkpt lat="43.18418" lon="6.6046">
        <ele>30</ele>
        <time>2025-10-12T14:55:11Z</time>
      </trkpt>
      <trkpt lat="43.18429" lon="6.60458">
        <ele>29</ele>
        <time>2025-10-12T14:55:22Z</time>
      </trkpt>
      <trkpt lat="43.18443" lon="6.60448">
        <ele>28</ele>
        <time>2025-10-12T14:55:37Z</time>
      </trkpt>
      <trkpt lat="43.1845" lon="6.60438">
        <ele>27</ele>
        <time>2025-10-12T14:55:47Z</time>
      </trkpt>
      <trkpt lat="43.1846" lon="6.60406">
        <ele>24</ele>
        <time>2025-10-12T14:56:15Z</time>
      </trkpt>
      <trkpt lat="43.18459" lon="6.60385">
        <ele>22</ele>
        <time>2025-10-12T14:56:30Z</time>
      </trkpt>
      <trkpt lat="43.18456" lon="6.60373">
        <ele>21</ele>
        <time>2025-10-12T14:56:40Z</time>
      </trkpt>
      <trkpt lat="43.18447" lon="6.60356">
        <ele>19</ele>
        <time>2025-10-12T14:56:53Z</time>
      </trkpt>
      <trkpt lat="43.18428" lon="6.60334">
        <ele>16</ele>
        <time>2025-10-12T14:57:16Z</time>
      </trkpt>
      <trkpt lat="43.18424" lon="6.60331">
        <ele>16</ele>
        <time>2025-10-12T14:57:20Z</time>
      </trkpt>
      <trkpt lat="43.18419" lon="6.6032">
        <ele>15</ele>
        <time>2025-10-12T14:57:31Z</time>
      </trkpt>
      <trkpt lat="43.18409" lon="6.60287">
        <ele>12</ele>
        <time>2025-10-12T14:57:57Z</time>
      </trkpt>
      <trkpt lat="43.18408" lon="6.60271">
        <ele>11</ele>
        <time>2025-10-12T14:58:10Z</time>
      </trkpt>
      <trkpt lat="43.18406" lon="6.6026">
        <ele>10</ele>
        <time>2025-10-12T14:58:18Z</time>
      </trkpt>
      <trkpt lat="43.18404" lon="6.60256">
        <ele>10</ele>
        <time>2025-10-12T14:58:21Z</time>
      </trkpt>
      <trkpt lat="43.18403" lon="6.60249">
        <ele>9</ele>
        <time>2025-10-12T14:58:25Z</time>
      </trkpt>
      <trkpt lat="43.18383" lon="6.60205">
        <ele>7</ele>
        <time>2025-10-12T14:58:58Z</time>
      </trkpt>
      <trkpt lat="43.18367" lon="6.60181">
        <ele>6</ele>
        <time>2025-10-12T14:59:23Z</time>
      </trkpt>
      <trkpt lat="43.18356" lon="6.60172">
        <ele>6</ele>
        <time>2025-10-12T14:59:37Z</time>
      </trkpt>
      <trkpt lat="43.18356" lon="6.60164">
        <ele>6</ele>
        <time>2025-10-12T14:59:42Z</time>
      </trkpt>
      <trkpt lat="43.18356" lon="6.60155">
        <ele>6</ele>
        <time>2025-10-12T14:59:46Z</time>
      </trkpt>
      <trkpt lat="43.1836" lon="6.60148">
        <ele>6</ele>
        <time>2025-10-12T14:59:50Z</time>
      </trkpt>
      <trkpt lat="43.18362" lon="6.60139">
        <ele>6</ele>
        <time>2025-10-12T14:59:58Z</time>
      </trkpt>
      <trkpt lat="43.1837" lon="6.60125">
        <ele>6</ele>
        <time>2025-10-12T15:00:11Z</time>
      </trkpt>
      <trkpt lat="43.1837" lon="6.60117">
        <ele>6</ele>
        <time>2025-10-12T15:00:16Z</time>
      </trkpt>
      <trkpt lat="43.18369" lon="6.60109">
        <ele>6</ele>
        <time>2025-10-12T15:00:21Z</time>
      </trkpt>
      <trkpt lat="43.18374" lon="6.60096">
        <ele>6</ele>
        <time>2025-10-12T15:00:32Z</time>
      </trkpt>
      <trkpt lat="43.18378" lon="6.60072">
        <ele>7</ele>
        <time>2025-10-12T15:00:52Z</time>
      </trkpt>
      <trkpt lat="43.18378" lon="6.60066">
        <ele>6</ele>
        <time>2025-10-12T15:01:04Z</time>
      </trkpt>
      <trkpt lat="43.18374" lon="6.60066">
        <ele>6</ele>
        <time>2025-10-12T15:01:34Z</time>
      </trkpt>
      <trkpt lat="43.18382" lon="6.60048">
        <ele>6</ele>
        <time>2025-10-12T15:07:46Z</time>
      </trkpt>
      <trkpt lat="43.18392" lon="6.60012">
        <ele>6</ele>
        <time>2025-10-12T15:08:17Z</time>
      </trkpt>
      <trkpt lat="43.18406" lon="6.59965">
        <ele>6</ele>
        <time>2025-10-12T15:08:51Z</time>
      </trkpt>
      <trkpt lat="43.18408" lon="6.59958">
        <ele>6</ele>
        <time>2025-10-12T15:08:56Z</time>
      </trkpt>
      <trkpt lat="43.1841" lon="6.59953">
        <ele>6</ele>
        <time>2025-10-12T15:09:00Z</time>
      </trkpt>
      <trkpt lat="43.18412" lon="6.59945">
        <ele>6</ele>
        <time>2025-10-12T15:09:06Z</time>
      </trkpt>
      <trkpt lat="43.18416" lon="6.59937">
        <ele>6</ele>
        <time>2025-10-12T15:09:14Z</time>
      </trkpt>
      <trkpt lat="43.18422" lon="6.59911">
        <ele>6</ele>
        <time>2025-10-12T15:09:35Z</time>
      </trkpt>
      <trkpt lat="43.18421" lon="6.59905">
        <ele>6</ele>
        <time>2025-10-12T15:09:39Z</time>
      </trkpt>
      <trkpt lat="43.18422" lon="6.59894">
        <ele>6</ele>
        <time>2025-10-12T15:09:46Z</time>
      </trkpt>
      <trkpt lat="43.18421" lon="6.59888">
        <ele>6</ele>
        <time>2025-10-12T15:09:50Z</time>
      </trkpt>
      <trkpt lat="43.18424" lon="6.59865">
        <ele>7</ele>
        <time>2025-10-12T15:10:10Z</time>
      </trkpt>
      <trkpt lat="43.18427" lon="6.59853">
        <ele>7</ele>
        <time>2025-10-12T15:10:19Z</time>
      </trkpt>
      <trkpt lat="43.18432" lon="6.59851">
        <ele>7</ele>
        <time>2025-10-12T15:10:28Z</time>
      </trkpt>
      <trkpt lat="43.1844" lon="6.59847">
        <ele>8</ele>
        <time>2025-10-12T15:10:46Z</time>
      </trkpt>
      <trkpt lat="43.18468" lon="6.5985">
        <ele>9</ele>
        <time>2025-10-12T15:11:21Z</time>
      </trkpt>
      <trkpt lat="43.18489" lon="6.59846">
        <ele>10</ele>
        <time>2025-10-12T15:12:00Z</time>
      </trkpt>
      <trkpt lat="43.18494" lon="6.59846">
        <ele>10</ele>
        <time>2025-10-12T15:12:05Z</time>
      </trkpt>
      <trkpt lat="43.18508" lon="6.59851">
        <ele>10</ele>
        <time>2025-10-12T15:12:17Z</time>
      </trkpt>
      <trkpt lat="43.18519" lon="6.5986">
        <ele>10</ele>
        <time>2025-10-12T15:12:27Z</time>
      </trkpt>
      <trkpt lat="43.18524" lon="6.59865">
        <ele>10</ele>
        <time>2025-10-12T15:12:34Z</time>
      </trkpt>
      <trkpt lat="43.18531" lon="6.59875">
        <ele>8</ele>
        <time>2025-10-12T15:12:48Z</time>
      </trkpt>
      <trkpt lat="43.18535" lon="6.59878">
        <ele>7</ele>
        <time>2025-10-12T15:12:55Z</time>
      </trkpt>
      <trkpt lat="43.18534" lon="6.59884">
        <ele>7</ele>
        <time>2025-10-12T15:13:00Z</time>
      </trkpt>
      <trkpt lat="43.1853" lon="6.59888">
        <ele>7</ele>
        <time>2025-10-12T15:13:08Z</time>
      </trkpt>
      <trkpt lat="43.18528" lon="6.599">
        <ele>7</ele>
        <time>2025-10-12T15:13:20Z</time>
      </trkpt>
      <trkpt lat="43.18526" lon="6.59906">
        <ele>7</ele>
        <time>2025-10-12T15:13:25Z</time>
      </trkpt>
      <trkpt lat="43.18525" lon="6.59911">
        <ele>6</ele>
        <time>2025-10-12T15:13:39Z</time>
      </trkpt>
      <trkpt lat="43.18527" lon="6.59913">
        <ele>7</ele>
        <time>2025-10-12T15:14:51Z</time>
      </trkpt>
      <trkpt lat="43.18527" lon="6.59913">
        <ele>7</ele>
        <time>2025-10-12T15:15:27Z</time>
      </trkpt>
      <trkpt lat="43.18528" lon="6.59915">
        <ele>7</ele>
        <time>2025-10-12T15:18:10Z</time>
      </trkpt>
      <trkpt lat="43.18525" lon="6.59909">
        <ele>7</ele>
        <time>2025-10-12T15:18:51Z</time>
      </trkpt>
      <trkpt lat="43.18526" lon="6.5991">
        <ele>7</ele>
        <time>2025-10-12T15:19:33Z</time>
      </trkpt>
      <trkpt lat="43.18528" lon="6.59913">
        <ele>7</ele>
        <time>2025-10-12T15:19:39Z</time>
      </trkpt>
    </trkseg>
  </trk>
</gpx>